Wetterdaten: Mittwoch, 31.08.2016
Datum Zeit Temp. A. Temp. A. max Feuchte A. Luftdruck Regen Wind Richtung Richtung Sonnenschein ET UV Solar Taupunkt Windben
31.08.2016 00:00 13,2 C 13,2 C 95 % 1020,4 hPa 0,0 mm 0,0 km/h (0 Bft) O 82 0 min 0,000 mm 0,0 UV-I 0 W/m 12,4 C 0,0 km/h (0 Bft)
31.08.2016 00:01 13,2 C 13,3 C 95 % 1020,4 hPa 0,0 mm 0,0 km/h (0 Bft) O 82 0 min 0,000 mm 0,0 UV-I 0 W/m 12,4 C 0,0 km/h (0 Bft)
31.08.2016 00:02 13,3 C 13,3 C 95 % 1020,4 hPa 0,0 mm 0,0 km/h (0 Bft) O 82 0 min 0,000 mm 0,0 UV-I 0 W/m 12,5 C 0,0 km/h (0 Bft)
31.08.2016 00:03 13,3 C 13,3 C 95 % 1020,4 hPa 0,0 mm 0,0 km/h (0 Bft) O 82 0 min 0,000 mm 0,0 UV-I 0 W/m 12,5 C 0,0 km/h (0 Bft)
31.08.2016 00:04 13,3 C 13,3 C 95 % 1020,3 hPa 0,0 mm 0,0 km/h (0 Bft) O 82 0 min 0,000 mm 0,0 UV-I 0 W/m 12,5 C 0,0 km/h (0 Bft)
31.08.2016 00:05 13,2 C 13,3 C 95 % 1020,4 hPa 0,0 mm 0,0 km/h (0 Bft) O 82 0 min 0,000 mm 0,0 UV-I 0 W/m 12,4 C 0,0 km/h (0 Bft)
31.08.2016 00:06 13,2 C 13,2 C 95 % 1020,4 hPa 0,0 mm 0,0 km/h (0 Bft) O 82 0 min 0,000 mm 0,0 UV-I 0 W/m 12,4 C 0,0 km/h (0 Bft)
31.08.2016 00:07 13,2 C 13,2 C 95 % 1020,4 hPa 0,0 mm 0,0 km/h (0 Bft) O 82 0 min 0,000 mm 0,0 UV-I 0 W/m 12,4 C 0,0 km/h (0 Bft)
31.08.2016 00:08 13,2 C 13,2 C 95 % 1020,3 hPa 0,0 mm 0,0 km/h (0 Bft) O 82 0 min 0,000 mm 0,0 UV-I 0 W/m 12,4 C 0,0 km/h (0 Bft)
31.08.2016 00:09 13,3 C 13,3 C 95 % 1020,3 hPa 0,0 mm 0,0 km/h (0 Bft) O 82 0 min 0,000 mm 0,0 UV-I 0 W/m 12,5 C 0,0 km/h (0 Bft)
31.08.2016 00:10 13,3 C 13,3 C 96 % 1020,3 hPa 0,0 mm 0,0 km/h (0 Bft) O 82 0 min 0,000 mm 0,0 UV-I 0 W/m 12,7 C 0,0 km/h (0 Bft)
31.08.2016 00:11 13,2 C 13,3 C 95 % 1020,3 hPa 0,0 mm 0,0 km/h (0 Bft) O 82 0 min 0,000 mm 0,0 UV-I 0 W/m 12,4 C 0,0 km/h (0 Bft)
31.08.2016 00:12 13,2 C 13,3 C 95 % 1020,3 hPa 0,0 mm 0,0 km/h (0 Bft) O 82 0 min 0,000 mm 0,0 UV-I 0 W/m 12,4 C 0,0 km/h (0 Bft)
31.08.2016 00:13 13,3 C 13,3 C 95 % 1020,3 hPa 0,0 mm 0,0 km/h (0 Bft) O 82 0 min 0,000 mm 0,0 UV-I 0 W/m 12,5 C 0,0 km/h (0 Bft)
31.08.2016 00:14 13,3 C 13,3 C 95 % 1020,3 hPa 0,0 mm 0,0 km/h (0 Bft) O 82 0 min 0,000 mm 0,0 UV-I 0 W/m 12,5 C 0,0 km/h (0 Bft)
31.08.2016 00:15 13,3 C 13,3 C 96 % 1020,2 hPa 0,0 mm 0,0 km/h (0 Bft) O 82 0 min 0,000 mm 0,0 UV-I 0 W/m 12,7 C 0,0 km/h (0 Bft)
31.08.2016 00:16 13,3 C 13,3 C 96 % 1020,2 hPa 0,0 mm 0,0 km/h (0 Bft) O 82 0 min 0,000 mm 0,0 UV-I 0 W/m 12,7 C 0,0 km/h (0 Bft)
31.08.2016 00:17 13,2 C 13,3 C 95 % 1020,2 hPa 0,0 mm 0,0 km/h (0 Bft) O 82 0 min 0,000 mm 0,0 UV-I 0 W/m 12,4 C 0,0 km/h (0 Bft)
31.08.2016 00:18 13,2 C 13,2 C 95 % 1020,1 hPa 0,0 mm 0,0 km/h (0 Bft) O 82 0 min 0,000 mm 0,0 UV-I 0 W/m 12,4 C 0,0 km/h (0 Bft)
31.08.2016 00:19 13,2 C 13,2 C 95 % 1020,1 hPa 0,0 mm 0,0 km/h (0 Bft) O 82 0 min 0,000 mm 0,0 UV-I 0 W/m 12,4 C 0,0 km/h (0 Bft)
31.08.2016 00:20 13,2 C 13,2 C 95 % 1020,1 hPa 0,0 mm 0,0 km/h (0 Bft) O 82 0 min 0,000 mm 0,0 UV-I 0 W/m 12,4 C 0,0 km/h (0 Bft)
31.08.2016 00:21 13,2 C 13,2 C 95 % 1020,1 hPa 0,0 mm 0,0 km/h (0 Bft) O 82 0 min 0,000 mm 0,0 UV-I 0 W/m 12,4 C 0,0 km/h (0 Bft)
31.08.2016 00:22 13,1 C 13,2 C 95 % 1020,1 hPa 0,0 mm 0,0 km/h (0 Bft) O 82 0 min 0,000 mm 0,0 UV-I 0 W/m 12,3 C 0,0 km/h (0 Bft)
31.08.2016 00:23 13,2 C 13,2 C 95 % 1020,0 hPa 0,0 mm 0,0 km/h (0 Bft) O 82 0 min 0,000 mm 0,0 UV-I 0 W/m 12,4 C 0,0 km/h (0 Bft)
31.08.2016 00:24 13,2 C 13,2 C 96 % 1020,1 hPa 0,0 mm 0,0 km/h (0 Bft) O 82 0 min 0,000 mm 0,0 UV-I 0 W/m 12,6 C 0,0 km/h (0 Bft)
31.08.2016 00:25 13,3 C 13,3 C 96 % 1020,1 hPa 0,0 mm 0,9 km/h (0 Bft) O 82 0 min 0,000 mm 0,0 UV-I 0 W/m 12,7 C 3,2 km/h (1 Bft)
31.08.2016 00:26 13,4 C 13,4 C 96 % 1020,1 hPa 0,0 mm 2,0 km/h (1 Bft) O-SO 123 0 min 0,000 mm 0,0 UV-I 0 W/m 12,8 C 3,2 km/h (1 Bft)
31.08.2016 00:27 13,4 C 13,4 C 96 % 1020,1 hPa 0,0 mm 2,9 km/h (1 Bft) O-SO 123 0 min 0,000 mm 0,0 UV-I 0 W/m 12,8 C 3,2 km/h (1 Bft)
31.08.2016 00:28 13,5 C 13,5 C 96 % 1020,1 hPa 0,0 mm 2,3 km/h (1 Bft) SO 144 0 min 0,000 mm 0,0 UV-I 0 W/m 12,9 C 3,2 km/h (1 Bft)
31.08.2016 00:29 13,6 C 13,6 C 96 % 1020,1 hPa 0,0 mm 2,9 km/h (1 Bft) SO 144 0 min 0,000 mm 0,0 UV-I 0 W/m 13,0 C 4,8 km/h (1 Bft)
31.08.2016 00:30 13,6 C 13,6 C 96 % 1020,1 hPa 0,0 mm 2,1 km/h (1 Bft) SO 144 0 min 0,000 mm 0,0 UV-I 0 W/m 13,0 C 3,2 km/h (1 Bft)
31.08.2016 00:31 13,6 C 13,6 C 96 % 1020,0 hPa 0,0 mm 1,1 km/h (1 Bft) SO 144 0 min 0,000 mm 0,0 UV-I 0 W/m 13,0 C 3,2 km/h (1 Bft)
31.08.2016 00:32 13,7 C 13,7 C 96 % 1020,0 hPa 0,0 mm 1,2 km/h (1 Bft) SO 144 0 min 0,000 mm 0,0 UV-I 0 W/m 13,1 C 1,6 km/h (1 Bft)
31.08.2016 00:33 13,7 C 13,8 C 96 % 1020,0 hPa 0,0 mm 1,7 km/h (1 Bft) SO 144 0 min 0,000 mm 0,0 UV-I 0 W/m 13,1 C 3,2 km/h (1 Bft)
31.08.2016 00:34 13,8 C 13,8 C 96 % 1020,0 hPa 0,0 mm 0,5 km/h (0 Bft) SO 144 0 min 0,000 mm 0,0 UV-I 0 W/m 13,2 C 1,6 km/h (1 Bft)
31.08.2016 00:35 13,8 C 13,8 C 95 % 1020,0 hPa 0,0 mm 0,0 km/h (0 Bft) SO 144 0 min 0,000 mm 0,0 UV-I 0 W/m 13,0 C 0,0 km/h (0 Bft)
31.08.2016 00:36 13,8 C 13,8 C 95 % 1020,0 hPa 0,0 mm 0,2 km/h (0 Bft) SO 144 0 min 0,000 mm 0,0 UV-I 0 W/m 13,0 C 1,6 km/h (1 Bft)
31.08.2016 00:37 13,7 C 13,8 C 95 % 1020,0 hPa 0,0 mm 0,1 km/h (0 Bft) SO 144 0 min 0,000 mm 0,0 UV-I 0 W/m 12,9 C 1,6 km/h (1 Bft)
31.08.2016 00:38 13,6 C 13,7 C 94 % 1020,0 hPa 0,0 mm 0,0 km/h (0 Bft) SO 144 0 min 0,000 mm 0,0 UV-I 0 W/m 12,7 C 0,0 km/h (0 Bft)
31.08.2016 00:39 13,4 C 13,6 C 94 % 1020,0 hPa 0,0 mm 0,0 km/h (0 Bft) SO 144 0 min 0,000 mm 0,0 UV-I 0 W/m 12,5 C 0,0 km/h (0 Bft)
31.08.2016 00:40 13,3 C 13,4 C 94 % 1020,0 hPa 0,0 mm 0,0 km/h (0 Bft) SO 144 0 min 0,000 mm 0,0 UV-I 0 W/m 12,4 C 0,0 km/h (0 Bft)
31.08.2016 00:41 13,3 C 13,3 C 94 % 1020,0 hPa 0,0 mm 0,2 km/h (0 Bft) SO 144 0 min 0,000 mm 0,0 UV-I 0 W/m 12,4 C 1,6 km/h (1 Bft)
31.08.2016 00:42 13,3 C 13,3 C 94 % 1020,0 hPa 0,0 mm 0,0 km/h (0 Bft) SO 144 0 min 0,000 mm 0,0 UV-I 0 W/m 12,4 C 0,0 km/h (0 Bft)
31.08.2016 00:43 13,2 C 13,3 C 94 % 1020,0 hPa 0,0 mm 0,2 km/h (0 Bft) SO 144 0 min 0,000 mm 0,0 UV-I 0 W/m 12,3 C 1,6 km/h (1 Bft)
31.08.2016 00:44 13,1 C 13,2 C 94 % 1020,0 hPa 0,0 mm 1,0 km/h (0 Bft) SO 144 0 min 0,000 mm 0,0 UV-I 0 W/m 12,2 C 1,6 km/h (1 Bft)
31.08.2016 00:45 13,2 C 13,2 C 94 % 1020,0 hPa 0,0 mm 0,3 km/h (0 Bft) SO 144 0 min 0,000 mm 0,0 UV-I 0 W/m 12,3 C 1,6 km/h (1 Bft)
31.08.2016 00:46 13,3 C 13,3 C 95 % 1020,0 hPa 0,0 mm 1,1 km/h (1 Bft) SO 144 0 min 0,000 mm 0,0 UV-I 0 W/m 12,5 C 1,6 km/h (1 Bft)
31.08.2016 00:47 13,4 C 13,4 C 96 % 1020,0 hPa 0,0 mm 1,7 km/h (1 Bft) SO 144 0 min 0,000 mm 0,0 UV-I 0 W/m 12,8 C 3,2 km/h (1 Bft)
31.08.2016 00:48 13,6 C 13,6 C 96 % 1020,0 hPa 0,0 mm 2,1 km/h (1 Bft) SO 144 0 min 0,000 mm 0,0 UV-I 0 W/m 13,0 C 3,2 km/h (1 Bft)
31.08.2016 00:49 13,7 C 13,7 C 96 % 1020,0 hPa 0,0 mm 1,9 km/h (1 Bft) SO 144 0 min 0,000 mm 0,0 UV-I 0 W/m 13,1 C 3,2 km/h (1 Bft)
31.08.2016 00:50 13,8 C 13,8 C 96 % 1020,0 hPa 0,0 mm 1,0 km/h (0 Bft) SO 144 0 min 0,000 mm 0,0 UV-I 0 W/m 13,2 C 1,6 km/h (1 Bft)
31.08.2016 00:51 13,8 C 13,8 C 96 % 1019,9 hPa 0,0 mm 2,2 km/h (1 Bft) SO 144 0 min 0,000 mm 0,0 UV-I 0 W/m 13,2 C 3,2 km/h (1 Bft)
31.08.2016 00:52 13,8 C 13,8 C 95 % 1019,9 hPa 0,0 mm 1,4 km/h (1 Bft) SO 144 0 min 0,000 mm 0,0 UV-I 0 W/m 13,0 C 1,6 km/h (1 Bft)
31.08.2016 00:53 13,9 C 13,9 C 95 % 1020,0 hPa 0,0 mm 3,2 km/h (1 Bft) SO 126 0 min 0,000 mm 0,0 UV-I 0 W/m 13,1 C 4,8 km/h (1 Bft)
31.08.2016 00:54 14,0 C 14,0 C 95 % 1020,0 hPa 0,0 mm 2,0 km/h (1 Bft) SO 130 0 min 0,000 mm 0,0 UV-I 0 W/m 13,2 C 3,2 km/h (1 Bft)
31.08.2016 00:55 14,0 C 14,0 C 95 % 1020,0 hPa 0,0 mm 2,2 km/h (1 Bft) S-SO 161 0 min 0,000 mm 0,0 UV-I 0 W/m 13,2 C 3,2 km/h (1 Bft)
31.08.2016 00:56 14,1 C 14,1 C 95 % 1020,0 hPa 0,0 mm 1,8 km/h (1 Bft) S-SO 161 0 min 0,000 mm 0,0 UV-I 0 W/m 13,3 C 3,2 km/h (1 Bft)
31.08.2016 00:57 14,1 C 14,1 C 94 % 1020,0 hPa 0,0 mm 3,0 km/h (1 Bft) S-SO 152 0 min 0,000 mm 0,0 UV-I 0 W/m 13,1 C 6,4 km/h (2 Bft)
31.08.2016 00:58 14,2 C 14,2 C 94 % 1020,0 hPa 0,0 mm 3,6 km/h (1 Bft) S-SO 150 0 min 0,000 mm 0,0 UV-I 0 W/m 13,2 C 4,8 km/h (1 Bft)
31.08.2016 00:59 14,2 C 14,2 C 93 % 1019,9 hPa 0,0 mm 2,3 km/h (1 Bft) S-SO 150 0 min 0,000 mm 0,0 UV-I 0 W/m 13,1 C 3,2 km/h (1 Bft)
31.08.2016 01:00 14,2 C 14,2 C 93 % 1019,9 hPa 0,0 mm 3,4 km/h (1 Bft) S-SO 150 0 min 0,000 mm 0,0 UV-I 0 W/m 13,1 C 4,8 km/h (1 Bft)
31.08.2016 01:01 14,2 C 14,2 C 93 % 1019,9 hPa 0,0 mm 4,0 km/h (1 Bft) SO 134 0 min 0,000 mm 0,0 UV-I 0 W/m 13,1 C 4,8 km/h (1 Bft)
31.08.2016 01:02 14,2 C 14,2 C 93 % 1019,9 hPa 0,0 mm 2,7 km/h (1 Bft) SO 134 0 min 0,000 mm 0,0 UV-I 0 W/m 13,1 C 3,2 km/h (1 Bft)
31.08.2016 01:03 14,2 C 14,2 C 93 % 1019,9 hPa 0,0 mm 2,4 km/h (1 Bft) SO 138 0 min 0,000 mm 0,0 UV-I 0 W/m 13,1 C 3,2 km/h (1 Bft)
31.08.2016 01:04 14,2 C 14,2 C 93 % 1019,9 hPa 0,0 mm 2,5 km/h (1 Bft) SO 138 0 min 0,000 mm 0,0 UV-I 0 W/m 13,1 C 3,2 km/h (1 Bft)
31.08.2016 01:05 14,2 C 14,2 C 92 % 1019,9 hPa 0,0 mm 3,0 km/h (1 Bft) SO 138 0 min 0,000 mm 0,0 UV-I 0 W/m 12,9 C 3,2 km/h (1 Bft)
31.08.2016 01:06 14,2 C 14,2 C 93 % 1019,9 hPa 0,0 mm 2,2 km/h (1 Bft) SO 141 0 min 0,000 mm 0,0 UV-I 0 W/m 13,1 C 3,2 km/h (1 Bft)
31.08.2016 01:07 14,2 C 14,2 C 92 % 1019,9 hPa 0,0 mm 3,1 km/h (1 Bft) S-SO 150 0 min 0,000 mm 0,0 UV-I 0 W/m 12,9 C 4,8 km/h (1 Bft)
31.08.2016 01:08 14,2 C 14,2 C 93 % 1019,9 hPa 0,0 mm 3,0 km/h (1 Bft) S-SO 147 0 min 0,000 mm 0,0 UV-I 0 W/m 13,1 C 4,8 km/h (1 Bft)
31.08.2016 01:09 14,1 C 14,2 C 92 % 1019,9 hPa 0,0 mm 3,9 km/h (1 Bft) O-SO 120 0 min 0,000 mm 0,0 UV-I 0 W/m 12,8 C 4,8 km/h (1 Bft)
31.08.2016 01:10 14,1 C 14,2 C 92 % 1019,9 hPa 0,0 mm 2,7 km/h (1 Bft) O-SO 120 0 min 0,000 mm 0,0 UV-I 0 W/m 12,8 C 3,2 km/h (1 Bft)
31.08.2016 01:11 14,0 C 14,1 C 92 % 1019,9 hPa 0,0 mm 3,3 km/h (1 Bft) SO 132 0 min 0,000 mm 0,0 UV-I 0 W/m 12,7 C 4,8 km/h (1 Bft)
31.08.2016 01:12 14,0 C 14,0 C 93 % 1019,9 hPa 0,0 mm 3,0 km/h (1 Bft) SO 143 0 min 0,000 mm 0,0 UV-I 0 W/m 12,9 C 4,8 km/h (1 Bft)
31.08.2016 01:13 14,0 C 14,0 C 93 % 1019,8 hPa 0,0 mm 4,2 km/h (1 Bft) SO 138 0 min 0,000 mm 0,0 UV-I 0 W/m 12,9 C 6,4 km/h (2 Bft)
31.08.2016 01:14 14,0 C 14,0 C 93 % 1019,9 hPa 0,0 mm 2,5 km/h (1 Bft) SO 139 0 min 0,000 mm 0,0 UV-I 0 W/m 12,9 C 4,8 km/h (1 Bft)
31.08.2016 01:15 14,0 C 14,0 C 93 % 1019,8 hPa 0,0 mm 2,1 km/h (1 Bft) SO 138 0 min 0,000 mm 0,0 UV-I 0 W/m 12,9 C 3,2 km/h (1 Bft)
31.08.2016 01:16 14,0 C 14,0 C 93 % 1019,8 hPa 0,0 mm 2,5 km/h (1 Bft) SO 133 0 min 0,000 mm 0,0 UV-I 0 W/m 12,9 C 3,2 km/h (1 Bft)
31.08.2016 01:17 13,9 C 14,0 C 93 % 1019,8 hPa 0,0 mm 2,4 km/h (1 Bft) SO 134 0 min 0,000 mm 0,0 UV-I 0 W/m 12,8 C 3,2 km/h (1 Bft)
31.08.2016 01:18 13,9 C 13,9 C 93 % 1019,8 hPa 0,0 mm 2,9 km/h (1 Bft) S-SO 148 0 min 0,000 mm 0,0 UV-I 0 W/m 12,8 C 4,8 km/h (1 Bft)
31.08.2016 01:19 13,8 C 13,9 C 93 % 1019,8 hPa 0,0 mm 4,1 km/h (1 Bft) S-SO 155 0 min 0,000 mm 0,0 UV-I 0 W/m 12,7 C 4,8 km/h (1 Bft)
31.08.2016 01:20 13,8 C 13,8 C 93 % 1019,8 hPa 0,0 mm 3,1 km/h (1 Bft) S-SO 157 0 min 0,000 mm 0,0 UV-I 0 W/m 12,7 C 4,8 km/h (1 Bft)
31.08.2016 01:21 13,8 C 13,8 C 93 % 1019,8 hPa 0,0 mm 2,7 km/h (1 Bft) S-SO 157 0 min 0,000 mm 0,0 UV-I 0 W/m 12,7 C 3,2 km/h (1 Bft)
31.08.2016 01:22 13,8 C 13,8 C 93 % 1019,8 hPa 0,0 mm 2,3 km/h (1 Bft) S-SO 157 0 min 0,000 mm 0,0 UV-I 0 W/m 12,7 C 3,2 km/h (1 Bft)
31.08.2016 01:23 13,8 C 13,8 C 93 % 1019,8 hPa 0,0 mm 1,3 km/h (1 Bft) S-SO 157 0 min 0,000 mm 0,0 UV-I 0 W/m 12,7 C 3,2 km/h (1 Bft)
31.08.2016 01:24 13,8 C 13,8 C 93 % 1019,8 hPa 0,0 mm 1,0 km/h (0 Bft) S-SO 157 0 min 0,000 mm 0,0 UV-I 0 W/m 12,7 C 1,6 km/h (1 Bft)
31.08.2016 01:25 13,8 C 13,8 C 93 % 1019,7 hPa 0,0 mm 1,5 km/h (1 Bft) S-SO 157 0 min 0,000 mm 0,0 UV-I 0 W/m 12,7 C 3,2 km/h (1 Bft)
31.08.2016 01:26 13,8 C 13,8 C 93 % 1019,7 hPa 0,0 mm 0,1 km/h (0 Bft) S-SO 157 0 min 0,000 mm 0,0 UV-I 0 W/m 12,7 C 1,6 km/h (1 Bft)
31.08.2016 01:27 13,8 C 13,8 C 93 % 1019,7 hPa 0,0 mm 1,1 km/h (1 Bft) S-SO 157 0 min 0,000 mm 0,0 UV-I 0 W/m 12,7 C 1,6 km/h (1 Bft)
31.08.2016 01:28 13,8 C 13,8 C 93 % 1019,6 hPa 0,0 mm 1,7 km/h (1 Bft) S-SO 157 0 min 0,000 mm 0,0 UV-I 0 W/m 12,7 C 3,2 km/h (1 Bft)
31.08.2016 01:29 13,8 C 13,8 C 94 % 1019,6 hPa 0,0 mm 1,7 km/h (1 Bft) S-SO 157 0 min 0,000 mm 0,0 UV-I 0 W/m 12,9 C 3,2 km/h (1 Bft)
31.08.2016 01:30 13,8 C 13,8 C 93 % 1019,6 hPa 0,0 mm 2,4 km/h (1 Bft) S-SO 157 0 min 0,000 mm 0,0 UV-I 0 W/m 12,7 C 3,2 km/h (1 Bft)
31.08.2016 01:31 13,7 C 13,8 C 93 % 1019,6 hPa 0,0 mm 2,1 km/h (1 Bft) S-SO 157 0 min 0,000 mm 0,0 UV-I 0 W/m 12,6 C 3,2 km/h (1 Bft)
31.08.2016 01:32 13,8 C 13,8 C 93 % 1019,6 hPa 0,0 mm 2,5 km/h (1 Bft) S-SO 157 0 min 0,000 mm 0,0 UV-I 0 W/m 12,7 C 3,2 km/h (1 Bft)
31.08.2016 01:33 13,7 C 13,8 C 93 % 1019,6 hPa 0,0 mm 2,5 km/h (1 Bft) S-SO 157 0 min 0,000 mm 0,0 UV-I 0 W/m 12,6 C 3,2 km/h (1 Bft)
31.08.2016 01:34 13,7 C 13,7 C 92 % 1019,6 hPa 0,0 mm 2,0 km/h (1 Bft) S-SO 157 0 min 0,000 mm 0,0 UV-I 0 W/m 12,4 C 3,2 km/h (1 Bft)
31.08.2016 01:35 13,7 C 13,7 C 93 % 1019,6 hPa 0,0 mm 2,1 km/h (1 Bft) S-SO 157 0 min 0,000 mm 0,0 UV-I 0 W/m 12,6 C 3,2 km/h (1 Bft)
31.08.2016 01:36 13,6 C 13,7 C 93 % 1019,6 hPa 0,0 mm 3,6 km/h (1 Bft) S-SO 150 0 min 0,000 mm 0,0 UV-I 0 W/m 12,5 C 4,8 km/h (1 Bft)
31.08.2016 01:37 13,6 C 13,6 C 93 % 1019,6 hPa 0,0 mm 1,9 km/h (1 Bft) S-SO 150 0 min 0,000 mm 0,0 UV-I 0 W/m 12,5 C 3,2 km/h (1 Bft)
31.08.2016 01:38 13,6 C 13,6 C 93 % 1019,6 hPa 0,0 mm 1,4 km/h (1 Bft) S-SO 150 0 min 0,000 mm 0,0 UV-I 0 W/m 12,5 C 3,2 km/h (1 Bft)
31.08.2016 01:39 13,6 C 13,6 C 93 % 1019,6 hPa 0,0 mm 2,5 km/h (1 Bft) S-SO 150 0 min 0,000 mm 0,0 UV-I 0 W/m 12,5 C 3,2 km/h (1 Bft)
31.08.2016 01:40 13,7 C 13,7 C 93 % 1019,6 hPa 0,0 mm 3,5 km/h (1 Bft) S-SO 150 0 min 0,000 mm 0,0 UV-I 0 W/m 12,6 C 4,8 km/h (1 Bft)
31.08.2016 01:41 13,6 C 13,7 C 93 % 1019,6 hPa 0,0 mm 2,6 km/h (1 Bft) S-SO 148 0 min 0,000 mm 0,0 UV-I 0 W/m 12,5 C 3,2 km/h (1 Bft)
31.08.2016 01:42 13,6 C 13,7 C 93 % 1019,6 hPa 0,0 mm 2,8 km/h (1 Bft) S-SO 156 0 min 0,000 mm 0,0 UV-I 0 W/m 12,5 C 4,8 km/h (1 Bft)
31.08.2016 01:43 13,6 C 13,6 C 93 % 1019,5 hPa 0,0 mm 2,9 km/h (1 Bft) S-SO 164 0 min 0,000 mm 0,0 UV-I 0 W/m 12,5 C 3,2 km/h (1 Bft)
31.08.2016 01:44 13,5 C 13,6 C 93 % 1019,6 hPa 0,0 mm 3,4 km/h (1 Bft) S-SO 164 0 min 0,000 mm 0,0 UV-I 0 W/m 12,4 C 8,0 km/h (2 Bft)
31.08.2016 01:45 13,4 C 13,5 C 92 % 1019,6 hPa 0,0 mm 4,5 km/h (1 Bft) S-SO 166 0 min 0,000 mm 0,0 UV-I 0 W/m 12,1 C 6,4 km/h (2 Bft)
31.08.2016 01:46 13,4 C 13,4 C 93 % 1019,6 hPa 0,0 mm 3,6 km/h (1 Bft) S-SO 166 0 min 0,000 mm 0,0 UV-I 0 W/m 12,3 C 6,4 km/h (2 Bft)
31.08.2016 01:47 13,4 C 13,4 C 93 % 1019,5 hPa 0,0 mm 3,4 km/h (1 Bft) S-SO 166 0 min 0,000 mm 0,0 UV-I 0 W/m 12,3 C 4,8 km/h (1 Bft)
31.08.2016 01:48 13,4 C 13,4 C 93 % 1019,5 hPa 0,0 mm 2,8 km/h (1 Bft) S-SO 166 0 min 0,000 mm 0,0 UV-I 0 W/m 12,3 C 4,8 km/h (1 Bft)
31.08.2016 01:49 13,3 C 13,4 C 94 % 1019,5 hPa 0,0 mm 2,3 km/h (1 Bft) S-SO 165 0 min 0,000 mm 0,0 UV-I 0 W/m 12,4 C 6,4 km/h (2 Bft)
31.08.2016 01:50 13,3 C 13,3 C 94 % 1019,5 hPa 0,0 mm 1,9 km/h (1 Bft) S-SO 165 0 min 0,000 mm 0,0 UV-I 0 W/m 12,4 C 3,2 km/h (1 Bft)
31.08.2016 01:51 13,3 C 13,3 C 94 % 1019,5 hPa 0,0 mm 0,7 km/h (0 Bft) S-SO 165 0 min 0,000 mm 0,0 UV-I 0 W/m 12,4 C 3,2 km/h (1 Bft)
31.08.2016 01:52 13,3 C 13,3 C 94 % 1019,5 hPa 0,0 mm 3,9 km/h (1 Bft) O-SO 121 0 min 0,000 mm 0,0 UV-I 0 W/m 12,4 C 6,4 km/h (2 Bft)
31.08.2016 01:53 13,3 C 13,3 C 94 % 1019,5 hPa 0,0 mm 2,4 km/h (1 Bft) O-SO 121 0 min 0,000 mm 0,0 UV-I 0 W/m 12,4 C 4,8 km/h (1 Bft)
31.08.2016 01:54 13,3 C 13,3 C 94 % 1019,4 hPa 0,0 mm 2,8 km/h (1 Bft) O-SO 122 0 min 0,000 mm 0,0 UV-I 0 W/m 12,4 C 4,8 km/h (1 Bft)
31.08.2016 01:55 13,3 C 13,4 C 94 % 1019,4 hPa 0,0 mm 2,1 km/h (1 Bft) O-SO 122 0 min 0,000 mm 0,0 UV-I 0 W/m 12,4 C 3,2 km/h (1 Bft)
31.08.2016 01:56 13,3 C 13,3 C 94 % 1019,4 hPa 0,0 mm 1,0 km/h (0 Bft) O-SO 122 0 min 0,000 mm 0,0 UV-I 0 W/m 12,4 C 3,2 km/h (1 Bft)
31.08.2016 01:57 13,2 C 13,3 C 93 % 1019,4 hPa 0,0 mm 1,1 km/h (1 Bft) O-SO 122 0 min 0,000 mm 0,0 UV-I 0 W/m 12,1 C 1,6 km/h (1 Bft)
31.08.2016 01:58 13,2 C 13,2 C 94 % 1019,4 hPa 0,0 mm 1,7 km/h (1 Bft) O-SO 122 0 min 0,000 mm 0,0 UV-I 0 W/m 12,3 C 3,2 km/h (1 Bft)
31.08.2016 01:59 13,2 C 13,2 C 93 % 1019,4 hPa 0,0 mm 2,3 km/h (1 Bft) O-SO 122 0 min 0,000 mm 0,0 UV-I 0 W/m 12,1 C 3,2 km/h (1 Bft)
31.08.2016 02:00 13,2 C 13,2 C 94 % 1019,4 hPa 0,0 mm 1,0 km/h (0 Bft) O-SO 122 0 min 0,000 mm 0,0 UV-I 0 W/m 12,3 C 1,6 km/h (1 Bft)
31.08.2016 02:01 13,2 C 13,2 C 94 % 1019,4 hPa 0,0 mm 1,4 km/h (1 Bft) O-SO 122 0 min 0,000 mm 0,0 UV-I 0 W/m 12,3 C 3,2 km/h (1 Bft)
31.08.2016 02:02 13,2 C 13,2 C 94 % 1019,4 hPa 0,0 mm 1,2 km/h (1 Bft) O-SO 122 0 min 0,000 mm 0,0 UV-I 0 W/m 12,3 C 1,6 km/h (1 Bft)
31.08.2016 02:03 13,2 C 13,2 C 94 % 1019,4 hPa 0,0 mm 0,3 km/h (0 Bft) O-SO 122 0 min 0,000 mm 0,0 UV-I 0 W/m 12,3 C 1,6 km/h (1 Bft)
31.08.2016 02:04 13,2 C 13,2 C 94 % 1019,5 hPa 0,0 mm 1,0 km/h (0 Bft) O-SO 122 0 min 0,000 mm 0,0 UV-I 0 W/m 12,3 C 3,2 km/h (1 Bft)
31.08.2016 02:05 13,2 C 13,2 C 94 % 1019,5 hPa 0,0 mm 0,7 km/h (0 Bft) O-SO 122 0 min 0,000 mm 0,0 UV-I 0 W/m 12,3 C 1,6 km/h (1 Bft)
31.08.2016 02:06 13,2 C 13,2 C 94 % 1019,4 hPa 0,0 mm 0,0 km/h (0 Bft) O-SO 122 0 min 0,000 mm 0,0 UV-I 0 W/m 12,3 C 0,0 km/h (0 Bft)
31.08.2016 02:07 13,1 C 13,2 C 94 % 1019,4 hPa 0,0 mm 0,6 km/h (0 Bft) O-SO 122 0 min 0,000 mm 0,0 UV-I 0 W/m 12,2 C 1,6 km/h (1 Bft)
31.08.2016 02:08 13,1 C 13,1 C 94 % 1019,4 hPa 0,0 mm 0,6 km/h (0 Bft) O-SO 122 0 min 0,000 mm 0,0 UV-I 0 W/m 12,2 C 1,6 km/h (1 Bft)
31.08.2016 02:09 13,2 C 13,2 C 95 % 1019,5 hPa 0,0 mm 0,6 km/h (0 Bft) O-SO 122 0 min 0,000 mm 0,0 UV-I 0 W/m 12,4 C 1,6 km/h (1 Bft)
31.08.2016 02:10 13,2 C 13,2 C 95 % 1019,5 hPa 0,0 mm 0,0 km/h (0 Bft) O-SO 122 0 min 0,000 mm 0,0 UV-I 0 W/m 12,4 C 0,0 km/h (0 Bft)
31.08.2016 02:11 13,2 C 13,2 C 95 % 1019,5 hPa 0,0 mm 0,1 km/h (0 Bft) O-SO 122 0 min 0,000 mm 0,0 UV-I 0 W/m 12,4 C 1,6 km/h (1 Bft)
31.08.2016 02:12 13,2 C 13,2 C 95 % 1019,5 hPa 0,0 mm 0,0 km/h (0 Bft) O-SO 122 0 min 0,000 mm 0,0 UV-I 0 W/m 12,4 C 0,0 km/h (0 Bft)
31.08.2016 02:13 13,1 C 13,2 C 94 % 1019,5 hPa 0,0 mm 0,0 km/h (0 Bft) O-SO 122 0 min 0,000 mm 0,0 UV-I 0 W/m 12,2 C 0,0 km/h (0 Bft)
31.08.2016 02:14 12,9 C 13,1 C 94 % 1019,5 hPa 0,0 mm 0,1 km/h (0 Bft) O-SO 122 0 min 0,000 mm 0,0 UV-I 0 W/m 12,0 C 1,6 km/h (1 Bft)
31.08.2016 02:15 12,9 C 12,9 C 94 % 1019,5 hPa 0,0 mm 0,8 km/h (0 Bft) O-SO 122 0 min 0,000 mm 0,0 UV-I 0 W/m 12,0 C 1,6 km/h (1 Bft)
31.08.2016 02:16 12,8 C 12,9 C 94 % 1019,5 hPa 0,0 mm 0,9 km/h (0 Bft) O-SO 122 0 min 0,000 mm 0,0 UV-I 0 W/m 11,9 C 1,6 km/h (1 Bft)
31.08.2016 02:17 12,9 C 12,9 C 95 % 1019,4 hPa 0,0 mm 1,3 km/h (1 Bft) O-SO 122 0 min 0,000 mm 0,0 UV-I 0 W/m 12,1 C 3,2 km/h (1 Bft)
31.08.2016 02:18 13,0 C 13,0 C 95 % 1019,4 hPa 0,0 mm 1,6 km/h (1 Bft) O-SO 122 0 min 0,000 mm 0,0 UV-I 0 W/m 12,2 C 3,2 km/h (1 Bft)
31.08.2016 02:19 13,1 C 13,1 C 95 % 1019,4 hPa 0,0 mm 2,1 km/h (1 Bft) O-SO 122 0 min 0,000 mm 0,0 UV-I 0 W/m 12,3 C 3,2 km/h (1 Bft)
31.08.2016 02:20 13,1 C 13,1 C 95 % 1019,4 hPa 0,0 mm 0,7 km/h (0 Bft) O-SO 122 0 min 0,000 mm 0,0 UV-I 0 W/m 12,3 C 3,2 km/h (1 Bft)
31.08.2016 02:21 13,1 C 13,1 C 95 % 1019,4 hPa 0,0 mm 1,1 km/h (1 Bft) O-SO 122 0 min 0,000 mm 0,0 UV-I 0 W/m 12,3 C 1,6 km/h (1 Bft)
31.08.2016 02:22 13,1 C 13,1 C 95 % 1019,4 hPa 0,0 mm 0,1 km/h (0 Bft) O-SO 122 0 min 0,000 mm 0,0 UV-I 0 W/m 12,3 C 1,6 km/h (1 Bft)
31.08.2016 02:23 13,0 C 13,1 C 95 % 1019,4 hPa 0,0 mm 0,0 km/h (0 Bft) O-SO 122 0 min 0,000 mm 0,0 UV-I 0 W/m 12,2 C 0,0 km/h (0 Bft)
31.08.2016 02:24 12,9 C 13,0 C 94 % 1019,3 hPa 0,0 mm 0,0 km/h (0 Bft) O-SO 122 0 min 0,000 mm 0,0 UV-I 0 W/m 12,0 C 0,0 km/h (0 Bft)
31.08.2016 02:25 12,8 C 12,9 C 93 % 1019,3 hPa 0,0 mm 0,4 km/h (0 Bft) O-SO 122 0 min 0,000 mm 0,0 UV-I 0 W/m 11,7 C 1,6 km/h (1 Bft)
31.08.2016 02:26 12,7 C 12,8 C 94 % 1019,3 hPa 0,0 mm 0,1 km/h (0 Bft) O-SO 122 0 min 0,000 mm 0,0 UV-I 0 W/m 11,8 C 1,6 km/h (1 Bft)
31.08.2016 02:27 12,7 C 12,7 C 94 % 1019,3 hPa 0,0 mm 0,2 km/h (0 Bft) O-SO 122 0 min 0,000 mm 0,0 UV-I 0 W/m 11,8 C 1,6 km/h (1 Bft)
31.08.2016 02:28 12,7 C 12,7 C 95 % 1019,3 hPa 0,0 mm 0,8 km/h (0 Bft) O-SO 122 0 min 0,000 mm 0,0 UV-I 0 W/m 11,9 C 1,6 km/h (1 Bft)
31.08.2016 02:29 12,8 C 12,8 C 95 % 1019,3 hPa 0,0 mm 1,1 km/h (1 Bft) O-SO 122 0 min 0,000 mm 0,0 UV-I 0 W/m 12,0 C 3,2 km/h (1 Bft)
31.08.2016 02:30 12,8 C 12,8 C 95 % 1019,3 hPa 0,0 mm 2,7 km/h (1 Bft) O-SO 122 0 min 0,000 mm 0,0 UV-I 0 W/m 12,0 C 3,2 km/h (1 Bft)
31.08.2016 02:31 12,8 C 12,8 C 95 % 1019,3 hPa 0,0 mm 1,8 km/h (1 Bft) O-SO 122 0 min 0,000 mm 0,0 UV-I 0 W/m 12,0 C 3,2 km/h (1 Bft)
31.08.2016 02:32 12,8 C 12,8 C 95 % 1019,3 hPa 0,0 mm 0,9 km/h (0 Bft) O-SO 122 0 min 0,000 mm 0,0 UV-I 0 W/m 12,0 C 3,2 km/h (1 Bft)
31.08.2016 02:33 12,9 C 12,9 C 95 % 1019,3 hPa 0,0 mm 0,2 km/h (0 Bft) O-SO 122 0 min 0,000 mm 0,0 UV-I 0 W/m 12,1 C 1,6 km/h (1 Bft)
31.08.2016 02:34 12,9 C 12,9 C 95 % 1019,3 hPa 0,0 mm 0,9 km/h (0 Bft) O-SO 122 0 min 0,000 mm 0,0 UV-I 0 W/m 12,1 C 1,6 km/h (1 Bft)
31.08.2016 02:35 12,9 C 12,9 C 95 % 1019,3 hPa 0,0 mm 1,7 km/h (1 Bft) O-SO 122 0 min 0,000 mm 0,0 UV-I 0 W/m 12,1 C 3,2 km/h (1 Bft)
31.08.2016 02:36 12,9 C 12,9 C 95 % 1019,3 hPa 0,0 mm 1,1 km/h (1 Bft) O-SO 122 0 min 0,000 mm 0,0 UV-I 0 W/m 12,1 C 1,6 km/h (1 Bft)
31.08.2016 02:37 12,9 C 12,9 C 95 % 1019,3 hPa 0,0 mm 1,5 km/h (1 Bft) O-SO 122 0 min 0,000 mm 0,0 UV-I 0 W/m 12,1 C 3,2 km/h (1 Bft)
31.08.2016 02:38 12,9 C 12,9 C 95 % 1019,3 hPa 0,0 mm 0,3 km/h (0 Bft) O-SO 122 0 min 0,000 mm 0,0 UV-I 0 W/m 12,1 C 1,6 km/h (1 Bft)
31.08.2016 02:39 12,9 C 12,9 C 95 % 1019,3 hPa 0,0 mm 0,0 km/h (0 Bft) O-SO 122 0 min 0,000 mm 0,0 UV-I 0 W/m 12,1 C 0,0 km/h (0 Bft)
31.08.2016 02:40 12,9 C 12,9 C 95 % 1019,3 hPa 0,0 mm 0,1 km/h (0 Bft) O-SO 122 0 min 0,000 mm 0,0 UV-I 0 W/m 12,1 C 1,6 km/h (1 Bft)
31.08.2016 02:41 12,9 C 12,9 C 95 % 1019,3 hPa 0,0 mm 0,6 km/h (0 Bft) O-SO 122 0 min 0,000 mm 0,0 UV-I 0 W/m 12,1 C 1,6 km/h (1 Bft)
31.08.2016 02:42 13,0 C 13,0 C 95 % 1019,2 hPa 0,0 mm 0,3 km/h (0 Bft) O-SO 122 0 min 0,000 mm 0,0 UV-I 0 W/m 12,2 C 1,6 km/h (1 Bft)
31.08.2016 02:43 13,0 C 13,0 C 95 % 1019,2 hPa 0,0 mm 0,3 km/h (0 Bft) O-SO 122 0 min 0,000 mm 0,0 UV-I 0 W/m 12,2 C 1,6 km/h (1 Bft)
31.08.2016 02:44 13,1 C 13,1 C 95 % 1019,2 hPa 0,0 mm 0,0 km/h (0 Bft) O-SO 122 0 min 0,000 mm 0,0 UV-I 0 W/m 12,3 C 0,0 km/h (0 Bft)
31.08.2016 02:45 13,1 C 13,1 C 95 % 1019,2 hPa 0,0 mm 0,1 km/h (0 Bft) O-SO 122 0 min 0,000 mm 0,0 UV-I 0 W/m 12,3 C 1,6 km/h (1 Bft)
31.08.2016 02:46 13,0 C 13,1 C 95 % 1019,2 hPa 0,0 mm 0,0 km/h (0 Bft) O-SO 122 0 min 0,000 mm 0,0 UV-I 0 W/m 12,2 C 0,0 km/h (0 Bft)
31.08.2016 02:47 12,8 C 13,0 C 94 % 1019,2 hPa 0,0 mm 0,0 km/h (0 Bft) O-SO 122 0 min 0,000 mm 0,0 UV-I 0 W/m 11,9 C 0,0 km/h (0 Bft)
31.08.2016 02:48 12,8 C 12,8 C 93 % 1019,2 hPa 0,0 mm 0,0 km/h (0 Bft) O-SO 122 0 min 0,000 mm 0,0 UV-I 0 W/m 11,7 C 0,0 km/h (0 Bft)
31.08.2016 02:49 12,7 C 12,8 C 94 % 1019,2 hPa 0,0 mm 0,0 km/h (0 Bft) O-SO 122 0 min 0,000 mm 0,0 UV-I 0 W/m 11,8 C 0,0 km/h (0 Bft)
31.08.2016 02:50 12,7 C 12,7 C 94 % 1019,2 hPa 0,0 mm 0,0 km/h (0 Bft) O-SO 122 0 min 0,000 mm 0,0 UV-I 0 W/m 11,8 C 0,0 km/h (0 Bft)
31.08.2016 02:51 12,7 C 12,8 C 95 % 1019,2 hPa 0,0 mm 0,0 km/h (0 Bft) O-SO 122 0 min 0,000 mm 0,0 UV-I 0 W/m 11,9 C 0,0 km/h (0 Bft)
31.08.2016 02:52 12,7 C 12,7 C 94 % 1019,2 hPa 0,0 mm 0,0 km/h (0 Bft) O-SO 122 0 min 0,000 mm 0,0 UV-I 0 W/m 11,8 C 0,0 km/h (0 Bft)
31.08.2016 02:53 12,7 C 12,7 C 95 % 1019,2 hPa 0,0 mm 0,0 km/h (0 Bft) O-SO 122 0 min 0,000 mm 0,0 UV-I 0 W/m 11,9 C 0,0 km/h (0 Bft)
31.08.2016 02:54 12,7 C 12,7 C 95 % 1019,2 hPa 0,0 mm 0,0 km/h (0 Bft) O-SO 122 0 min 0,000 mm 0,0 UV-I 0 W/m 11,9 C 0,0 km/h (0 Bft)
31.08.2016 02:55 12,6 C 12,7 C 95 % 1019,2 hPa 0,0 mm 0,0 km/h (0 Bft) O-SO 122 0 min 0,000 mm 0,0 UV-I 0 W/m 11,8 C 0,0 km/h (0 Bft)
31.08.2016 02:56 12,5 C 12,6 C 94 % 1019,2 hPa 0,0 mm 0,0 km/h (0 Bft) O-SO 122 0 min 0,000 mm 0,0 UV-I 0 W/m 11,6 C 0,0 km/h (0 Bft)
31.08.2016 02:57 12,4 C 12,6 C 94 % 1019,2 hPa 0,0 mm 0,0 km/h (0 Bft) O-SO 122 0 min 0,000 mm 0,0 UV-I 0 W/m 11,5 C 0,0 km/h (0 Bft)
31.08.2016 02:58 12,4 C 12,4 C 94 % 1019,2 hPa 0,0 mm 0,0 km/h (0 Bft) O-SO 122 0 min 0,000 mm 0,0 UV-I 0 W/m 11,5 C 0,0 km/h (0 Bft)
31.08.2016 02:59 12,4 C 12,4 C 95 % 1019,2 hPa 0,0 mm 0,0 km/h (0 Bft) O-SO 122 0 min 0,000 mm 0,0 UV-I 0 W/m 11,6 C 0,0 km/h (0 Bft)
31.08.2016 03:00 12,3 C 12,4 C 94 % 1019,2 hPa 0,0 mm 0,1 km/h (0 Bft) O-SO 122 0 min 0,000 mm 0,0 UV-I 0 W/m 11,4 C 1,6 km/h (1 Bft)
31.08.2016 03:01 12,4 C 12,4 C 95 % 1019,2 hPa 0,0 mm 0,0 km/h (0 Bft) O-SO 122 0 min 0,000 mm 0,0 UV-I 0 W/m 11,6 C 0,0 km/h (0 Bft)
31.08.2016 03:02 12,4 C 12,4 C 95 % 1019,1 hPa 0,0 mm 0,0 km/h (0 Bft) O-SO 122 0 min 0,000 mm 0,0 UV-I 0 W/m 11,6 C 0,0 km/h (0 Bft)
31.08.2016 03:03 12,4 C 12,4 C 95 % 1019,2 hPa 0,0 mm 0,0 km/h (0 Bft) O-SO 122 0 min 0,000 mm 0,0 UV-I 0 W/m 11,6 C 0,0 km/h (0 Bft)
31.08.2016 03:04 12,3 C 12,4 C 95 % 1019,2 hPa 0,0 mm 0,0 km/h (0 Bft) O-SO 122 0 min 0,000 mm 0,0 UV-I 0 W/m 11,5 C 0,0 km/h (0 Bft)
31.08.2016 03:05 12,3 C 12,3 C 95 % 1019,2 hPa 0,0 mm 0,0 km/h (0 Bft) O-SO 122 0 min 0,000 mm 0,0 UV-I 0 W/m 11,5 C 0,0 km/h (0 Bft)
31.08.2016 03:06 12,3 C 12,3 C 95 % 1019,2 hPa 0,0 mm 0,0 km/h (0 Bft) O-SO 122 0 min 0,000 mm 0,0 UV-I 0 W/m 11,5 C 0,0 km/h (0 Bft)
31.08.2016 03:07 12,3 C 12,3 C 95 % 1019,1 hPa 0,0 mm 0,0 km/h (0 Bft) O-SO 122 0 min 0,000 mm 0,0 UV-I 0 W/m 11,5 C 0,0 km/h (0 Bft)
31.08.2016 03:08 12,2 C 12,3 C 94 % 1019,1 hPa 0,0 mm 0,0 km/h (0 Bft) O-SO 122 0 min 0,000 mm 0,0 UV-I 0 W/m 11,3 C 0,0 km/h (0 Bft)
31.08.2016 03:09 12,1 C 12,2 C 95 % 1019,1 hPa 0,0 mm 0,0 km/h (0 Bft) O-SO 122 0 min 0,000 mm 0,0 UV-I 0 W/m 11,3 C 0,0 km/h (0 Bft)
31.08.2016 03:10 12,1 C 12,1 C 95 % 1019,1 hPa 0,0 mm 0,0 km/h (0 Bft) O-SO 122 0 min 0,000 mm 0,0 UV-I 0 W/m 11,3 C 0,0 km/h (0 Bft)
31.08.2016 03:11 12,1 C 12,1 C 95 % 1019,1 hPa 0,0 mm 0,0 km/h (0 Bft) O-SO 122 0 min 0,000 mm 0,0 UV-I 0 W/m 11,3 C 0,0 km/h (0 Bft)
31.08.2016 03:12 12,1 C 12,1 C 95 % 1019,2 hPa 0,0 mm 0,6 km/h (0 Bft) O-SO 122 0 min 0,000 mm 0,0 UV-I 0 W/m 11,3 C 1,6 km/h (1 Bft)
31.08.2016 03:13 12,2 C 12,2 C 96 % 1019,1 hPa 0,0 mm 1,5 km/h (1 Bft) O-SO 122 0 min 0,000 mm 0,0 UV-I 0 W/m 11,6 C 3,2 km/h (1 Bft)
31.08.2016 03:14 12,3 C 12,3 C 96 % 1019,1 hPa 0,0 mm 1,3 km/h (1 Bft) O-SO 122 0 min 0,000 mm 0,0 UV-I 0 W/m 11,7 C 1,6 km/h (1 Bft)
31.08.2016 03:15 12,4 C 12,4 C 96 % 1019,1 hPa 0,0 mm 0,9 km/h (0 Bft) O-SO 122 0 min 0,000 mm 0,0 UV-I 0 W/m 11,8 C 3,2 km/h (1 Bft)
31.08.2016 03:16 12,6 C 12,6 C 96 % 1019,2 hPa 0,0 mm 2,7 km/h (1 Bft) O-SO 122 0 min 0,000 mm 0,0 UV-I 0 W/m 12,0 C 3,2 km/h (1 Bft)
31.08.2016 03:17 12,7 C 12,7 C 96 % 1019,2 hPa 0,0 mm 2,0 km/h (1 Bft) O-SO 122 0 min 0,000 mm 0,0 UV-I 0 W/m 12,1 C 3,2 km/h (1 Bft)
31.08.2016 03:18 12,7 C 12,7 C 96 % 1019,2 hPa 0,0 mm 2,6 km/h (1 Bft) O-SO 122 0 min 0,000 mm 0,0 UV-I 0 W/m 12,1 C 3,2 km/h (1 Bft)
31.08.2016 03:19 12,8 C 12,8 C 96 % 1019,2 hPa 0,0 mm 1,8 km/h (1 Bft) O-SO 122 0 min 0,000 mm 0,0 UV-I 0 W/m 12,2 C 3,2 km/h (1 Bft)
31.08.2016 03:20 12,8 C 12,8 C 96 % 1019,1 hPa 0,0 mm 1,8 km/h (1 Bft) O-SO 122 0 min 0,000 mm 0,0 UV-I 0 W/m 12,2 C 3,2 km/h (1 Bft)
31.08.2016 03:21 12,8 C 12,9 C 96 % 1019,1 hPa 0,0 mm 2,5 km/h (1 Bft) O-SO 109 0 min 0,000 mm 0,0 UV-I 0 W/m 12,2 C 4,8 km/h (1 Bft)
31.08.2016 03:22 12,9 C 12,9 C 96 % 1019,1 hPa 0,0 mm 1,9 km/h (1 Bft) O-SO 110 0 min 0,000 mm 0,0 UV-I 0 W/m 12,3 C 3,2 km/h (1 Bft)
31.08.2016 03:23 12,9 C 12,9 C 96 % 1019,1 hPa 0,0 mm 0,8 km/h (0 Bft) O-SO 110 0 min 0,000 mm 0,0 UV-I 0 W/m 12,3 C 1,6 km/h (1 Bft)
31.08.2016 03:24 12,9 C 13,0 C 96 % 1019,1 hPa 0,0 mm 0,7 km/h (0 Bft) O-SO 110 0 min 0,000 mm 0,0 UV-I 0 W/m 12,3 C 1,6 km/h (1 Bft)
31.08.2016 03:25 13,0 C 13,0 C 96 % 1019,1 hPa 0,0 mm 0,0 km/h (0 Bft) O-SO 110 0 min 0,000 mm 0,0 UV-I 0 W/m 12,4 C 0,0 km/h (0 Bft)
31.08.2016 03:26 13,0 C 13,0 C 96 % 1019,1 hPa 0,0 mm 0,0 km/h (0 Bft) O-SO 110 0 min 0,000 mm 0,0 UV-I 0 W/m 12,4 C 0,0 km/h (0 Bft)
31.08.2016 03:27 12,9 C 13,0 C 96 % 1019,1 hPa 0,0 mm 0,3 km/h (0 Bft) O-SO 110 0 min 0,000 mm 0,0 UV-I 0 W/m 12,3 C 1,6 km/h (1 Bft)
31.08.2016 03:28 12,8 C 12,9 C 95 % 1019,0 hPa 0,0 mm 0,3 km/h (0 Bft) O-SO 110 0 min 0,000 mm 0,0 UV-I 0 W/m 12,0 C 1,6 km/h (1 Bft)
31.08.2016 03:29 12,7 C 12,8 C 95 % 1019,0 hPa 0,0 mm 0,0 km/h (0 Bft) O-SO 110 0 min 0,000 mm 0,0 UV-I 0 W/m 11,9 C 0,0 km/h (0 Bft)
31.08.2016 03:30 12,6 C 12,7 C 95 % 1019,1 hPa 0,0 mm 0,1 km/h (0 Bft) O-SO 110 0 min 0,000 mm 0,0 UV-I 0 W/m 11,8 C 1,6 km/h (1 Bft)
31.08.2016 03:31 12,5 C 12,6 C 94 % 1019,0 hPa 0,0 mm 0,4 km/h (0 Bft) O-SO 110 0 min 0,000 mm 0,0 UV-I 0 W/m 11,6 C 1,6 km/h (1 Bft)
31.08.2016 03:32 12,3 C 12,5 C 94 % 1019,0 hPa 0,0 mm 0,4 km/h (0 Bft) O-SO 110 0 min 0,000 mm 0,0 UV-I 0 W/m 11,4 C 1,6 km/h (1 Bft)
31.08.2016 03:33 12,2 C 12,3 C 93 % 1019,0 hPa 0,0 mm 0,3 km/h (0 Bft) O-SO 110 0 min 0,000 mm 0,0 UV-I 0 W/m 11,1 C 1,6 km/h (1 Bft)
31.08.2016 03:34 12,1 C 12,2 C 94 % 1019,0 hPa 0,0 mm 0,1 km/h (0 Bft) O-SO 110 0 min 0,000 mm 0,0 UV-I 0 W/m 11,2 C 1,6 km/h (1 Bft)
31.08.2016 03:35 12,0 C 12,1 C 94 % 1019,0 hPa 0,0 mm 0,0 km/h (0 Bft) O-SO 110 0 min 0,000 mm 0,0 UV-I 0 W/m 11,1 C 0,0 km/h (0 Bft)
31.08.2016 03:36 11,9 C 12,0 C 94 % 1019,0 hPa 0,0 mm 0,0 km/h (0 Bft) O-SO 110 0 min 0,000 mm 0,0 UV-I 0 W/m 11,0 C 0,0 km/h (0 Bft)
31.08.2016 03:37 11,9 C 11,9 C 95 % 1019,0 hPa 0,0 mm 0,0 km/h (0 Bft) O-SO 110 0 min 0,000 mm 0,0 UV-I 0 W/m 11,1 C 0,0 km/h (0 Bft)
31.08.2016 03:38 11,9 C 11,9 C 95 % 1019,0 hPa 0,0 mm 0,0 km/h (0 Bft) O-SO 110 0 min 0,000 mm 0,0 UV-I 0 W/m 11,1 C 0,0 km/h (0 Bft)
31.08.2016 03:39 12,1 C 12,1 C 96 % 1019,0 hPa 0,0 mm 0,1 km/h (0 Bft) O-SO 110 0 min 0,000 mm 0,0 UV-I 0 W/m 11,5 C 1,6 km/h (1 Bft)
31.08.2016 03:40 12,2 C 12,2 C 96 % 1019,0 hPa 0,0 mm 2,3 km/h (1 Bft) O-SO 110 0 min 0,000 mm 0,0 UV-I 0 W/m 11,6 C 3,2 km/h (1 Bft)
31.08.2016 03:41 12,3 C 12,3 C 96 % 1019,1 hPa 0,0 mm 1,4 km/h (1 Bft) O-SO 110 0 min 0,000 mm 0,0 UV-I 0 W/m 11,7 C 3,2 km/h (1 Bft)
31.08.2016 03:42 12,4 C 12,4 C 96 % 1019,1 hPa 0,0 mm 0,0 km/h (0 Bft) O-SO 110 0 min 0,000 mm 0,0 UV-I 0 W/m 11,8 C 0,0 km/h (0 Bft)
31.08.2016 03:43 12,4 C 12,4 C 96 % 1019,0 hPa 0,0 mm 0,0 km/h (0 Bft) O-SO 110 0 min 0,000 mm 0,0 UV-I 0 W/m 11,8 C 0,0 km/h (0 Bft)
31.08.2016 03:44 12,4 C 12,4 C 96 % 1019,0 hPa 0,0 mm 0,0 km/h (0 Bft) O-SO 110 0 min 0,000 mm 0,0 UV-I 0 W/m 11,8 C 0,0 km/h (0 Bft)
31.08.2016 03:45 12,4 C 12,4 C 96 % 1019,0 hPa 0,0 mm 0,0 km/h (0 Bft) O-SO 110 0 min 0,000 mm 0,0 UV-I 0 W/m 11,8 C 0,0 km/h (0 Bft)
31.08.2016 03:46 12,4 C 12,4 C 96 % 1019,0 hPa 0,0 mm 0,0 km/h (0 Bft) O-SO 110 0 min 0,000 mm 0,0 UV-I 0 W/m 11,8 C 0,0 km/h (0 Bft)
31.08.2016 03:47 12,4 C 12,4 C 96 % 1019,0 hPa 0,0 mm 0,0 km/h (0 Bft) O-SO 110 0 min 0,000 mm 0,0 UV-I 0 W/m 11,8 C 0,0 km/h (0 Bft)
31.08.2016 03:48 12,4 C 12,4 C 96 % 1019,0 hPa 0,0 mm 0,0 km/h (0 Bft) O-SO 110 0 min 0,000 mm 0,0 UV-I 0 W/m 11,8 C 0,0 km/h (0 Bft)
31.08.2016 03:49 12,4 C 12,4 C 95 % 1019,0 hPa 0,0 mm 0,0 km/h (0 Bft) O-SO 110 0 min 0,000 mm 0,0 UV-I 0 W/m 11,6 C 0,0 km/h (0 Bft)
31.08.2016 03:50 12,4 C 12,4 C 95 % 1018,9 hPa 0,0 mm 0,0 km/h (0 Bft) O-SO 110 0 min 0,000 mm 0,0 UV-I 0 W/m 11,6 C 0,0 km/h (0 Bft)
31.08.2016 03:51 12,3 C 12,4 C 95 % 1018,9 hPa 0,0 mm 0,0 km/h (0 Bft) O-SO 110 0 min 0,000 mm 0,0 UV-I 0 W/m 11,5 C 0,0 km/h (0 Bft)
31.08.2016 03:52 12,3 C 12,3 C 95 % 1018,9 hPa 0,0 mm 0,0 km/h (0 Bft) O-SO 110 0 min 0,000 mm 0,0 UV-I 0 W/m 11,5 C 0,0 km/h (0 Bft)
31.08.2016 03:53 12,4 C 12,4 C 95 % 1018,9 hPa 0,0 mm 0,0 km/h (0 Bft) O-SO 110 0 min 0,000 mm 0,0 UV-I 0 W/m 11,6 C 0,0 km/h (0 Bft)
31.08.2016 03:54 12,4 C 12,4 C 96 % 1018,9 hPa 0,0 mm 0,0 km/h (0 Bft) O-SO 110 0 min 0,000 mm 0,0 UV-I 0 W/m 11,8 C 0,0 km/h (0 Bft)
31.08.2016 03:55 12,4 C 12,4 C 96 % 1018,9 hPa 0,0 mm 0,0 km/h (0 Bft) O-SO 110 0 min 0,000 mm 0,0 UV-I 0 W/m 11,8 C 0,0 km/h (0 Bft)
31.08.2016 03:56 12,4 C 12,4 C 95 % 1018,9 hPa 0,0 mm 0,0 km/h (0 Bft) O-SO 110 0 min 0,000 mm 0,0 UV-I 0 W/m 11,6 C 0,0 km/h (0 Bft)
31.08.2016 03:57 12,4 C 12,4 C 95 % 1018,9 hPa 0,0 mm 0,0 km/h (0 Bft) O-SO 110 0 min 0,000 mm 0,0 UV-I 0 W/m 11,6 C 0,0 km/h (0 Bft)
31.08.2016 03:58 12,4 C 12,4 C 95 % 1019,0 hPa 0,0 mm 0,0 km/h (0 Bft) O-SO 110 0 min 0,000 mm 0,0 UV-I 0 W/m 11,6 C 0,0 km/h (0 Bft)
31.08.2016 03:59 12,4 C 12,4 C 95 % 1018,9 hPa 0,0 mm 0,0 km/h (0 Bft) O-SO 110 0 min 0,000 mm 0,0 UV-I 0 W/m 11,6 C 0,0 km/h (0 Bft)
31.08.2016 04:00 12,4 C 12,4 C 95 % 1018,9 hPa 0,0 mm 0,0 km/h (0 Bft) O-SO 110 0 min 0,000 mm 0,0 UV-I 0 W/m 11,6 C 0,0 km/h (0 Bft)
31.08.2016 04:01 12,4 C 12,4 C 95 % 1018,9 hPa 0,0 mm 0,0 km/h (0 Bft) O-SO 110 0 min 0,000 mm 0,0 UV-I 0 W/m 11,6 C 0,0 km/h (0 Bft)
31.08.2016 04:02 12,4 C 12,4 C 95 % 1018,9 hPa 0,0 mm 0,0 km/h (0 Bft) O-SO 110 0 min 0,000 mm 0,0 UV-I 0 W/m 11,6 C 0,0 km/h (0 Bft)
31.08.2016 04:03 12,5 C 12,5 C 95 % 1019,0 hPa 0,0 mm 0,1 km/h (0 Bft) O-SO 110 0 min 0,000 mm 0,0 UV-I 0 W/m 11,7 C 1,6 km/h (1 Bft)
31.08.2016 04:04 12,6 C 12,6 C 95 % 1018,9 hPa 0,0 mm 0,1 km/h (0 Bft) O-SO 110 0 min 0,000 mm 0,0 UV-I 0 W/m 11,8 C 1,6 km/h (1 Bft)
31.08.2016 04:05 12,7 C 12,7 C 96 % 1018,9 hPa 0,0 mm 0,1 km/h (0 Bft) O-SO 110 0 min 0,000 mm 0,0 UV-I 0 W/m 12,1 C 1,6 km/h (1 Bft)
31.08.2016 04:06 12,7 C 12,7 C 96 % 1019,0 hPa 0,0 mm 1,6 km/h (1 Bft) O-SO 110 0 min 0,000 mm 0,0 UV-I 0 W/m 12,1 C 1,6 km/h (1 Bft)
31.08.2016 04:07 12,8 C 12,8 C 96 % 1019,0 hPa 0,0 mm 1,8 km/h (1 Bft) O-SO 110 0 min 0,000 mm 0,0 UV-I 0 W/m 12,2 C 3,2 km/h (1 Bft)
31.08.2016 04:08 12,9 C 12,9 C 96 % 1019,0 hPa 0,0 mm 0,3 km/h (0 Bft) O-SO 110 0 min 0,000 mm 0,0 UV-I 0 W/m 12,3 C 1,6 km/h (1 Bft)
31.08.2016 04:09 13,1 C 13,1 C 96 % 1019,0 hPa 0,0 mm 0,0 km/h (0 Bft) O-SO 110 0 min 0,000 mm 0,0 UV-I 0 W/m 12,5 C 0,0 km/h (0 Bft)
31.08.2016 04:10 13,1 C 13,1 C 96 % 1019,0 hPa 0,0 mm 0,0 km/h (0 Bft) O-SO 110 0 min 0,000 mm 0,0 UV-I 0 W/m 12,5 C 0,0 km/h (0 Bft)
31.08.2016 04:11 13,2 C 13,2 C 96 % 1019,0 hPa 0,0 mm 0,0 km/h (0 Bft) O-SO 110 0 min 0,000 mm 0,0 UV-I 0 W/m 12,6 C 0,0 km/h (0 Bft)
31.08.2016 04:12 13,3 C 13,3 C 96 % 1019,0 hPa 0,0 mm 0,0 km/h (0 Bft) O-SO 110 0 min 0,000 mm 0,0 UV-I 0 W/m 12,7 C 0,0 km/h (0 Bft)
31.08.2016 04:13 13,3 C 13,3 C 96 % 1019,0 hPa 0,0 mm 0,0 km/h (0 Bft) O-SO 110 0 min 0,000 mm 0,0 UV-I 0 W/m 12,7 C 0,0 km/h (0 Bft)
31.08.2016 04:14 13,3 C 13,3 C 96 % 1019,0 hPa 0,0 mm 0,2 km/h (0 Bft) O-SO 110 0 min 0,000 mm 0,0 UV-I 0 W/m 12,7 C 1,6 km/h (1 Bft)
31.08.2016 04:15 13,3 C 13,3 C 96 % 1019,0 hPa 0,0 mm 0,5 km/h (0 Bft) O-SO 110 0 min 0,000 mm 0,0 UV-I 0 W/m 12,7 C 1,6 km/h (1 Bft)
31.08.2016 04:16 13,3 C 13,3 C 96 % 1019,0 hPa 0,0 mm 0,0 km/h (0 Bft) O-SO 110 0 min 0,000 mm 0,0 UV-I 0 W/m 12,7 C 0,0 km/h (0 Bft)
31.08.2016 04:17 13,3 C 13,3 C 96 % 1019,0 hPa 0,0 mm 0,1 km/h (0 Bft) O-SO 110 0 min 0,000 mm 0,0 UV-I 0 W/m 12,7 C 1,6 km/h (1 Bft)
31.08.2016 04:18 13,3 C 13,3 C 96 % 1019,0 hPa 0,0 mm 0,0 km/h (0 Bft) O-SO 110 0 min 0,000 mm 0,0 UV-I 0 W/m 12,7 C 0,0 km/h (0 Bft)
31.08.2016 04:19 13,3 C 13,3 C 96 % 1019,0 hPa 0,0 mm 0,1 km/h (0 Bft) O-SO 110 0 min 0,000 mm 0,0 UV-I 0 W/m 12,7 C 1,6 km/h (1 Bft)
31.08.2016 04:20 13,3 C 13,3 C 96 % 1019,0 hPa 0,0 mm 0,3 km/h (0 Bft) O-SO 110 0 min 0,000 mm 0,0 UV-I 0 W/m 12,7 C 1,6 km/h (1 Bft)
31.08.2016 04:21 13,3 C 13,3 C 96 % 1019,0 hPa 0,0 mm 0,5 km/h (0 Bft) O-SO 110 0 min 0,000 mm 0,0 UV-I 0 W/m 12,7 C 1,6 km/h (1 Bft)
31.08.2016 04:22 13,3 C 13,3 C 96 % 1019,0 hPa 0,0 mm 0,0 km/h (0 Bft) O-SO 110 0 min 0,000 mm 0,0 UV-I 0 W/m 12,7 C 0,0 km/h (0 Bft)
31.08.2016 04:23 13,3 C 13,3 C 96 % 1019,0 hPa 0,0 mm 0,0 km/h (0 Bft) O-SO 110 0 min 0,000 mm 0,0 UV-I 0 W/m 12,7 C 0,0 km/h (0 Bft)
31.08.2016 04:24 13,2 C 13,3 C 96 % 1019,0 hPa 0,0 mm 0,0 km/h (0 Bft) O-SO 110 0 min 0,000 mm 0,0 UV-I 0 W/m 12,6 C 0,0 km/h (0 Bft)
31.08.2016 04:25 13,1 C 13,2 C 96 % 1019,0 hPa 0,0 mm 0,0 km/h (0 Bft) O-SO 110 0 min 0,000 mm 0,0 UV-I 0 W/m 12,5 C 0,0 km/h (0 Bft)
31.08.2016 04:26 13,1 C 13,1 C 96 % 1019,0 hPa 0,0 mm 0,0 km/h (0 Bft) O-SO 110 0 min 0,000 mm 0,0 UV-I 0 W/m 12,5 C 0,0 km/h (0 Bft)
31.08.2016 04:27 13,1 C 13,1 C 96 % 1019,0 hPa 0,0 mm 0,0 km/h (0 Bft) O-SO 110 0 min 0,000 mm 0,0 UV-I 0 W/m 12,5 C 0,0 km/h (0 Bft)
31.08.2016 04:28 13,1 C 13,1 C 96 % 1019,0 hPa 0,0 mm 0,0 km/h (0 Bft) O-SO 110 0 min 0,000 mm 0,0 UV-I 0 W/m 12,5 C 0,0 km/h (0 Bft)
31.08.2016 04:29 13,1 C 13,1 C 96 % 1019,0 hPa 0,0 mm 0,0 km/h (0 Bft) O-SO 110 0 min 0,000 mm 0,0 UV-I 0 W/m 12,5 C 0,0 km/h (0 Bft)
31.08.2016 04:30 13,2 C 13,2 C 96 % 1019,0 hPa 0,0 mm 0,2 km/h (0 Bft) O-SO 110 0 min 0,000 mm 0,0 UV-I 0 W/m 12,6 C 1,6 km/h (1 Bft)
31.08.2016 04:31 13,2 C 13,2 C 96 % 1019,1 hPa 0,0 mm 1,4 km/h (1 Bft) O-SO 110 0 min 0,000 mm 0,0 UV-I 0 W/m 12,6 C 3,2 km/h (1 Bft)
31.08.2016 04:32 13,2 C 13,2 C 96 % 1019,0 hPa 0,0 mm 0,5 km/h (0 Bft) O-SO 110 0 min 0,000 mm 0,0 UV-I 0 W/m 12,6 C 1,6 km/h (1 Bft)
31.08.2016 04:33 13,2 C 13,2 C 96 % 1019,0 hPa 0,0 mm 0,7 km/h (0 Bft) O-SO 110 0 min 0,000 mm 0,0 UV-I 0 W/m 12,6 C 1,6 km/h (1 Bft)
31.08.2016 04:34 13,2 C 13,2 C 96 % 1019,0 hPa 0,0 mm 2,5 km/h (1 Bft) O-SO 119 0 min 0,000 mm 0,0 UV-I 0 W/m 12,6 C 3,2 km/h (1 Bft)
31.08.2016 04:35 13,2 C 13,2 C 96 % 1019,0 hPa 0,0 mm 1,8 km/h (1 Bft) O-SO 119 0 min 0,000 mm 0,0 UV-I 0 W/m 12,6 C 3,2 km/h (1 Bft)
31.08.2016 04:36 13,2 C 13,3 C 96 % 1019,0 hPa 0,0 mm 0,7 km/h (0 Bft) O-SO 119 0 min 0,000 mm 0,0 UV-I 0 W/m 12,6 C 1,6 km/h (1 Bft)
31.08.2016 04:37 13,3 C 13,3 C 96 % 1019,0 hPa 0,0 mm 2,3 km/h (1 Bft) SO 145 0 min 0,000 mm 0,0 UV-I 0 W/m 12,7 C 3,2 km/h (1 Bft)
31.08.2016 04:38 13,3 C 13,3 C 96 % 1019,0 hPa 0,0 mm 2,7 km/h (1 Bft) SO 145 0 min 0,000 mm 0,0 UV-I 0 W/m 12,7 C 4,8 km/h (1 Bft)
31.08.2016 04:39 13,2 C 13,3 C 96 % 1019,0 hPa 0,0 mm 1,5 km/h (1 Bft) SO 145 0 min 0,000 mm 0,0 UV-I 0 W/m 12,6 C 3,2 km/h (1 Bft)
31.08.2016 04:40 13,3 C 13,3 C 96 % 1019,0 hPa 0,0 mm 0,6 km/h (0 Bft) SO 146 0 min 0,000 mm 0,0 UV-I 0 W/m 12,7 C 1,6 km/h (1 Bft)
31.08.2016 04:41 13,3 C 13,3 C 96 % 1019,1 hPa 0,0 mm 1,4 km/h (1 Bft) SO 145 0 min 0,000 mm 0,0 UV-I 0 W/m 12,7 C 3,2 km/h (1 Bft)
31.08.2016 04:42 13,2 C 13,3 C 96 % 1019,0 hPa 0,0 mm 2,3 km/h (1 Bft) SO 146 0 min 0,000 mm 0,0 UV-I 0 W/m 12,6 C 3,2 km/h (1 Bft)
31.08.2016 04:43 13,2 C 13,3 C 96 % 1019,0 hPa 0,0 mm 2,2 km/h (1 Bft) SO 146 0 min 0,000 mm 0,0 UV-I 0 W/m 12,6 C 3,2 km/h (1 Bft)
31.08.2016 04:44 13,3 C 13,3 C 96 % 1019,0 hPa 0,0 mm 1,9 km/h (1 Bft) SO 146 0 min 0,000 mm 0,0 UV-I 0 W/m 12,7 C 3,2 km/h (1 Bft)
31.08.2016 04:45 13,3 C 13,3 C 96 % 1019,1 hPa 0,0 mm 2,0 km/h (1 Bft) SO 146 0 min 0,000 mm 0,0 UV-I 0 W/m 12,7 C 3,2 km/h (1 Bft)
31.08.2016 04:46 13,3 C 13,3 C 96 % 1019,1 hPa 0,0 mm 0,9 km/h (0 Bft) SO 146 0 min 0,000 mm 0,0 UV-I 0 W/m 12,7 C 1,6 km/h (1 Bft)
31.08.2016 04:47 13,3 C 13,3 C 96 % 1019,1 hPa 0,0 mm 0,3 km/h (0 Bft) SO 146 0 min 0,000 mm 0,0 UV-I 0 W/m 12,7 C 1,6 km/h (1 Bft)
31.08.2016 04:48 13,3 C 13,3 C 96 % 1019,1 hPa 0,0 mm 0,0 km/h (0 Bft) SO 146 0 min 0,000 mm 0,0 UV-I 0 W/m 12,7 C 0,0 km/h (0 Bft)
31.08.2016 04:49 13,3 C 13,3 C 96 % 1019,1 hPa 0,0 mm 0,0 km/h (0 Bft) SO 146 0 min 0,000 mm 0,0 UV-I 0 W/m 12,7 C 0,0 km/h (0 Bft)
31.08.2016 04:50 13,3 C 13,3 C 96 % 1019,1 hPa 0,0 mm 0,0 km/h (0 Bft) SO 146 0 min 0,000 mm 0,0 UV-I 0 W/m 12,7 C 0,0 km/h (0 Bft)
31.08.2016 04:51 13,3 C 13,3 C 96 % 1019,1 hPa 0,0 mm 0,1 km/h (0 Bft) SO 146 0 min 0,000 mm 0,0 UV-I 0 W/m 12,7 C 1,6 km/h (1 Bft)
31.08.2016 04:52 13,3 C 13,3 C 96 % 1019,1 hPa 0,0 mm 2,1 km/h (1 Bft) SO 146 0 min 0,000 mm 0,0 UV-I 0 W/m 12,7 C 3,2 km/h (1 Bft)
31.08.2016 04:53 13,3 C 13,3 C 96 % 1019,1 hPa 0,0 mm 2,6 km/h (1 Bft) SO 146 0 min 0,000 mm 0,0 UV-I 0 W/m 12,7 C 3,2 km/h (1 Bft)
31.08.2016 04:54 13,2 C 13,3 C 96 % 1019,1 hPa 0,0 mm 1,9 km/h (1 Bft) SO 146 0 min 0,000 mm 0,0 UV-I 0 W/m 12,6 C 3,2 km/h (1 Bft)
31.08.2016 04:55 13,2 C 13,3 C 96 % 1019,1 hPa 0,0 mm 0,7 km/h (0 Bft) SO 146 0 min 0,000 mm 0,0 UV-I 0 W/m 12,6 C 1,6 km/h (1 Bft)
31.08.2016 04:56 13,2 C 13,2 C 96 % 1019,1 hPa 0,0 mm 0,4 km/h (0 Bft) SO 146 0 min 0,000 mm 0,0 UV-I 0 W/m 12,6 C 1,6 km/h (1 Bft)
31.08.2016 04:57 13,2 C 13,2 C 96 % 1019,1 hPa 0,0 mm 0,0 km/h (0 Bft) SO 146 0 min 0,000 mm 0,0 UV-I 0 W/m 12,6 C 0,0 km/h (0 Bft)
31.08.2016 04:58 13,1 C 13,2 C 96 % 1019,1 hPa 0,0 mm 0,8 km/h (0 Bft) SO 146 0 min 0,000 mm 0,0 UV-I 0 W/m 12,5 C 3,2 km/h (1 Bft)
31.08.2016 04:59 13,1 C 13,1 C 96 % 1019,1 hPa 0,0 mm 2,1 km/h (1 Bft) SO 146 0 min 0,000 mm 0,0 UV-I 0 W/m 12,5 C 3,2 km/h (1 Bft)
31.08.2016 05:00 13,1 C 13,1 C 96 % 1019,1 hPa 0,0 mm 1,3 km/h (1 Bft) SO 146 0 min 0,000 mm 0,0 UV-I 0 W/m 12,5 C 3,2 km/h (1 Bft)
31.08.2016 05:01 13,1 C 13,1 C 96 % 1019,1 hPa 0,0 mm 1,5 km/h (1 Bft) SO 146 0 min 0,000 mm 0,0 UV-I 0 W/m 12,5 C 3,2 km/h (1 Bft)
31.08.2016 05:02 13,1 C 13,1 C 96 % 1019,1 hPa 0,0 mm 2,1 km/h (1 Bft) SO 146 0 min 0,000 mm 0,0 UV-I 0 W/m 12,5 C 3,2 km/h (1 Bft)
31.08.2016 05:03 13,1 C 13,1 C 96 % 1019,1 hPa 0,0 mm 0,4 km/h (0 Bft) SO 146 0 min 0,000 mm 0,0 UV-I 0 W/m 12,5 C 1,6 km/h (1 Bft)
31.08.2016 05:04 13,1 C 13,1 C 96 % 1019,1 hPa 0,0 mm 0,0 km/h (0 Bft) SO 146 0 min 0,000 mm 0,0 UV-I 0 W/m 12,5 C 0,0 km/h (0 Bft)
31.08.2016 05:05 13,1 C 13,1 C 96 % 1019,1 hPa 0,0 mm 0,3 km/h (0 Bft) SO 146 0 min 0,000 mm 0,0 UV-I 0 W/m 12,5 C 1,6 km/h (1 Bft)
31.08.2016 05:06 13,0 C 13,1 C 96 % 1019,1 hPa 0,0 mm 1,0 km/h (0 Bft) SO 146 0 min 0,000 mm 0,0 UV-I 0 W/m 12,4 C 3,2 km/h (1 Bft)
31.08.2016 05:07 13,0 C 13,1 C 96 % 1019,1 hPa 0,0 mm 1,0 km/h (0 Bft) SO 146 0 min 0,000 mm 0,0 UV-I 0 W/m 12,4 C 3,2 km/h (1 Bft)
31.08.2016 05:08 12,9 C 13,0 C 96 % 1019,1 hPa 0,0 mm 1,7 km/h (1 Bft) SO 146 0 min 0,000 mm 0,0 UV-I 0 W/m 12,3 C 3,2 km/h (1 Bft)
31.08.2016 05:09 12,9 C 12,9 C 96 % 1019,1 hPa 0,0 mm 0,9 km/h (0 Bft) SO 146 0 min 0,000 mm 0,0 UV-I 0 W/m 12,3 C 3,2 km/h (1 Bft)
31.08.2016 05:10 12,9 C 12,9 C 96 % 1019,1 hPa 0,0 mm 0,7 km/h (0 Bft) SO 146 0 min 0,000 mm 0,0 UV-I 0 W/m 12,3 C 1,6 km/h (1 Bft)
31.08.2016 05:11 12,8 C 12,9 C 96 % 1019,1 hPa 0,0 mm 0,9 km/h (0 Bft) SO 146 0 min 0,000 mm 0,0 UV-I 0 W/m 12,2 C 1,6 km/h (1 Bft)
31.08.2016 05:12 12,8 C 12,8 C 96 % 1019,1 hPa 0,0 mm 1,5 km/h (1 Bft) SO 146 0 min 0,000 mm 0,0 UV-I 0 W/m 12,2 C 3,2 km/h (1 Bft)
31.08.2016 05:13 12,7 C 12,8 C 96 % 1019,1 hPa 0,0 mm 3,2 km/h (1 Bft) S-SO 156 0 min 0,000 mm 0,0 UV-I 0 W/m 12,1 C 4,8 km/h (1 Bft)
31.08.2016 05:14 12,7 C 12,8 C 96 % 1019,1 hPa 0,0 mm 3,4 km/h (1 Bft) S-SO 157 0 min 0,000 mm 0,0 UV-I 0 W/m 12,1 C 4,8 km/h (1 Bft)
31.08.2016 05:15 12,7 C 12,7 C 96 % 1019,1 hPa 0,0 mm 2,9 km/h (1 Bft) S-SO 160 0 min 0,000 mm 0,0 UV-I 0 W/m 12,1 C 6,4 km/h (2 Bft)
31.08.2016 05:16 12,6 C 12,7 C 96 % 1019,1 hPa 0,0 mm 3,5 km/h (1 Bft) S-SO 161 0 min 0,000 mm 0,0 UV-I 0 W/m 12,0 C 6,4 km/h (2 Bft)
31.08.2016 05:17 12,6 C 12,7 C 96 % 1019,0 hPa 0,0 mm 2,0 km/h (1 Bft) S-SO 161 0 min 0,000 mm 0,0 UV-I 0 W/m 12,0 C 3,2 km/h (1 Bft)
31.08.2016 05:18 12,6 C 12,6 C 96 % 1019,1 hPa 0,0 mm 1,5 km/h (1 Bft) S-SO 161 0 min 0,000 mm 0,0 UV-I 0 W/m 12,0 C 3,2 km/h (1 Bft)
31.08.2016 05:19 12,6 C 12,6 C 96 % 1019,1 hPa 0,0 mm 2,1 km/h (1 Bft) S-SO 161 0 min 0,000 mm 0,0 UV-I 0 W/m 12,0 C 3,2 km/h (1 Bft)
31.08.2016 05:20 12,6 C 12,6 C 96 % 1019,0 hPa 0,0 mm 1,5 km/h (1 Bft) S-SO 161 0 min 0,000 mm 0,0 UV-I 0 W/m 12,0 C 3,2 km/h (1 Bft)
31.08.2016 05:21 12,6 C 12,6 C 96 % 1019,0 hPa 0,0 mm 2,7 km/h (1 Bft) S-SO 161 0 min 0,000 mm 0,0 UV-I 0 W/m 12,0 C 6,4 km/h (2 Bft)
31.08.2016 05:22 12,4 C 12,6 C 96 % 1019,0 hPa 0,0 mm 3,5 km/h (1 Bft) S-SO 161 0 min 0,000 mm 0,0 UV-I 0 W/m 11,8 C 6,4 km/h (2 Bft)
31.08.2016 05:23 12,4 C 12,4 C 96 % 1019,0 hPa 0,0 mm 2,8 km/h (1 Bft) S-SO 161 0 min 0,000 mm 0,0 UV-I 0 W/m 11,8 C 3,2 km/h (1 Bft)
31.08.2016 05:24 12,3 C 12,4 C 96 % 1019,0 hPa 0,0 mm 3,7 km/h (1 Bft) S 169 0 min 0,000 mm 0,0 UV-I 0 W/m 11,7 C 6,4 km/h (2 Bft)
31.08.2016 05:25 12,3 C 12,3 C 96 % 1019,0 hPa 0,0 mm 3,8 km/h (1 Bft) S 186 0 min 0,000 mm 0,0 UV-I 0 W/m 11,7 C 8,0 km/h (2 Bft)
31.08.2016 05:26 12,3 C 12,3 C 96 % 1019,0 hPa 0,0 mm 1,9 km/h (1 Bft) S 186 0 min 0,000 mm 0,0 UV-I 0 W/m 11,7 C 3,2 km/h (1 Bft)
31.08.2016 05:27 12,3 C 12,3 C 96 % 1019,0 hPa 0,0 mm 2,1 km/h (1 Bft) S 186 0 min 0,000 mm 0,0 UV-I 0 W/m 11,7 C 3,2 km/h (1 Bft)
31.08.2016 05:28 12,3 C 12,3 C 96 % 1019,0 hPa 0,0 mm 2,4 km/h (1 Bft) S 186 0 min 0,000 mm 0,0 UV-I 0 W/m 11,7 C 3,2 km/h (1 Bft)
31.08.2016 05:29 12,2 C 12,3 C 96 % 1019,1 hPa 0,0 mm 1,6 km/h (1 Bft) S 186 0 min 0,000 mm 0,0 UV-I 0 W/m 11,6 C 3,2 km/h (1 Bft)
31.08.2016 05:30 12,2 C 12,3 C 96 % 1019,0 hPa 0,0 mm 1,8 km/h (1 Bft) S 186 0 min 0,000 mm 0,0 UV-I 0 W/m 11,6 C 3,2 km/h (1 Bft)
31.08.2016 05:31 12,1 C 12,2 C 96 % 1019,0 hPa 0,0 mm 1,1 km/h (1 Bft) S 186 0 min 0,000 mm 0,0 UV-I 0 W/m 11,5 C 1,6 km/h (1 Bft)
31.08.2016 05:32 12,1 C 12,1 C 96 % 1019,1 hPa 0,0 mm 0,6 km/h (0 Bft) S 186 0 min 0,000 mm 0,0 UV-I 0 W/m 11,5 C 1,6 km/h (1 Bft)
31.08.2016 05:33 12,1 C 12,1 C 96 % 1019,0 hPa 0,0 mm 0,2 km/h (0 Bft) S 186 0 min 0,000 mm 0,0 UV-I 0 W/m 11,5 C 1,6 km/h (1 Bft)
31.08.2016 05:34 12,1 C 12,1 C 96 % 1019,1 hPa 0,0 mm 0,0 km/h (0 Bft) S 186 0 min 0,000 mm 0,0 UV-I 0 W/m 11,5 C 0,0 km/h (0 Bft)
31.08.2016 05:35 12,1 C 12,1 C 96 % 1019,0 hPa 0,0 mm 0,6 km/h (0 Bft) S 186 0 min 0,000 mm 0,0 UV-I 0 W/m 11,5 C 1,6 km/h (1 Bft)
31.08.2016 05:36 12,1 C 12,1 C 96 % 1019,1 hPa 0,0 mm 0,3 km/h (0 Bft) S 186 0 min 0,000 mm 0,0 UV-I 0 W/m 11,5 C 1,6 km/h (1 Bft)
31.08.2016 05:37 12,1 C 12,1 C 96 % 1019,1 hPa 0,0 mm 0,7 km/h (0 Bft) S 186 0 min 0,000 mm 0,0 UV-I 0 W/m 11,5 C 1,6 km/h (1 Bft)
31.08.2016 05:38 12,1 C 12,1 C 96 % 1019,1 hPa 0,0 mm 0,9 km/h (0 Bft) S 186 0 min 0,000 mm 0,0 UV-I 0 W/m 11,5 C 1,6 km/h (1 Bft)
31.08.2016 05:39 12,1 C 12,1 C 96 % 1019,1 hPa 0,0 mm 0,8 km/h (0 Bft) S 186 0 min 0,000 mm 0,0 UV-I 0 W/m 11,5 C 1,6 km/h (1 Bft)
31.08.2016 05:40 12,1 C 12,1 C 96 % 1019,1 hPa 0,0 mm 1,0 km/h (0 Bft) S 186 0 min 0,000 mm 0,0 UV-I 0 W/m 11,5 C 1,6 km/h (1 Bft)
31.08.2016 05:41 12,1 C 12,1 C 96 % 1019,1 hPa 0,0 mm 0,9 km/h (0 Bft) S 186 0 min 0,000 mm 0,0 UV-I 0 W/m 11,5 C 1,6 km/h (1 Bft)
31.08.2016 05:42 12,1 C 12,1 C 96 % 1019,1 hPa 0,0 mm 0,8 km/h (0 Bft) S 186 0 min 0,000 mm 0,0 UV-I 0 W/m 11,5 C 1,6 km/h (1 Bft)
31.08.2016 05:43 12,1 C 12,1 C 96 % 1019,1 hPa 0,0 mm 1,0 km/h (0 Bft) S 186 0 min 0,000 mm 0,0 UV-I 0 W/m 11,5 C 1,6 km/h (1 Bft)
31.08.2016 05:44 12,0 C 12,1 C 96 % 1019,1 hPa 0,0 mm 1,1 km/h (1 Bft) S 186 0 min 0,000 mm 0,0 UV-I 0 W/m 11,4 C 1,6 km/h (1 Bft)
31.08.2016 05:45 11,9 C 12,1 C 96 % 1019,1 hPa 0,0 mm 0,9 km/h (0 Bft) S 186 0 min 0,000 mm 0,0 UV-I 0 W/m 11,3 C 1,6 km/h (1 Bft)
31.08.2016 05:46 11,9 C 11,9 C 96 % 1019,1 hPa 0,0 mm 0,8 km/h (0 Bft) S 186 0 min 0,000 mm 0,0 UV-I 0 W/m 11,3 C 1,6 km/h (1 Bft)
31.08.2016 05:47 11,9 C 11,9 C 96 % 1019,1 hPa 0,0 mm 1,7 km/h (1 Bft) S 186 0 min 0,000 mm 0,0 UV-I 0 W/m 11,3 C 3,2 km/h (1 Bft)
31.08.2016 05:48 11,9 C 11,9 C 96 % 1019,0 hPa 0,0 mm 2,2 km/h (1 Bft) S 186 0 min 0,000 mm 0,0 UV-I 0 W/m 11,3 C 3,2 km/h (1 Bft)
31.08.2016 05:49 11,9 C 11,9 C 96 % 1019,1 hPa 0,0 mm 1,2 km/h (1 Bft) S 186 0 min 0,000 mm 0,0 UV-I 0 W/m 11,3 C 3,2 km/h (1 Bft)
31.08.2016 05:50 11,9 C 11,9 C 96 % 1019,0 hPa 0,0 mm 0,3 km/h (0 Bft) S 186 0 min 0,000 mm 0,0 UV-I 0 W/m 11,3 C 1,6 km/h (1 Bft)
31.08.2016 05:51 11,9 C 11,9 C 96 % 1019,0 hPa 0,0 mm 1,4 km/h (1 Bft) S 186 0 min 0,000 mm 0,0 UV-I 0 W/m 11,3 C 1,6 km/h (1 Bft)
31.08.2016 05:52 11,8 C 11,9 C 96 % 1019,0 hPa 0,0 mm 1,0 km/h (0 Bft) S 186 0 min 0,000 mm 0,0 UV-I 0 W/m 11,2 C 1,6 km/h (1 Bft)
31.08.2016 05:53 11,8 C 11,8 C 96 % 1019,0 hPa 0,0 mm 0,0 km/h (0 Bft) S 186 0 min 0,000 mm 0,0 UV-I 0 W/m 11,2 C 0,0 km/h (0 Bft)
31.08.2016 05:54 11,7 C 11,8 C 96 % 1019,1 hPa 0,0 mm 0,0 km/h (0 Bft) S 186 0 min 0,000 mm 0,0 UV-I 0 W/m 11,1 C 0,0 km/h (0 Bft)
31.08.2016 05:55 11,6 C 11,7 C 96 % 1019,1 hPa 0,0 mm 0,0 km/h (0 Bft) S 186 0 min 0,000 mm 0,0 UV-I 0 W/m 11,0 C 0,0 km/h (0 Bft)
31.08.2016 05:56 11,6 C 11,6 C 96 % 1019,1 hPa 0,0 mm 0,1 km/h (0 Bft) S 186 0 min 0,000 mm 0,0 UV-I 0 W/m 11,0 C 1,6 km/h (1 Bft)
31.08.2016 05:57 11,6 C 11,7 C 96 % 1019,0 hPa 0,0 mm 0,1 km/h (0 Bft) S 186 0 min 0,000 mm 0,0 UV-I 0 W/m 11,0 C 1,6 km/h (1 Bft)
31.08.2016 05:58 11,7 C 11,7 C 96 % 1019,1 hPa 0,0 mm 0,3 km/h (0 Bft) S 186 0 min 0,000 mm 0,0 UV-I 0 W/m 11,1 C 1,6 km/h (1 Bft)
31.08.2016 05:59 11,6 C 11,7 C 96 % 1019,0 hPa 0,0 mm 0,8 km/h (0 Bft) S 186 0 min 0,000 mm 0,0 UV-I 0 W/m 11,0 C 1,6 km/h (1 Bft)
31.08.2016 06:00 11,6 C 11,7 C 96 % 1019,0 hPa 0,0 mm 0,2 km/h (0 Bft) S 186 0 min 0,000 mm 0,0 UV-I 0 W/m 11,0 C 1,6 km/h (1 Bft)
31.08.2016 06:01 11,6 C 11,6 C 96 % 1019,0 hPa 0,0 mm 0,2 km/h (0 Bft) S 186 0 min 0,000 mm 0,0 UV-I 0 W/m 11,0 C 1,6 km/h (1 Bft)
31.08.2016 06:02 11,6 C 11,6 C 96 % 1019,0 hPa 0,0 mm 0,2 km/h (0 Bft) S 186 0 min 0,000 mm 0,0 UV-I 0 W/m 11,0 C 1,6 km/h (1 Bft)
31.08.2016 06:03 11,5 C 11,6 C 96 % 1019,0 hPa 0,0 mm 0,3 km/h (0 Bft) S 186 0 min 0,000 mm 0,0 UV-I 0 W/m 10,9 C 1,6 km/h (1 Bft)
31.08.2016 06:04 11,5 C 11,6 C 96 % 1019,0 hPa 0,0 mm 0,1 km/h (0 Bft) S 186 0 min 0,000 mm 0,0 UV-I 0 W/m 10,9 C 1,6 km/h (1 Bft)
31.08.2016 06:05 11,6 C 11,6 C 96 % 1019,0 hPa 0,0 mm 0,9 km/h (0 Bft) S 186 0 min 0,000 mm 0,0 UV-I 0 W/m 11,0 C 1,6 km/h (1 Bft)
31.08.2016 06:06 11,6 C 11,6 C 96 % 1019,0 hPa 0,0 mm 0,2 km/h (0 Bft) S 186 0 min 0,000 mm 0,0 UV-I 0 W/m 11,0 C 1,6 km/h (1 Bft)
31.08.2016 06:07 11,6 C 11,6 C 96 % 1019,0 hPa 0,0 mm 0,0 km/h (0 Bft) S 186 0 min 0,000 mm 0,0 UV-I 0 W/m 11,0 C 0,0 km/h (0 Bft)
31.08.2016 06:08 11,6 C 11,6 C 96 % 1019,0 hPa 0,0 mm 0,0 km/h (0 Bft) S 186 0 min 0,000 mm 0,0 UV-I 0 W/m 11,0 C 0,0 km/h (0 Bft)
31.08.2016 06:09 11,6 C 11,6 C 96 % 1018,9 hPa 0,0 mm 0,0 km/h (0 Bft) S 186 0 min 0,000 mm 0,0 UV-I 0 W/m 11,0 C 0,0 km/h (0 Bft)
31.08.2016 06:10 11,6 C 11,7 C 96 % 1019,0 hPa 0,0 mm 0,3 km/h (0 Bft) S 186 0 min 0,000 mm 0,0 UV-I 0 W/m 11,0 C 1,6 km/h (1 Bft)
31.08.2016 06:11 11,7 C 11,7 C 96 % 1019,0 hPa 0,0 mm 0,2 km/h (0 Bft) S 186 0 min 0,000 mm 0,0 UV-I 0 W/m 11,1 C 1,6 km/h (1 Bft)
31.08.2016 06:12 11,6 C 11,7 C 96 % 1019,0 hPa 0,0 mm 0,0 km/h (0 Bft) S 186 0 min 0,000 mm 0,0 UV-I 0 W/m 11,0 C 0,0 km/h (0 Bft)
31.08.2016 06:13 11,6 C 11,6 C 96 % 1019,0 hPa 0,0 mm 0,0 km/h (0 Bft) S 186 0 min 0,000 mm 0,0 UV-I 0 W/m 11,0 C 0,0 km/h (0 Bft)
31.08.2016 06:14 11,6 C 11,6 C 96 % 1019,0 hPa 0,0 mm 0,0 km/h (0 Bft) S 186 0 min 0,000 mm 0,0 UV-I 0 W/m 11,0 C 0,0 km/h (0 Bft)
31.08.2016 06:15 11,6 C 11,6 C 96 % 1019,0 hPa 0,0 mm 0,0 km/h (0 Bft) S 186 0 min 0,000 mm 0,0 UV-I 0 W/m 11,0 C 0,0 km/h (0 Bft)
31.08.2016 06:16 11,5 C 11,6 C 96 % 1019,0 hPa 0,0 mm 0,0 km/h (0 Bft) S 186 0 min 0,000 mm 0,0 UV-I 0 W/m 10,9 C 0,0 km/h (0 Bft)
31.08.2016 06:17 11,4 C 11,5 C 96 % 1019,0 hPa 0,0 mm 0,0 km/h (0 Bft) S 186 0 min 0,000 mm 0,0 UV-I 0 W/m 10,8 C 0,0 km/h (0 Bft)
31.08.2016 06:18 11,4 C 11,4 C 96 % 1019,0 hPa 0,0 mm 0,0 km/h (0 Bft) S 186 0 min 0,000 mm 0,0 UV-I 0 W/m 10,8 C 0,0 km/h (0 Bft)
31.08.2016 06:19 11,3 C 11,4 C 96 % 1019,0 hPa 0,0 mm 0,0 km/h (0 Bft) S 186 0 min 0,000 mm 0,0 UV-I 0 W/m 10,7 C 0,0 km/h (0 Bft)
31.08.2016 06:20 11,3 C 11,4 C 96 % 1019,0 hPa 0,0 mm 0,0 km/h (0 Bft) S 186 0 min 0,000 mm 0,0 UV-I 0 W/m 10,7 C 0,0 km/h (0 Bft)
31.08.2016 06:21 11,2 C 11,3 C 96 % 1019,0 hPa 0,0 mm 0,0 km/h (0 Bft) S 186 0 min 0,000 mm 0,0 UV-I 0 W/m 10,6 C 0,0 km/h (0 Bft)
31.08.2016 06:22 11,1 C 11,2 C 96 % 1019,1 hPa 0,0 mm 0,0 km/h (0 Bft) S 186 0 min 0,000 mm 0,0 UV-I 0 W/m 10,5 C 0,0 km/h (0 Bft)
31.08.2016 06:23 11,0 C 11,1 C 95 % 1019,1 hPa 0,0 mm 0,0 km/h (0 Bft) S 186 0 min 0,000 mm 0,0 UV-I 0 W/m 10,2 C 0,0 km/h (0 Bft)
31.08.2016 06:24 11,1 C 11,1 C 96 % 1019,1 hPa 0,0 mm 0,0 km/h (0 Bft) S 186 0 min 0,000 mm 0,0 UV-I 0 W/m 10,5 C 0,0 km/h (0 Bft)
31.08.2016 06:25 11,1 C 11,1 C 96 % 1019,1 hPa 0,0 mm 0,0 km/h (0 Bft) S 186 0 min 0,000 mm 0,0 UV-I 0 W/m 10,5 C 0,0 km/h (0 Bft)
31.08.2016 06:26 11,1 C 11,1 C 96 % 1019,1 hPa 0,0 mm 0,0 km/h (0 Bft) S 186 0 min 0,000 mm 0,0 UV-I 0 W/m 10,5 C 0,0 km/h (0 Bft)
31.08.2016 06:27 11,1 C 11,1 C 96 % 1019,1 hPa 0,0 mm 0,0 km/h (0 Bft) S 186 0 min 0,000 mm 0,0 UV-I 0 W/m 10,5 C 0,0 km/h (0 Bft)
31.08.2016 06:28 11,0 C 11,1 C 96 % 1019,1 hPa 0,0 mm 0,0 km/h (0 Bft) S 186 0 min 0,000 mm 0,0 UV-I 0 W/m 10,4 C 0,0 km/h (0 Bft)
31.08.2016 06:29 11,0 C 11,1 C 96 % 1019,1 hPa 0,0 mm 0,0 km/h (0 Bft) S 186 0 min 0,000 mm 0,0 UV-I 0 W/m 10,4 C 0,0 km/h (0 Bft)
31.08.2016 06:30 11,1 C 11,1 C 96 % 1019,1 hPa 0,0 mm 0,0 km/h (0 Bft) S 186 0 min 0,000 mm 0,0 UV-I 0 W/m 10,5 C 0,0 km/h (0 Bft)
31.08.2016 06:31 11,1 C 11,1 C 96 % 1019,1 hPa 0,0 mm 0,0 km/h (0 Bft) S 186 0 min 0,000 mm 0,0 UV-I 0 W/m 10,5 C 0,0 km/h (0 Bft)
31.08.2016 06:32 11,2 C 11,2 C 96 % 1019,1 hPa 0,0 mm 0,0 km/h (0 Bft) S 186 0 min 0,000 mm 0,0 UV-I 0 W/m 10,6 C 0,0 km/h (0 Bft)
31.08.2016 06:33 11,2 C 11,2 C 96 % 1019,1 hPa 0,0 mm 0,0 km/h (0 Bft) S 186 0 min 0,000 mm 0,0 UV-I 0 W/m 10,6 C 0,0 km/h (0 Bft)
31.08.2016 06:34 11,2 C 11,2 C 96 % 1019,1 hPa 0,0 mm 0,0 km/h (0 Bft) S 186 0 min 0,000 mm 0,0 UV-I 0 W/m 10,6 C 0,0 km/h (0 Bft)
31.08.2016 06:35 11,2 C 11,2 C 96 % 1019,1 hPa 0,0 mm 0,0 km/h (0 Bft) S 186 0 min 0,000 mm 0,0 UV-I 5 W/m 10,6 C 0,0 km/h (0 Bft)
31.08.2016 06:36 11,2 C 11,2 C 96 % 1019,1 hPa 0,0 mm 0,0 km/h (0 Bft) S 186 0 min 0,000 mm 0,0 UV-I 5 W/m 10,6 C 0,0 km/h (0 Bft)
31.08.2016 06:37 11,1 C 11,2 C 96 % 1019,1 hPa 0,0 mm 0,0 km/h (0 Bft) S 186 0 min 0,000 mm 0,0 UV-I 5 W/m 10,5 C 0,0 km/h (0 Bft)
31.08.2016 06:38 10,9 C 11,1 C 96 % 1019,1 hPa 0,0 mm 0,6 km/h (0 Bft) S 186 0 min 0,000 mm 0,0 UV-I 5 W/m 10,3 C 1,6 km/h (1 Bft)
31.08.2016 06:39 10,9 C 10,9 C 96 % 1019,1 hPa 0,0 mm 1,4 km/h (1 Bft) S 186 0 min 0,000 mm 0,0 UV-I 5 W/m 10,3 C 1,6 km/h (1 Bft)
31.08.2016 06:40 10,8 C 10,9 C 96 % 1019,1 hPa 0,0 mm 1,3 km/h (1 Bft) S 186 0 min 0,000 mm 0,0 UV-I 7 W/m 10,2 C 1,6 km/h (1 Bft)
31.08.2016 06:41 10,8 C 10,8 C 96 % 1019,1 hPa 0,0 mm 1,5 km/h (1 Bft) S 186 0 min 0,000 mm 0,0 UV-I 7 W/m 10,2 C 1,6 km/h (1 Bft)
31.08.2016 06:42 10,9 C 10,9 C 96 % 1019,1 hPa 0,0 mm 0,3 km/h (0 Bft) S 186 0 min 0,000 mm 0,0 UV-I 7 W/m 10,3 C 1,6 km/h (1 Bft)
31.08.2016 06:43 10,9 C 10,9 C 96 % 1019,1 hPa 0,0 mm 0,1 km/h (0 Bft) S 186 0 min 0,000 mm 0,0 UV-I 7 W/m 10,3 C 1,6 km/h (1 Bft)
31.08.2016 06:44 10,9 C 10,9 C 96 % 1019,1 hPa 0,0 mm 0,0 km/h (0 Bft) S 186 0 min 0,000 mm 0,0 UV-I 7 W/m 10,3 C 0,0 km/h (0 Bft)
31.08.2016 06:45 10,9 C 10,9 C 96 % 1019,1 hPa 0,0 mm 0,0 km/h (0 Bft) S 186 0 min 0,000 mm 0,0 UV-I 9 W/m 10,3 C 0,0 km/h (0 Bft)
31.08.2016 06:46 10,8 C 10,9 C 96 % 1019,1 hPa 0,0 mm 0,0 km/h (0 Bft) S 186 0 min 0,000 mm 0,0 UV-I 9 W/m 10,2 C 0,0 km/h (0 Bft)
31.08.2016 06:47 10,8 C 10,8 C 96 % 1019,1 hPa 0,0 mm 0,0 km/h (0 Bft) S 186 0 min 0,000 mm 0,0 UV-I 9 W/m 10,2 C 0,0 km/h (0 Bft)
31.08.2016 06:48 10,7 C 10,8 C 96 % 1019,1 hPa 0,0 mm 0,0 km/h (0 Bft) S 186 0 min 0,000 mm 0,0 UV-I 9 W/m 10,1 C 0,0 km/h (0 Bft)
31.08.2016 06:49 10,7 C 10,7 C 96 % 1019,1 hPa 0,0 mm 0,1 km/h (0 Bft) S 186 0 min 0,000 mm 0,0 UV-I 11 W/m 10,1 C 1,6 km/h (1 Bft)
31.08.2016 06:50 10,6 C 10,7 C 96 % 1019,2 hPa 0,0 mm 0,9 km/h (0 Bft) S 186 0 min 0,000 mm 0,0 UV-I 11 W/m 10,0 C 1,6 km/h (1 Bft)
31.08.2016 06:51 10,7 C 10,7 C 96 % 1019,1 hPa 0,0 mm 1,0 km/h (0 Bft) S 186 0 min 0,000 mm 0,0 UV-I 11 W/m 10,1 C 1,6 km/h (1 Bft)
31.08.2016 06:52 10,7 C 10,7 C 96 % 1019,1 hPa 0,0 mm 0,2 km/h (0 Bft) S 186 0 min 0,000 mm 0,0 UV-I 11 W/m 10,1 C 1,6 km/h (1 Bft)
31.08.2016 06:53 10,7 C 10,7 C 96 % 1019,1 hPa 0,0 mm 0,0 km/h (0 Bft) S 186 0 min 0,000 mm 0,0 UV-I 12 W/m 10,1 C 0,0 km/h (0 Bft)
31.08.2016 06:54 10,8 C 10,8 C 96 % 1019,1 hPa 0,0 mm 0,2 km/h (0 Bft) S 186 0 min 0,000 mm 0,0 UV-I 12 W/m 10,2 C 1,6 km/h (1 Bft)
31.08.2016 06:55 10,8 C 10,8 C 96 % 1019,1 hPa 0,0 mm 0,0 km/h (0 Bft) S 186 0 min 0,000 mm 0,0 UV-I 12 W/m 10,2 C 0,0 km/h (0 Bft)
31.08.2016 06:56 10,8 C 10,8 C 96 % 1019,1 hPa 0,0 mm 0,0 km/h (0 Bft) S 186 0 min 0,000 mm 0,0 UV-I 12 W/m 10,2 C 0,0 km/h (0 Bft)
31.08.2016 06:57 10,8 C 10,8 C 96 % 1019,1 hPa 0,0 mm 0,0 km/h (0 Bft) S 186 0 min 0,000 mm 0,0 UV-I 14 W/m 10,2 C 0,0 km/h (0 Bft)
31.08.2016 06:58 10,8 C 10,8 C 96 % 1019,1 hPa 0,0 mm 0,0 km/h (0 Bft) S 186 0 min 0,000 mm 0,0 UV-I 14 W/m 10,2 C 0,0 km/h (0 Bft)
31.08.2016 06:59 10,8 C 10,8 C 96 % 1019,1 hPa 0,0 mm 0,0 km/h (0 Bft) S 186 0 min 0,000 mm 0,0 UV-I 14 W/m 10,2 C 0,0 km/h (0 Bft)
31.08.2016 07:00 10,7 C 10,8 C 96 % 1019,1 hPa 0,0 mm 0,0 km/h (0 Bft) S 186 0 min 0,000 mm 0,0 UV-I 16 W/m 10,1 C 0,0 km/h (0 Bft)
31.08.2016 07:01 10,7 C 10,7 C 96 % 1019,1 hPa 0,0 mm 0,0 km/h (0 Bft) S 186 0 min 0,000 mm 0,0 UV-I 16 W/m 10,1 C 0,0 km/h (0 Bft)
31.08.2016 07:02 10,8 C 10,8 C 96 % 1019,1 hPa 0,0 mm 0,0 km/h (0 Bft) S 186 0 min 0,000 mm 0,0 UV-I 16 W/m 10,2 C 0,0 km/h (0 Bft)
31.08.2016 07:03 10,8 C 10,8 C 96 % 1019,2 hPa 0,0 mm 0,0 km/h (0 Bft) S 186 0 min 0,000 mm 0,0 UV-I 16 W/m 10,2 C 0,0 km/h (0 Bft)
31.08.2016 07:04 10,8 C 10,8 C 96 % 1019,2 hPa 0,0 mm 0,0 km/h (0 Bft) S 186 0 min 0,000 mm 0,0 UV-I 18 W/m 10,2 C 0,0 km/h (0 Bft)
31.08.2016 07:05 10,8 C 10,8 C 96 % 1019,2 hPa 0,0 mm 0,0 km/h (0 Bft) S 186 0 min 0,000 mm 0,0 UV-I 18 W/m 10,2 C 0,0 km/h (0 Bft)
31.08.2016 07:06 10,8 C 10,8 C 96 % 1019,2 hPa 0,0 mm 0,0 km/h (0 Bft) S 186 0 min 0,000 mm 0,0 UV-I 18 W/m 10,2 C 0,0 km/h (0 Bft)
31.08.2016 07:07 10,8 C 10,8 C 96 % 1019,2 hPa 0,0 mm 0,0 km/h (0 Bft) S 186 0 min 0,000 mm 0,0 UV-I 18 W/m 10,2 C 0,0 km/h (0 Bft)
31.08.2016 07:08 10,8 C 10,8 C 96 % 1019,2 hPa 0,0 mm 0,0 km/h (0 Bft) S 186 0 min 0,000 mm 0,0 UV-I 19 W/m 10,2 C 0,0 km/h (0 Bft)
31.08.2016 07:09 10,8 C 10,8 C 96 % 1019,1 hPa 0,0 mm 0,0 km/h (0 Bft) S 186 0 min 0,000 mm 0,0 UV-I 19 W/m 10,2 C 0,0 km/h (0 Bft)
31.08.2016 07:10 10,8 C 10,8 C 96 % 1019,1 hPa 0,0 mm 0,0 km/h (0 Bft) S 186 0 min 0,000 mm 0,0 UV-I 21 W/m 10,2 C 0,0 km/h (0 Bft)
31.08.2016 07:11 10,8 C 10,8 C 96 % 1019,2 hPa 0,0 mm 0,0 km/h (0 Bft) S 186 0 min 0,000 mm 0,0 UV-I 23 W/m 10,2 C 0,0 km/h (0 Bft)
31.08.2016 07:12 10,8 C 10,8 C 96 % 1019,2 hPa 0,0 mm 0,0 km/h (0 Bft) S 186 0 min 0,000 mm 0,0 UV-I 25 W/m 10,2 C 0,0 km/h (0 Bft)
31.08.2016 07:13 10,8 C 10,8 C 96 % 1019,2 hPa 0,0 mm 0,0 km/h (0 Bft) S 186 0 min 0,000 mm 0,0 UV-I 28 W/m 10,2 C 0,0 km/h (0 Bft)
31.08.2016 07:14 10,8 C 10,8 C 96 % 1019,1 hPa 0,0 mm 0,0 km/h (0 Bft) S 186 0 min 0,000 mm 0,0 UV-I 32 W/m 10,2 C 0,0 km/h (0 Bft)
31.08.2016 07:15 10,8 C 10,8 C 96 % 1019,2 hPa 0,0 mm 0,0 km/h (0 Bft) S 186 0 min 0,000 mm 0,0 UV-I 33 W/m 10,2 C 0,0 km/h (0 Bft)
31.08.2016 07:16 10,8 C 10,8 C 96 % 1019,2 hPa 0,0 mm 0,0 km/h (0 Bft) S 186 0 min 0,000 mm 0,0 UV-I 35 W/m 10,2 C 0,0 km/h (0 Bft)
31.08.2016 07:17 10,9 C 10,9 C 96 % 1019,2 hPa 0,0 mm 0,0 km/h (0 Bft) S 186 0 min 0,000 mm 0,0 UV-I 35 W/m 10,3 C 0,0 km/h (0 Bft)
31.08.2016 07:18 10,8 C 10,9 C 96 % 1019,2 hPa 0,0 mm 0,0 km/h (0 Bft) S 186 0 min 0,000 mm 0,0 UV-I 35 W/m 10,2 C 0,0 km/h (0 Bft)
31.08.2016 07:19 10,9 C 10,9 C 96 % 1019,2 hPa 0,0 mm 0,0 km/h (0 Bft) S 186 0 min 0,000 mm 0,0 UV-I 35 W/m 10,3 C 0,0 km/h (0 Bft)
31.08.2016 07:20 10,9 C 10,9 C 96 % 1019,2 hPa 0,0 mm 0,0 km/h (0 Bft) S 186 0 min 0,000 mm 0,0 UV-I 35 W/m 10,3 C 0,0 km/h (0 Bft)
31.08.2016 07:21 11,0 C 11,0 C 96 % 1019,1 hPa 0,0 mm 0,0 km/h (0 Bft) S 186 0 min 0,000 mm 0,0 UV-I 44 W/m 10,4 C 0,0 km/h (0 Bft)
31.08.2016 07:22 10,9 C 11,0 C 96 % 1019,2 hPa 0,0 mm 0,0 km/h (0 Bft) S 186 0 min 0,000 mm 0,0 UV-I 49 W/m 10,3 C 0,0 km/h (0 Bft)
31.08.2016 07:23 10,9 C 11,0 C 96 % 1019,2 hPa 0,0 mm 0,4 km/h (0 Bft) S 186 0 min 0,000 mm 0,0 UV-I 49 W/m 10,3 C 1,6 km/h (1 Bft)
31.08.2016 07:24 11,0 C 11,0 C 96 % 1019,2 hPa 0,0 mm 1,1 km/h (1 Bft) S 186 0 min 0,000 mm 0,0 UV-I 47 W/m 10,4 C 1,6 km/h (1 Bft)
31.08.2016 07:25 11,0 C 11,0 C 97 % 1019,2 hPa 0,0 mm 0,0 km/h (0 Bft) S 186 0 min 0,000 mm 0,0 UV-I 49 W/m 10,5 C 0,0 km/h (0 Bft)
31.08.2016 07:26 11,1 C 11,1 C 97 % 1019,2 hPa 0,0 mm 0,2 km/h (0 Bft) S 186 0 min 0,000 mm 0,0 UV-I 56 W/m 10,6 C 1,6 km/h (1 Bft)
31.08.2016 07:27 11,1 C 11,1 C 97 % 1019,2 hPa 0,0 mm 0,7 km/h (0 Bft) S 186 0 min 0,000 mm 0,0 UV-I 58 W/m 10,6 C 1,6 km/h (1 Bft)
31.08.2016 07:28 11,2 C 11,2 C 97 % 1019,3 hPa 0,0 mm 0,9 km/h (0 Bft) S 186 0 min 0,000 mm 0,0 UV-I 60 W/m 10,7 C 1,6 km/h (1 Bft)
31.08.2016 07:29 11,2 C 11,2 C 96 % 1019,2 hPa 0,0 mm 0,3 km/h (0 Bft) S 186 0 min 0,000 mm 0,0 UV-I 60 W/m 10,6 C 1,6 km/h (1 Bft)
31.08.2016 07:30 11,3 C 11,3 C 96 % 1019,2 hPa 0,0 mm 0,0 km/h (0 Bft) S 186 0 min 0,000 mm 0,0 UV-I 62 W/m 10,7 C 0,0 km/h (0 Bft)
31.08.2016 07:31 11,3 C 11,3 C 97 % 1019,3 hPa 0,0 mm 0,0 km/h (0 Bft) S 186 0 min 0,000 mm 0,0 UV-I 62 W/m 10,8 C 0,0 km/h (0 Bft)
31.08.2016 07:32 11,3 C 11,3 C 97 % 1019,2 hPa 0,0 mm 0,0 km/h (0 Bft) S 186 0 min 0,000 mm 0,0 UV-I 63 W/m 10,8 C 0,0 km/h (0 Bft)
31.08.2016 07:33 11,3 C 11,4 C 97 % 1019,2 hPa 0,0 mm 0,0 km/h (0 Bft) S 186 0 min 0,000 mm 0,0 UV-I 63 W/m 10,8 C 0,0 km/h (0 Bft)
31.08.2016 07:34 11,4 C 11,4 C 97 % 1019,2 hPa 0,0 mm 0,0 km/h (0 Bft) S 186 0 min 0,000 mm 0,0 UV-I 62 W/m 10,9 C 0,0 km/h (0 Bft)
31.08.2016 07:35 11,4 C 11,4 C 97 % 1019,1 hPa 0,0 mm 0,0 km/h (0 Bft) S 186 0 min 0,000 mm 0,0 UV-I 60 W/m 10,9 C 0,0 km/h (0 Bft)
31.08.2016 07:36 11,5 C 11,5 C 97 % 1019,2 hPa 0,0 mm 0,0 km/h (0 Bft) S 186 0 min 0,000 mm 0,0 UV-I 54 W/m 11,0 C 0,0 km/h (0 Bft)
31.08.2016 07:37 11,5 C 11,5 C 97 % 1019,2 hPa 0,0 mm 0,0 km/h (0 Bft) S 186 0 min 0,000 mm 0,0 UV-I 49 W/m 11,0 C 0,0 km/h (0 Bft)
31.08.2016 07:38 11,6 C 11,6 C 97 % 1019,2 hPa 0,0 mm 0,0 km/h (0 Bft) S 186 0 min 0,000 mm 0,0 UV-I 47 W/m 11,1 C 0,0 km/h (0 Bft)
31.08.2016 07:39 11,6 C 11,6 C 97 % 1019,2 hPa 0,0 mm 0,0 km/h (0 Bft) S 186 0 min 0,000 mm 0,0 UV-I 47 W/m 11,1 C 0,0 km/h (0 Bft)
31.08.2016 07:40 11,6 C 11,6 C 97 % 1019,2 hPa 0,0 mm 0,0 km/h (0 Bft) S 186 0 min 0,000 mm 0,0 UV-I 49 W/m 11,1 C 0,0 km/h (0 Bft)
31.08.2016 07:41 11,6 C 11,6 C 97 % 1019,2 hPa 0,0 mm 0,0 km/h (0 Bft) S 186 0 min 0,000 mm 0,0 UV-I 47 W/m 11,1 C 0,0 km/h (0 Bft)
31.08.2016 07:42 11,7 C 11,7 C 96 % 1019,1 hPa 0,0 mm 0,0 km/h (0 Bft) S 186 0 min 0,000 mm 0,0 UV-I 44 W/m 11,1 C 0,0 km/h (0 Bft)
31.08.2016 07:43 11,7 C 11,7 C 96 % 1019,1 hPa 0,0 mm 0,0 km/h (0 Bft) S 186 0 min 0,000 mm 0,0 UV-I 42 W/m 11,1 C 0,0 km/h (0 Bft)
31.08.2016 07:44 11,7 C 11,7 C 96 % 1019,1 hPa 0,0 mm 0,0 km/h (0 Bft) S 186 0 min 0,000 mm 0,0 UV-I 42 W/m 11,1 C 0,0 km/h (0 Bft)
31.08.2016 07:45 11,7 C 11,7 C 96 % 1019,2 hPa 0,0 mm 0,5 km/h (0 Bft) S 186 0 min 0,000 mm 0,0 UV-I 44 W/m 11,1 C 1,6 km/h (1 Bft)
31.08.2016 07:46 11,7 C 11,7 C 96 % 1019,2 hPa 0,0 mm 0,9 km/h (0 Bft) S 186 0 min 0,000 mm 0,0 UV-I 49 W/m 11,1 C 1,6 km/h (1 Bft)
31.08.2016 07:47 11,7 C 11,7 C 97 % 1019,2 hPa 0,0 mm 0,9 km/h (0 Bft) S 186 0 min 0,000 mm 0,5 UV-I 60 W/m 11,2 C 1,6 km/h (1 Bft)
31.08.2016 07:48 11,8 C 11,8 C 97 % 1019,2 hPa 0,0 mm 1,0 km/h (0 Bft) S 186 0 min 0,000 mm 0,5 UV-I 70 W/m 11,3 C 1,6 km/h (1 Bft)
31.08.2016 07:49 11,8 C 11,8 C 97 % 1019,2 hPa 0,0 mm 0,6 km/h (0 Bft) S 186 0 min 0,000 mm 0,5 UV-I 81 W/m 11,3 C 1,6 km/h (1 Bft)
31.08.2016 07:50 11,9 C 11,9 C 97 % 1019,2 hPa 0,0 mm 0,5 km/h (0 Bft) S 186 0 min 0,000 mm 0,5 UV-I 93 W/m 11,4 C 1,6 km/h (1 Bft)
31.08.2016 07:51 11,9 C 11,9 C 97 % 1019,2 hPa 0,0 mm 0,3 km/h (0 Bft) S 186 1 min 0,000 mm 0,5 UV-I 118 W/m 11,4 C 1,6 km/h (1 Bft)
31.08.2016 07:52 12,0 C 12,0 C 97 % 1019,3 hPa 0,0 mm 0,0 km/h (0 Bft) S 186 0 min 0,000 mm 0,5 UV-I 116 W/m 11,5 C 0,0 km/h (0 Bft)
31.08.2016 07:53 12,0 C 12,1 C 97 % 1019,2 hPa 0,0 mm 0,0 km/h (0 Bft) S 186 0 min 0,000 mm 0,5 UV-I 105 W/m 11,5 C 0,0 km/h (0 Bft)
31.08.2016 07:54 12,0 C 12,0 C 97 % 1019,3 hPa 0,0 mm 0,0 km/h (0 Bft) S 186 0 min 0,000 mm 0,5 UV-I 97 W/m 11,5 C 0,0 km/h (0 Bft)
31.08.2016 07:55 12,1 C 12,1 C 97 % 1019,3 hPa 0,0 mm 0,0 km/h (0 Bft) S 186 0 min 0,000 mm 0,5 UV-I 90 W/m 11,6 C 0,0 km/h (0 Bft)
31.08.2016 07:56 12,1 C 12,1 C 97 % 1019,3 hPa 0,0 mm 0,0 km/h (0 Bft) S 186 0 min 0,000 mm 0,5 UV-I 86 W/m 11,6 C 0,0 km/h (0 Bft)
31.08.2016 07:57 12,2 C 12,2 C 97 % 1019,2 hPa 0,0 mm 0,3 km/h (0 Bft) S 186 0 min 0,000 mm 0,5 UV-I 95 W/m 11,7 C 1,6 km/h (1 Bft)
31.08.2016 07:58 12,2 C 12,2 C 97 % 1019,2 hPa 0,0 mm 2,3 km/h (1 Bft) W 262 0 min 0,000 mm 0,5 UV-I 86 W/m 11,7 C 3,2 km/h (1 Bft)
31.08.2016 07:59 12,2 C 12,2 C 97 % 1019,3 hPa 0,0 mm 2,6 km/h (1 Bft) W 279 0 min 0,000 mm 0,5 UV-I 76 W/m 11,7 C 3,2 km/h (1 Bft)
31.08.2016 08:00 12,2 C 12,2 C 97 % 1019,3 hPa 0,0 mm 1,5 km/h (1 Bft) W 279 0 min 0,000 mm 0,5 UV-I 70 W/m 11,7 C 3,2 km/h (1 Bft)
31.08.2016 08:01 12,2 C 12,2 C 97 % 1019,3 hPa 0,0 mm 2,0 km/h (1 Bft) W 279 0 min 0,025 mm 0,6 UV-I 74 W/m 11,7 C 3,2 km/h (1 Bft)
31.08.2016 08:02 12,2 C 12,2 C 97 % 1019,3 hPa 0,0 mm 0,1 km/h (0 Bft) W 279 0 min 0,000 mm 0,6 UV-I 84 W/m 11,7 C 1,6 km/h (1 Bft)
31.08.2016 08:03 12,2 C 12,2 C 97 % 1019,3 hPa 0,0 mm 0,0 km/h (0 Bft) W 279 0 min 0,000 mm 0,6 UV-I 88 W/m 11,7 C 0,0 km/h (0 Bft)
31.08.2016 08:04 12,1 C 12,2 C 97 % 1019,3 hPa 0,0 mm 0,0 km/h (0 Bft) W 279 0 min 0,000 mm 0,7 UV-I 109 W/m 11,6 C 0,0 km/h (0 Bft)
31.08.2016 08:05 12,1 C 12,2 C 97 % 1019,3 hPa 0,0 mm 0,0 km/h (0 Bft) W 279 1 min 0,000 mm 0,7 UV-I 148 W/m 11,6 C 0,0 km/h (0 Bft)
31.08.2016 08:06 12,2 C 12,2 C 97 % 1019,4 hPa 0,0 mm 0,0 km/h (0 Bft) W 279 1 min 0,000 mm 0,6 UV-I 155 W/m 11,7 C 0,0 km/h (0 Bft)
31.08.2016 08:07 12,3 C 12,3 C 96 % 1019,4 hPa 0,0 mm 0,0 km/h (0 Bft) W 279 0 min 0,000 mm 0,6 UV-I 139 W/m 11,7 C 0,0 km/h (0 Bft)
31.08.2016 08:08 12,3 C 12,3 C 96 % 1019,4 hPa 0,0 mm 0,0 km/h (0 Bft) W 279 0 min 0,000 mm 0,6 UV-I 141 W/m 11,7 C 0,0 km/h (0 Bft)
31.08.2016 08:09 12,3 C 12,3 C 96 % 1019,4 hPa 0,0 mm 0,3 km/h (0 Bft) W 279 1 min 0,000 mm 0,6 UV-I 153 W/m 11,7 C 1,6 km/h (1 Bft)
31.08.2016 08:10 12,4 C 12,4 C 96 % 1019,4 hPa 0,0 mm 1,3 km/h (1 Bft) W 279 0 min 0,000 mm 0,5 UV-I 141 W/m 11,8 C 1,6 km/h (1 Bft)
31.08.2016 08:11 12,6 C 12,6 C 97 % 1019,4 hPa 0,0 mm 0,4 km/h (0 Bft) W 279 0 min 0,000 mm 0,5 UV-I 109 W/m 12,1 C 1,6 km/h (1 Bft)
31.08.2016 08:12 12,5 C 12,6 C 97 % 1019,4 hPa 0,0 mm 0,0 km/h (0 Bft) W 279 0 min 0,000 mm 0,5 UV-I 77 W/m 12,0 C 0,0 km/h (0 Bft)
31.08.2016 08:13 12,4 C 12,5 C 97 % 1019,4 hPa 0,0 mm 0,0 km/h (0 Bft) W 279 0 min 0,000 mm 0,5 UV-I 72 W/m 11,9 C 0,0 km/h (0 Bft)
31.08.2016 08:14 12,4 C 12,4 C 97 % 1019,3 hPa 0,0 mm 0,0 km/h (0 Bft) W 279 0 min 0,000 mm 0,5 UV-I 74 W/m 11,9 C 0,0 km/h (0 Bft)
31.08.2016 08:15 12,4 C 12,4 C 97 % 1019,3 hPa 0,0 mm 0,0 km/h (0 Bft) W 279 0 min 0,000 mm 0,5 UV-I 70 W/m 11,9 C 0,0 km/h (0 Bft)
31.08.2016 08:16 12,6 C 12,6 C 97 % 1019,4 hPa 0,0 mm 0,0 km/h (0 Bft) W 279 0 min 0,000 mm 0,5 UV-I 70 W/m 12,1 C 0,0 km/h (0 Bft)
31.08.2016 08:17 12,6 C 12,6 C 97 % 1019,3 hPa 0,0 mm 0,1 km/h (0 Bft) W 279 0 min 0,000 mm 0,5 UV-I 74 W/m 12,1 C 1,6 km/h (1 Bft)
31.08.2016 08:18 12,6 C 12,6 C 97 % 1019,3 hPa 0,0 mm 0,0 km/h (0 Bft) W 279 0 min 0,000 mm 0,5 UV-I 76 W/m 12,1 C 0,0 km/h (0 Bft)
31.08.2016 08:19 12,6 C 12,6 C 97 % 1019,4 hPa 0,0 mm 0,0 km/h (0 Bft) W 279 0 min 0,000 mm 0,5 UV-I 77 W/m 12,1 C 0,0 km/h (0 Bft)
31.08.2016 08:20 12,7 C 12,7 C 97 % 1019,3 hPa 0,0 mm 0,0 km/h (0 Bft) W 279 0 min 0,000 mm 0,5 UV-I 77 W/m 12,2 C 0,0 km/h (0 Bft)
31.08.2016 08:21 12,7 C 12,7 C 97 % 1019,4 hPa 0,0 mm 0,0 km/h (0 Bft) W 279 0 min 0,000 mm 0,5 UV-I 81 W/m 12,2 C 0,0 km/h (0 Bft)
31.08.2016 08:22 12,7 C 12,7 C 97 % 1019,3 hPa 0,0 mm 0,0 km/h (0 Bft) W 279 0 min 0,000 mm 0,5 UV-I 81 W/m 12,2 C 0,0 km/h (0 Bft)
31.08.2016 08:23 12,7 C 12,7 C 97 % 1019,4 hPa 0,0 mm 0,0 km/h (0 Bft) W 279 0 min 0,000 mm 0,5 UV-I 81 W/m 12,2 C 0,0 km/h (0 Bft)
31.08.2016 08:24 12,8 C 12,8 C 97 % 1019,3 hPa 0,0 mm 0,5 km/h (0 Bft) W 279 0 min 0,000 mm 0,5 UV-I 84 W/m 12,3 C 1,6 km/h (1 Bft)
31.08.2016 08:25 12,8 C 12,8 C 97 % 1019,3 hPa 0,0 mm 3,3 km/h (1 Bft) W 279 0 min 0,000 mm 0,5 UV-I 86 W/m 12,3 C 4,8 km/h (1 Bft)
31.08.2016 08:26 12,9 C 12,9 C 97 % 1019,3 hPa 0,0 mm 2,7 km/h (1 Bft) W 274 0 min 0,000 mm 0,6 UV-I 84 W/m 12,4 C 3,2 km/h (1 Bft)
31.08.2016 08:27 12,9 C 12,9 C 97 % 1019,3 hPa 0,0 mm 1,8 km/h (1 Bft) W 269 0 min 0,000 mm 0,6 UV-I 88 W/m 12,4 C 3,2 km/h (1 Bft)
31.08.2016 08:28 12,9 C 12,9 C 97 % 1019,3 hPa 0,0 mm 2,3 km/h (1 Bft) W-SW 255 0 min 0,000 mm 0,6 UV-I 95 W/m 12,4 C 4,8 km/h (1 Bft)
31.08.2016 08:29 13,0 C 13,0 C 97 % 1019,4 hPa 0,0 mm 6,6 km/h (2 Bft) W-SW 246 0 min 0,000 mm 0,6 UV-I 95 W/m 12,5 C 8,0 km/h (2 Bft)
31.08.2016 08:30 13,0 C 13,0 C 97 % 1019,3 hPa 0,0 mm 5,2 km/h (1 Bft) W-SW 254 0 min 0,000 mm 0,6 UV-I 90 W/m 12,5 C 6,4 km/h (2 Bft)
31.08.2016 08:31 13,0 C 13,1 C 97 % 1019,4 hPa 0,0 mm 4,3 km/h (1 Bft) SW 234 0 min 0,000 mm 0,6 UV-I 98 W/m 12,5 C 6,4 km/h (2 Bft)
31.08.2016 08:32 13,0 C 13,1 C 97 % 1019,3 hPa 0,0 mm 5,5 km/h (1 Bft) W-SW 250 0 min 0,000 mm 0,7 UV-I 105 W/m 12,5 C 11,3 km/h (2 Bft)
31.08.2016 08:33 13,0 C 13,1 C 97 % 1019,4 hPa 0,0 mm 5,6 km/h (1 Bft) W-SW 256 0 min 0,000 mm 0,7 UV-I 107 W/m 12,5 C 8,0 km/h (2 Bft)
31.08.2016 08:34 12,9 C 13,1 C 97 % 1019,4 hPa 0,0 mm 4,5 km/h (1 Bft) W-SW 257 0 min 0,000 mm 0,7 UV-I 114 W/m 12,4 C 6,4 km/h (2 Bft)
31.08.2016 08:35 13,0 C 13,0 C 97 % 1019,3 hPa 0,0 mm 2,8 km/h (1 Bft) W 265 0 min 0,000 mm 0,8 UV-I 120 W/m 12,5 C 4,8 km/h (1 Bft)
31.08.2016 08:36 13,1 C 13,1 C 97 % 1019,3 hPa 0,0 mm 1,7 km/h (1 Bft) W 265 0 min 0,000 mm 0,8 UV-I 127 W/m 12,6 C 3,2 km/h (1 Bft)
31.08.2016 08:37 13,1 C 13,1 C 97 % 1019,3 hPa 0,0 mm 0,2 km/h (0 Bft) W 265 0 min 0,000 mm 0,8 UV-I 148 W/m 12,6 C 1,6 km/h (1 Bft)
31.08.2016 08:38 13,1 C 13,1 C 97 % 1019,4 hPa 0,0 mm 2,0 km/h (1 Bft) W 266 0 min 0,000 mm 0,8 UV-I 142 W/m 12,6 C 3,2 km/h (1 Bft)
31.08.2016 08:39 13,2 C 13,2 C 97 % 1019,4 hPa 0,0 mm 1,8 km/h (1 Bft) W 265 0 min 0,000 mm 0,8 UV-I 132 W/m 12,7 C 3,2 km/h (1 Bft)
31.08.2016 08:40 13,1 C 13,2 C 97 % 1019,4 hPa 0,0 mm 2,0 km/h (1 Bft) W 265 0 min 0,000 mm 0,8 UV-I 121 W/m 12,6 C 3,2 km/h (1 Bft)
31.08.2016 08:41 13,1 C 13,2 C 97 % 1019,3 hPa 0,0 mm 3,6 km/h (1 Bft) W 259 0 min 0,000 mm 0,8 UV-I 118 W/m 12,6 C 4,8 km/h (1 Bft)
31.08.2016 08:42 13,1 C 13,1 C 97 % 1019,3 hPa 0,0 mm 2,0 km/h (1 Bft) W 271 0 min 0,000 mm 0,8 UV-I 120 W/m 12,6 C 3,2 km/h (1 Bft)
31.08.2016 08:43 13,1 C 13,1 C 97 % 1019,3 hPa 0,0 mm 3,8 km/h (1 Bft) W-NW 288 0 min 0,000 mm 0,8 UV-I 123 W/m 12,6 C 4,8 km/h (1 Bft)
31.08.2016 08:44 13,0 C 13,1 C 97 % 1019,3 hPa 0,0 mm 1,9 km/h (1 Bft) W-NW 289 0 min 0,000 mm 0,9 UV-I 130 W/m 12,5 C 3,2 km/h (1 Bft)
31.08.2016 08:45 13,0 C 13,1 C 97 % 1019,3 hPa 0,0 mm 1,0 km/h (0 Bft) W-NW 289 0 min 0,000 mm 0,9 UV-I 130 W/m 12,5 C 3,2 km/h (1 Bft)
31.08.2016 08:46 13,0 C 13,0 C 97 % 1019,3 hPa 0,0 mm 1,8 km/h (1 Bft) W-NW 289 0 min 0,000 mm 0,9 UV-I 123 W/m 12,5 C 3,2 km/h (1 Bft)
31.08.2016 08:47 13,1 C 13,1 C 97 % 1019,3 hPa 0,0 mm 2,3 km/h (1 Bft) W-NW 289 0 min 0,000 mm 0,9 UV-I 125 W/m 12,6 C 3,2 km/h (1 Bft)
31.08.2016 08:48 13,1 C 13,1 C 97 % 1019,4 hPa 0,0 mm 1,2 km/h (1 Bft) W-NW 289 0 min 0,000 mm 0,9 UV-I 127 W/m 12,6 C 1,6 km/h (1 Bft)
31.08.2016 08:49 13,1 C 13,1 C 97 % 1019,4 hPa 0,0 mm 1,7 km/h (1 Bft) W-NW 289 0 min 0,000 mm 0,9 UV-I 125 W/m 12,6 C 3,2 km/h (1 Bft)
31.08.2016 08:50 13,2 C 13,2 C 97 % 1019,4 hPa 0,0 mm 1,1 km/h (1 Bft) W-NW 289 0 min 0,000 mm 0,9 UV-I 134 W/m 12,7 C 1,6 km/h (1 Bft)
31.08.2016 08:51 13,1 C 13,2 C 97 % 1019,3 hPa 0,0 mm 0,8 km/h (0 Bft) W-NW 289 0 min 0,000 mm 0,9 UV-I 134 W/m 12,6 C 1,6 km/h (1 Bft)
31.08.2016 08:52 13,2 C 13,2 C 97 % 1019,4 hPa 0,0 mm 0,8 km/h (0 Bft) W-NW 289 0 min 0,000 mm 1,0 UV-I 139 W/m 12,7 C 1,6 km/h (1 Bft)
31.08.2016 08:53 13,2 C 13,2 C 97 % 1019,3 hPa 0,0 mm 0,5 km/h (0 Bft) W-NW 289 0 min 0,000 mm 1,0 UV-I 146 W/m 12,7 C 1,6 km/h (1 Bft)
31.08.2016 08:54 13,2 C 13,2 C 97 % 1019,3 hPa 0,0 mm 0,5 km/h (0 Bft) W-NW 289 0 min 0,000 mm 1,0 UV-I 158 W/m 12,7 C 1,6 km/h (1 Bft)
31.08.2016 08:55 13,2 C 13,2 C 97 % 1019,3 hPa 0,0 mm 0,1 km/h (0 Bft) W-NW 289 0 min 0,000 mm 1,1 UV-I 193 W/m 12,7 C 1,6 km/h (1 Bft)
31.08.2016 08:56 13,2 C 13,2 C 97 % 1019,3 hPa 0,0 mm 0,1 km/h (0 Bft) W-NW 289 0 min 0,000 mm 1,1 UV-I 185 W/m 12,7 C 1,6 km/h (1 Bft)
31.08.2016 08:57 13,3 C 13,3 C 97 % 1019,3 hPa 0,0 mm 0,0 km/h (0 Bft) W-NW 289 0 min 0,000 mm 1,1 UV-I 167 W/m 12,8 C 0,0 km/h (0 Bft)
31.08.2016 08:58 13,3 C 13,3 C 97 % 1019,3 hPa 0,0 mm 0,8 km/h (0 Bft) W-NW 289 0 min 0,000 mm 1,1 UV-I 169 W/m 12,8 C 1,6 km/h (1 Bft)
31.08.2016 08:59 13,2 C 13,3 C 97 % 1019,3 hPa 0,0 mm 0,8 km/h (0 Bft) W-NW 289 0 min 0,000 mm 1,0 UV-I 172 W/m 12,7 C 1,6 km/h (1 Bft)
31.08.2016 09:00 13,2 C 13,2 C 97 % 1019,3 hPa 0,0 mm 0,8 km/h (0 Bft) W-NW 293 0 min 0,000 mm 1,0 UV-I 167 W/m 12,7 C 3,2 km/h (1 Bft)
31.08.2016 09:01 13,3 C 13,3 C 97 % 1019,4 hPa 0,0 mm 1,7 km/h (1 Bft) W-NW 293 0 min 0,051 mm 1,0 UV-I 149 W/m 12,8 C 3,2 km/h (1 Bft)
31.08.2016 09:02 13,2 C 13,3 C 97 % 1019,4 hPa 0,0 mm 1,7 km/h (1 Bft) W-NW 293 0 min 0,000 mm 1,0 UV-I 144 W/m 12,7 C 3,2 km/h (1 Bft)
31.08.2016 09:03 13,3 C 13,3 C 97 % 1019,4 hPa 0,0 mm 1,6 km/h (1 Bft) W-NW 293 0 min 0,000 mm 1,0 UV-I 149 W/m 12,8 C 3,2 km/h (1 Bft)
31.08.2016 09:04 13,3 C 13,3 C 97 % 1019,4 hPa 0,0 mm 2,0 km/h (1 Bft) W-NW 293 0 min 0,000 mm 1,0 UV-I 156 W/m 12,8 C 3,2 km/h (1 Bft)
31.08.2016 09:05 13,3 C 13,4 C 97 % 1019,4 hPa 0,0 mm 0,7 km/h (0 Bft) W-NW 293 0 min 0,000 mm 1,0 UV-I 155 W/m 12,8 C 3,2 km/h (1 Bft)
31.08.2016 09:06 13,4 C 13,4 C 97 % 1019,4 hPa 0,0 mm 1,7 km/h (1 Bft) W-NW 294 0 min 0,000 mm 1,0 UV-I 151 W/m 12,9 C 3,2 km/h (1 Bft)
31.08.2016 09:07 13,4 C 13,4 C 97 % 1019,4 hPa 0,0 mm 1,1 km/h (1 Bft) W-NW 293 0 min 0,000 mm 1,0 UV-I 163 W/m 12,9 C 3,2 km/h (1 Bft)
31.08.2016 09:08 13,4 C 13,4 C 97 % 1019,5 hPa 0,0 mm 1,9 km/h (1 Bft) W-NW 293 0 min 0,000 mm 1,0 UV-I 153 W/m 12,9 C 3,2 km/h (1 Bft)
31.08.2016 09:09 13,4 C 13,4 C 97 % 1019,5 hPa 0,0 mm 0,3 km/h (0 Bft) W-NW 293 0 min 0,000 mm 1,1 UV-I 162 W/m 12,9 C 1,6 km/h (1 Bft)
31.08.2016 09:10 13,4 C 13,4 C 97 % 1019,5 hPa 0,0 mm 0,1 km/h (0 Bft) W-NW 293 0 min 0,000 mm 1,0 UV-I 162 W/m 12,9 C 1,6 km/h (1 Bft)
31.08.2016 09:11 13,6 C 13,6 C 97 % 1019,5 hPa 0,0 mm 0,9 km/h (0 Bft) W-NW 293 0 min 0,000 mm 1,0 UV-I 155 W/m 13,1 C 1,6 km/h (1 Bft)
31.08.2016 09:12 13,7 C 13,7 C 97 % 1019,5 hPa 0,0 mm 1,6 km/h (1 Bft) W-NW 293 0 min 0,000 mm 1,1 UV-I 162 W/m 13,2 C 3,2 km/h (1 Bft)
31.08.2016 09:13 13,7 C 13,7 C 97 % 1019,5 hPa 0,0 mm 1,8 km/h (1 Bft) W-NW 293 0 min 0,000 mm 1,0 UV-I 167 W/m 13,2 C 3,2 km/h (1 Bft)
31.08.2016 09:14 13,6 C 13,7 C 97 % 1019,5 hPa 0,0 mm 1,1 km/h (1 Bft) W-NW 293 0 min 0,000 mm 1,0 UV-I 153 W/m 13,1 C 1,6 km/h (1 Bft)
31.08.2016 09:15 13,6 C 13,6 C 97 % 1019,5 hPa 0,0 mm 0,1 km/h (0 Bft) W-NW 293 0 min 0,000 mm 1,0 UV-I 158 W/m 13,1 C 1,6 km/h (1 Bft)
31.08.2016 09:16 13,6 C 13,6 C 97 % 1019,6 hPa 0,0 mm 0,0 km/h (0 Bft) W-NW 293 0 min 0,000 mm 1,1 UV-I 167 W/m 13,1 C 0,0 km/h (0 Bft)
31.08.2016 09:17 13,5 C 13,6 C 97 % 1019,6 hPa 0,0 mm 0,3 km/h (0 Bft) W-NW 293 0 min 0,000 mm 1,1 UV-I 176 W/m 13,0 C 1,6 km/h (1 Bft)
31.08.2016 09:18 13,6 C 13,6 C 97 % 1019,6 hPa 0,0 mm 0,3 km/h (0 Bft) W-NW 293 0 min 0,000 mm 1,1 UV-I 176 W/m 13,1 C 1,6 km/h (1 Bft)
31.08.2016 09:19 13,7 C 13,7 C 97 % 1019,6 hPa 0,0 mm 0,0 km/h (0 Bft) W-NW 293 0 min 0,000 mm 1,0 UV-I 153 W/m 13,2 C 0,0 km/h (0 Bft)
31.08.2016 09:20 13,7 C 13,7 C 97 % 1019,6 hPa 0,0 mm 1,1 km/h (1 Bft) W-NW 297 0 min 0,000 mm 1,0 UV-I 146 W/m 13,2 C 4,8 km/h (1 Bft)
31.08.2016 09:21 13,8 C 13,8 C 97 % 1019,6 hPa 0,0 mm 3,6 km/h (1 Bft) W-NW 298 0 min 0,000 mm 1,0 UV-I 141 W/m 13,3 C 4,8 km/h (1 Bft)
31.08.2016 09:22 13,8 C 13,8 C 97 % 1019,6 hPa 0,0 mm 3,2 km/h (1 Bft) W-NW 298 0 min 0,000 mm 1,0 UV-I 141 W/m 13,3 C 3,2 km/h (1 Bft)
31.08.2016 09:23 13,8 C 13,8 C 97 % 1019,6 hPa 0,0 mm 2,6 km/h (1 Bft) W-NW 303 0 min 0,000 mm 1,1 UV-I 144 W/m 13,3 C 4,8 km/h (1 Bft)
31.08.2016 09:24 13,8 C 13,8 C 97 % 1019,6 hPa 0,0 mm 2,7 km/h (1 Bft) W 277 0 min 0,000 mm 1,1 UV-I 156 W/m 13,3 C 4,8 km/h (1 Bft)
31.08.2016 09:25 13,8 C 13,9 C 97 % 1019,6 hPa 0,0 mm 2,7 km/h (1 Bft) W-NW 282 0 min 0,000 mm 1,2 UV-I 162 W/m 13,3 C 3,2 km/h (1 Bft)
31.08.2016 09:26 13,8 C 13,8 C 97 % 1019,6 hPa 0,0 mm 2,9 km/h (1 Bft) W-NW 282 0 min 0,000 mm 1,2 UV-I 165 W/m 13,3 C 4,8 km/h (1 Bft)
31.08.2016 09:27 13,8 C 13,8 C 97 % 1019,6 hPa 0,0 mm 2,8 km/h (1 Bft) W-NW 298 0 min 0,000 mm 1,2 UV-I 171 W/m 13,3 C 3,2 km/h (1 Bft)
31.08.2016 09:28 13,8 C 13,8 C 97 % 1019,6 hPa 0,0 mm 2,6 km/h (1 Bft) NW 304 0 min 0,000 mm 1,3 UV-I 179 W/m 13,3 C 4,8 km/h (1 Bft)
31.08.2016 09:29 13,9 C 13,9 C 97 % 1019,6 hPa 0,0 mm 2,9 km/h (1 Bft) NW 317 0 min 0,000 mm 1,3 UV-I 176 W/m 13,4 C 4,8 km/h (1 Bft)
31.08.2016 09:30 13,9 C 13,9 C 97 % 1019,6 hPa 0,0 mm 0,7 km/h (0 Bft) NW 317 0 min 0,000 mm 1,3 UV-I 163 W/m 13,4 C 1,6 km/h (1 Bft)
31.08.2016 09:31 13,9 C 13,9 C 97 % 1019,6 hPa 0,0 mm 1,7 km/h (1 Bft) NW 317 0 min 0,000 mm 1,2 UV-I 163 W/m 13,4 C 3,2 km/h (1 Bft)
31.08.2016 09:32 14,0 C 14,0 C 97 % 1019,6 hPa 0,0 mm 0,9 km/h (0 Bft) NW 317 0 min 0,000 mm 1,2 UV-I 163 W/m 13,5 C 1,6 km/h (1 Bft)
31.08.2016 09:33 14,0 C 14,0 C 97 % 1019,6 hPa 0,0 mm 0,3 km/h (0 Bft) NW 317 0 min 0,000 mm 1,1 UV-I 162 W/m 13,5 C 1,6 km/h (1 Bft)
31.08.2016 09:34 14,2 C 14,2 C 97 % 1019,6 hPa 0,0 mm 0,0 km/h (0 Bft) NW 319 0 min 0,000 mm 1,1 UV-I 158 W/m 13,7 C 0,0 km/h (0 Bft)
31.08.2016 09:35 14,1 C 14,2 C 97 % 1019,6 hPa 0,0 mm 0,0 km/h (0 Bft) N-NW 333 0 min 0,000 mm 1,1 UV-I 162 W/m 13,6 C 0,0 km/h (0 Bft)
31.08.2016 09:36 14,1 C 14,1 C 97 % 1019,5 hPa 0,0 mm 0,0 km/h (0 Bft) N-NW 340 0 min 0,000 mm 1,1 UV-I 156 W/m 13,6 C 0,0 km/h (0 Bft)
31.08.2016 09:37 14,1 C 14,2 C 97 % 1019,6 hPa 0,0 mm 0,0 km/h (0 Bft) N-NW 340 0 min 0,000 mm 1,2 UV-I 169 W/m 13,6 C 0,0 km/h (0 Bft)
31.08.2016 09:38 14,2 C 14,2 C 97 % 1019,6 hPa 0,0 mm 0,0 km/h (0 Bft) N-NW 340 0 min 0,000 mm 1,3 UV-I 188 W/m 13,7 C 0,0 km/h (0 Bft)
31.08.2016 09:39 14,2 C 14,2 C 97 % 1019,6 hPa 0,0 mm 0,0 km/h (0 Bft) N-NW 341 0 min 0,000 mm 1,3 UV-I 199 W/m 13,7 C 0,0 km/h (0 Bft)
31.08.2016 09:40 14,1 C 14,2 C 97 % 1019,5 hPa 0,0 mm 0,0 km/h (0 Bft) N-NW 341 0 min 0,000 mm 1,3 UV-I 202 W/m 13,6 C 0,0 km/h (0 Bft)
31.08.2016 09:41 14,0 C 14,1 C 97 % 1019,5 hPa 0,0 mm 0,0 km/h (0 Bft) N 351 0 min 0,000 mm 1,3 UV-I 200 W/m 13,5 C 0,0 km/h (0 Bft)
31.08.2016 09:42 14,0 C 14,1 C 97 % 1019,5 hPa 0,0 mm 0,0 km/h (0 Bft) N 351 0 min 0,000 mm 1,4 UV-I 211 W/m 13,5 C 0,0 km/h (0 Bft)
31.08.2016 09:43 13,9 C 14,0 C 97 % 1019,5 hPa 0,0 mm 0,0 km/h (0 Bft) N 351 0 min 0,000 mm 1,4 UV-I 207 W/m 13,4 C 0,0 km/h (0 Bft)
31.08.2016 09:44 14,1 C 14,1 C 97 % 1019,5 hPa 0,0 mm 0,0 km/h (0 Bft) N 351 0 min 0,000 mm 1,4 UV-I 202 W/m 13,6 C 0,0 km/h (0 Bft)
31.08.2016 09:45 14,1 C 14,2 C 97 % 1019,5 hPa 0,0 mm 0,0 km/h (0 Bft) N 351 0 min 0,000 mm 1,5 UV-I 204 W/m 13,6 C 0,0 km/h (0 Bft)
31.08.2016 09:46 14,3 C 14,3 C 97 % 1019,5 hPa 0,0 mm 0,0 km/h (0 Bft) N 351 0 min 0,000 mm 1,6 UV-I 225 W/m 13,8 C 0,0 km/h (0 Bft)
31.08.2016 09:47 14,3 C 14,3 C 97 % 1019,5 hPa 0,0 mm 0,0 km/h (0 Bft) N 351 0 min 0,000 mm 1,6 UV-I 237 W/m 13,8 C 0,0 km/h (0 Bft)
31.08.2016 09:48 14,2 C 14,3 C 97 % 1019,5 hPa 0,0 mm 0,0 km/h (0 Bft) N 351 0 min 0,000 mm 1,5 UV-I 209 W/m 13,7 C 0,0 km/h (0 Bft)
31.08.2016 09:49 14,3 C 14,3 C 97 % 1019,5 hPa 0,0 mm 0,0 km/h (0 Bft) N 351 0 min 0,000 mm 1,6 UV-I 216 W/m 13,8 C 0,0 km/h (0 Bft)
31.08.2016 09:50 14,3 C 14,3 C 97 % 1019,5 hPa 0,0 mm 0,0 km/h (0 Bft) N 351 0 min 0,000 mm 1,7 UV-I 241 W/m 13,8 C 0,0 km/h (0 Bft)
31.08.2016 09:51 14,3 C 14,3 C 97 % 1019,5 hPa 0,0 mm 0,0 km/h (0 Bft) N 351 0 min 0,000 mm 1,7 UV-I 253 W/m 13,8 C 0,0 km/h (0 Bft)
31.08.2016 09:52 14,3 C 14,3 C 97 % 1019,5 hPa 0,0 mm 0,0 km/h (0 Bft) N 351 0 min 0,000 mm 1,7 UV-I 246 W/m 13,8 C 0,0 km/h (0 Bft)
31.08.2016 09:53 14,3 C 14,3 C 97 % 1019,5 hPa 0,0 mm 0,0 km/h (0 Bft) N 351 0 min 0,000 mm 1,7 UV-I 248 W/m 13,8 C 0,0 km/h (0 Bft)
31.08.2016 09:54 14,4 C 14,4 C 97 % 1019,5 hPa 0,0 mm 0,0 km/h (0 Bft) N 351 0 min 0,000 mm 1,8 UV-I 271 W/m 13,9 C 0,0 km/h (0 Bft)
31.08.2016 09:55 14,6 C 14,6 C 97 % 1019,5 hPa 0,0 mm 0,0 km/h (0 Bft) N 351 0 min 0,000 mm 1,9 UV-I 274 W/m 14,1 C 0,0 km/h (0 Bft)
31.08.2016 09:56 14,6 C 14,6 C 97 % 1019,5 hPa 0,0 mm 0,0 km/h (0 Bft) N 351 0 min 0,000 mm 2,0 UV-I 287 W/m 14,1 C 0,0 km/h (0 Bft)
31.08.2016 09:57 14,6 C 14,6 C 97 % 1019,5 hPa 0,0 mm 0,0 km/h (0 Bft) N 351 1 min 0,000 mm 2,1 UV-I 320 W/m 14,1 C 0,0 km/h (0 Bft)
31.08.2016 09:58 14,7 C 14,7 C 97 % 1019,5 hPa 0,0 mm 0,0 km/h (0 Bft) N 351 1 min 0,000 mm 2,3 UV-I 348 W/m 14,2 C 0,0 km/h (0 Bft)
31.08.2016 09:59 14,7 C 14,7 C 97 % 1019,5 hPa 0,0 mm 0,0 km/h (0 Bft) N 351 1 min 0,000 mm 2,3 UV-I 397 W/m 14,2 C 0,0 km/h (0 Bft)
31.08.2016 10:00 14,7 C 14,7 C 97 % 1019,5 hPa 0,0 mm 0,0 km/h (0 Bft) N 351 1 min 0,102 mm 2,5 UV-I 376 W/m 14,2 C 0,0 km/h (0 Bft)
31.08.2016 10:01 14,9 C 14,9 C 97 % 1019,5 hPa 0,0 mm 0,0 km/h (0 Bft) W 281 1 min 0,000 mm 2,2 UV-I 309 W/m 14,4 C 0,0 km/h (0 Bft)
31.08.2016 10:02 15,1 C 15,1 C 97 % 1019,5 hPa 0,0 mm 0,0 km/h (0 Bft) W 281 1 min 0,000 mm 2,3 UV-I 306 W/m 14,6 C 0,0 km/h (0 Bft)
31.08.2016 10:03 15,2 C 15,2 C 97 % 1019,5 hPa 0,0 mm 0,0 km/h (0 Bft) W 281 1 min 0,000 mm 2,5 UV-I 348 W/m 14,7 C 0,0 km/h (0 Bft)
31.08.2016 10:04 15,2 C 15,2 C 97 % 1019,5 hPa 0,0 mm 0,0 km/h (0 Bft) W 281 1 min 0,000 mm 2,6 UV-I 399 W/m 14,7 C 0,0 km/h (0 Bft)
31.08.2016 10:05 15,3 C 15,3 C 97 % 1019,5 hPa 0,0 mm 0,0 km/h (0 Bft) W 281 1 min 0,000 mm 2,9 UV-I 422 W/m 14,8 C 0,0 km/h (0 Bft)
31.08.2016 10:06 15,5 C 15,5 C 97 % 1019,5 hPa 0,0 mm 0,0 km/h (0 Bft) W 281 1 min 0,000 mm 2,8 UV-I 408 W/m 15,0 C 0,0 km/h (0 Bft)
31.08.2016 10:07 15,4 C 15,5 C 97 % 1019,5 hPa 0,0 mm 0,0 km/h (0 Bft) W 281 1 min 0,000 mm 3,1 UV-I 475 W/m 14,9 C 0,0 km/h (0 Bft)
31.08.2016 10:08 15,4 C 15,5 C 97 % 1019,5 hPa 0,0 mm 0,0 km/h (0 Bft) N-NO 24 1 min 0,000 mm 3,1 UV-I 452 W/m 14,9 C 0,0 km/h (0 Bft)
31.08.2016 10:09 15,4 C 15,5 C 96 % 1019,5 hPa 0,0 mm 0,0 km/h (0 Bft) N-NO 24 1 min 0,000 mm 3,2 UV-I 496 W/m 14,8 C 0,0 km/h (0 Bft)
31.08.2016 10:10 15,3 C 15,4 C 95 % 1019,4 hPa 0,0 mm 0,0 km/h (0 Bft) NO 36 1 min 0,000 mm 3,3 UV-I 522 W/m 14,5 C 0,0 km/h (0 Bft)
31.08.2016 10:11 15,3 C 15,3 C 95 % 1019,4 hPa 0,0 mm 0,0 km/h (0 Bft) NO 55 1 min 0,000 mm 3,3 UV-I 517 W/m 14,5 C 0,0 km/h (0 Bft)
31.08.2016 10:12 15,4 C 15,4 C 95 % 1019,5 hPa 0,0 mm 0,0 km/h (0 Bft) NO 55 1 min 0,000 mm 3,4 UV-I 526 W/m 14,6 C 0,0 km/h (0 Bft)
31.08.2016 10:13 15,4 C 15,4 C 95 % 1019,5 hPa 0,0 mm 0,0 km/h (0 Bft) NO 55 1 min 0,000 mm 3,4 UV-I 531 W/m 14,6 C 0,0 km/h (0 Bft)
31.08.2016 10:14 15,4 C 15,4 C 94 % 1019,5 hPa 0,0 mm 0,0 km/h (0 Bft) NO 55 1 min 0,000 mm 3,4 UV-I 527 W/m 14,4 C 0,0 km/h (0 Bft)
31.08.2016 10:15 15,5 C 15,5 C 94 % 1019,4 hPa 0,0 mm 0,0 km/h (0 Bft) NO 55 1 min 0,000 mm 3,4 UV-I 527 W/m 14,5 C 0,0 km/h (0 Bft)
31.08.2016 10:16 15,5 C 15,6 C 94 % 1019,5 hPa 0,0 mm 0,0 km/h (0 Bft) NO 55 1 min 0,000 mm 3,4 UV-I 536 W/m 14,5 C 0,0 km/h (0 Bft)
31.08.2016 10:17 15,7 C 15,7 C 94 % 1019,5 hPa 0,0 mm 0,0 km/h (0 Bft) NO 55 1 min 0,000 mm 3,5 UV-I 540 W/m 14,7 C 0,0 km/h (0 Bft)
31.08.2016 10:18 15,9 C 15,9 C 95 % 1019,4 hPa 0,0 mm 0,5 km/h (0 Bft) NO 56 1 min 0,000 mm 3,5 UV-I 540 W/m 15,1 C 1,6 km/h (1 Bft)
31.08.2016 10:19 15,9 C 15,9 C 94 % 1019,4 hPa 0,0 mm 2,6 km/h (1 Bft) O-NO 57 1 min 0,000 mm 3,5 UV-I 545 W/m 14,9 C 3,2 km/h (1 Bft)
31.08.2016 10:20 15,9 C 15,9 C 93 % 1019,5 hPa 0,0 mm 2,1 km/h (1 Bft) O-NO 57 1 min 0,000 mm 3,6 UV-I 548 W/m 14,8 C 3,2 km/h (1 Bft)
31.08.2016 10:21 16,0 C 16,0 C 94 % 1019,5 hPa 0,0 mm 1,6 km/h (1 Bft) O-NO 57 1 min 0,000 mm 3,6 UV-I 548 W/m 15,0 C 4,8 km/h (1 Bft)
31.08.2016 10:22 16,0 C 16,0 C 93 % 1019,4 hPa 0,0 mm 2,3 km/h (1 Bft) O-NO 67 1 min 0,000 mm 3,6 UV-I 552 W/m 14,9 C 3,2 km/h (1 Bft)
31.08.2016 10:23 16,2 C 16,2 C 93 % 1019,5 hPa 0,0 mm 2,7 km/h (1 Bft) O-NO 67 1 min 0,000 mm 3,6 UV-I 555 W/m 15,1 C 4,8 km/h (1 Bft)
31.08.2016 10:24 16,2 C 16,2 C 93 % 1019,5 hPa 0,0 mm 1,4 km/h (1 Bft) O-NO 67 1 min 0,000 mm 3,6 UV-I 559 W/m 15,1 C 3,2 km/h (1 Bft)
31.08.2016 10:25 16,3 C 16,3 C 92 % 1019,5 hPa 0,0 mm 0,8 km/h (0 Bft) O-NO 59 1 min 0,000 mm 3,7 UV-I 561 W/m 15,0 C 3,2 km/h (1 Bft)
31.08.2016 10:26 16,3 C 16,3 C 93 % 1019,5 hPa 0,0 mm 2,1 km/h (1 Bft) O-NO 59 1 min 0,000 mm 3,7 UV-I 564 W/m 15,2 C 4,8 km/h (1 Bft)
31.08.2016 10:27 16,3 C 16,4 C 92 % 1019,5 hPa 0,0 mm 2,2 km/h (1 Bft) O-NO 59 1 min 0,000 mm 3,7 UV-I 563 W/m 15,0 C 4,8 km/h (1 Bft)
31.08.2016 10:28 16,3 C 16,3 C 91 % 1019,5 hPa 0,0 mm 2,4 km/h (1 Bft) O-NO 59 1 min 0,000 mm 3,7 UV-I 568 W/m 14,8 C 4,8 km/h (1 Bft)
31.08.2016 10:29 16,3 C 16,3 C 92 % 1019,5 hPa 0,0 mm 2,1 km/h (1 Bft) O-NO 59 1 min 0,000 mm 3,8 UV-I 571 W/m 15,0 C 3,2 km/h (1 Bft)
31.08.2016 10:30 16,4 C 16,4 C 92 % 1019,5 hPa 0,0 mm 3,0 km/h (1 Bft) N 355 1 min 0,000 mm 3,8 UV-I 573 W/m 15,1 C 4,8 km/h (1 Bft)
31.08.2016 10:31 16,7 C 16,7 C 93 % 1019,5 hPa 0,0 mm 2,6 km/h (1 Bft) N 355 1 min 0,000 mm 3,8 UV-I 577 W/m 15,6 C 4,8 km/h (1 Bft)
31.08.2016 10:32 16,9 C 16,9 C 92 % 1019,5 hPa 0,0 mm 3,4 km/h (1 Bft) N 360 1 min 0,000 mm 3,8 UV-I 577 W/m 15,6 C 4,8 km/h (1 Bft)
31.08.2016 10:33 17,2 C 17,2 C 91 % 1019,5 hPa 0,0 mm 3,6 km/h (1 Bft) N-NO 14 1 min 0,000 mm 3,8 UV-I 578 W/m 15,7 C 4,8 km/h (1 Bft)
31.08.2016 10:34 17,2 C 17,2 C 89 % 1019,5 hPa 0,0 mm 2,3 km/h (1 Bft) N-NO 14 1 min 0,000 mm 3,9 UV-I 582 W/m 15,4 C 3,2 km/h (1 Bft)
31.08.2016 10:35 17,1 C 17,2 C 89 % 1019,5 hPa 0,0 mm 1,0 km/h (0 Bft) N-NO 14 1 min 0,000 mm 3,9 UV-I 584 W/m 15,3 C 3,2 km/h (1 Bft)
31.08.2016 10:36 17,3 C 17,3 C 92 % 1019,5 hPa 0,0 mm 0,3 km/h (0 Bft) N-NO 14 1 min 0,000 mm 3,9 UV-I 584 W/m 16,0 C 1,6 km/h (1 Bft)
31.08.2016 10:37 17,3 C 17,3 C 90 % 1019,5 hPa 0,0 mm 0,9 km/h (0 Bft) N-NO 14 1 min 0,000 mm 3,9 UV-I 587 W/m 15,6 C 1,6 km/h (1 Bft)
31.08.2016 10:38 17,4 C 17,4 C 89 % 1019,5 hPa 0,0 mm 2,3 km/h (1 Bft) N-NO 14 1 min 0,000 mm 3,9 UV-I 587 W/m 15,6 C 3,2 km/h (1 Bft)
31.08.2016 10:39 17,3 C 17,4 C 90 % 1019,5 hPa 0,0 mm 2,1 km/h (1 Bft) NO 53 1 min 0,000 mm 4,0 UV-I 591 W/m 15,6 C 3,2 km/h (1 Bft)
31.08.2016 10:40 17,4 C 17,4 C 91 % 1019,5 hPa 0,0 mm 1,3 km/h (1 Bft) NO 53 1 min 0,000 mm 4,0 UV-I 594 W/m 15,9 C 3,2 km/h (1 Bft)
31.08.2016 10:41 17,5 C 17,5 C 92 % 1019,5 hPa 0,0 mm 1,8 km/h (1 Bft) NO 53 1 min 0,000 mm 4,0 UV-I 596 W/m 16,2 C 3,2 km/h (1 Bft)
31.08.2016 10:42 17,5 C 17,6 C 90 % 1019,5 hPa 0,0 mm 1,9 km/h (1 Bft) O-NO 57 1 min 0,000 mm 4,0 UV-I 599 W/m 15,8 C 4,8 km/h (1 Bft)
31.08.2016 10:43 17,6 C 17,6 C 90 % 1019,5 hPa 0,0 mm 2,3 km/h (1 Bft) O-NO 57 1 min 0,000 mm 4,0 UV-I 601 W/m 15,9 C 3,2 km/h (1 Bft)
31.08.2016 10:44 17,4 C 17,6 C 89 % 1019,6 hPa 0,0 mm 3,3 km/h (1 Bft) O-NO 76 1 min 0,000 mm 4,0 UV-I 603 W/m 15,6 C 4,8 km/h (1 Bft)
31.08.2016 10:45 17,3 C 17,4 C 90 % 1019,5 hPa 0,0 mm 3,4 km/h (1 Bft) O-NO 76 1 min 0,000 mm 4,1 UV-I 605 W/m 15,6 C 4,8 km/h (1 Bft)
31.08.2016 10:46 17,3 C 17,3 C 91 % 1019,6 hPa 0,0 mm 3,4 km/h (1 Bft) O-NO 76 1 min 0,000 mm 4,1 UV-I 606 W/m 15,8 C 4,8 km/h (1 Bft)
31.08.2016 10:47 17,3 C 17,3 C 92 % 1019,6 hPa 0,0 mm 1,7 km/h (1 Bft) O-NO 76 1 min 0,000 mm 4,1 UV-I 610 W/m 16,0 C 3,2 km/h (1 Bft)
31.08.2016 10:48 17,3 C 17,4 C 90 % 1019,5 hPa 0,0 mm 2,5 km/h (1 Bft) O-NO 76 1 min 0,000 mm 4,1 UV-I 610 W/m 15,6 C 3,2 km/h (1 Bft)
31.08.2016 10:49 17,4 C 17,4 C 90 % 1019,5 hPa 0,0 mm 2,9 km/h (1 Bft) O-NO 76 1 min 0,000 mm 4,2 UV-I 613 W/m 15,7 C 3,2 km/h (1 Bft)
31.08.2016 10:50 17,5 C 17,5 C 90 % 1019,5 hPa 0,0 mm 3,3 km/h (1 Bft) O-NO 76 1 min 0,000 mm 4,2 UV-I 613 W/m 15,8 C 4,8 km/h (1 Bft)
31.08.2016 10:51 17,7 C 17,7 C 91 % 1019,5 hPa 0,0 mm 2,7 km/h (1 Bft) O-NO 76 1 min 0,000 mm 4,2 UV-I 615 W/m 16,2 C 3,2 km/h (1 Bft)
31.08.2016 10:52 17,8 C 17,8 C 90 % 1019,6 hPa 0,0 mm 3,3 km/h (1 Bft) O-NO 76 1 min 0,000 mm 4,2 UV-I 619 W/m 16,1 C 4,8 km/h (1 Bft)
31.08.2016 10:53 18,0 C 18,0 C 91 % 1019,6 hPa 0,0 mm 2,7 km/h (1 Bft) O-NO 67 1 min 0,000 mm 4,3 UV-I 621 W/m 16,5 C 6,4 km/h (2 Bft)
31.08.2016 10:54 18,2 C 18,2 C 90 % 1019,5 hPa 0,0 mm 1,8 km/h (1 Bft) O-NO 67 1 min 0,000 mm 4,3 UV-I 621 W/m 16,5 C 3,2 km/h (1 Bft)
31.08.2016 10:55 18,2 C 18,2 C 89 % 1019,5 hPa 0,0 mm 1,7 km/h (1 Bft) O-NO 67 1 min 0,000 mm 4,3 UV-I 621 W/m 16,4 C 3,2 km/h (1 Bft)
31.08.2016 10:56 18,2 C 18,2 C 87 % 1019,5 hPa 0,0 mm 3,1 km/h (1 Bft) O-NO 67 1 min 0,000 mm 4,3 UV-I 626 W/m 16,0 C 3,2 km/h (1 Bft)
31.08.2016 10:57 18,3 C 18,3 C 87 % 1019,6 hPa 0,0 mm 2,6 km/h (1 Bft) O-NO 67 1 min 0,000 mm 4,3 UV-I 626 W/m 16,1 C 3,2 km/h (1 Bft)
31.08.2016 10:58 18,3 C 18,3 C 88 % 1019,6 hPa 0,0 mm 3,0 km/h (1 Bft) O-NO 59 1 min 0,000 mm 4,4 UV-I 629 W/m 16,3 C 4,8 km/h (1 Bft)
31.08.2016 10:59 18,4 C 18,4 C 89 % 1019,5 hPa 0,0 mm 2,5 km/h (1 Bft) O-NO 59 1 min 0,000 mm 4,4 UV-I 633 W/m 16,6 C 3,2 km/h (1 Bft)
31.08.2016 11:00 18,4 C 18,4 C 88 % 1019,6 hPa 0,0 mm 1,6 km/h (1 Bft) O-NO 74 1 min 0,000 mm 4,4 UV-I 633 W/m 16,4 C 3,2 km/h (1 Bft)
31.08.2016 11:01 18,4 C 18,4 C 88 % 1019,6 hPa 0,0 mm 2,3 km/h (1 Bft) O-NO 74 1 min 0,305 mm 4,4 UV-I 635 W/m 16,4 C 3,2 km/h (1 Bft)
31.08.2016 11:02 18,6 C 18,6 C 89 % 1019,6 hPa 0,0 mm 3,4 km/h (1 Bft) O 81 1 min 0,000 mm 4,4 UV-I 636 W/m 16,7 C 4,8 km/h (1 Bft)
31.08.2016 11:03 18,6 C 18,6 C 88 % 1019,5 hPa 0,0 mm 3,6 km/h (1 Bft) O 81 1 min 0,000 mm 4,4 UV-I 638 W/m 16,6 C 4,8 km/h (1 Bft)
31.08.2016 11:04 18,6 C 18,6 C 87 % 1019,5 hPa 0,0 mm 1,4 km/h (1 Bft) O 81 1 min 0,000 mm 4,5 UV-I 640 W/m 16,4 C 4,8 km/h (1 Bft)
31.08.2016 11:05 18,7 C 18,7 C 88 % 1019,5 hPa 0,0 mm 0,3 km/h (0 Bft) O 81 1 min 0,000 mm 4,5 UV-I 643 W/m 16,7 C 1,6 km/h (1 Bft)
31.08.2016 11:06 18,7 C 18,7 C 88 % 1019,5 hPa 0,0 mm 1,9 km/h (1 Bft) O-NO 64 1 min 0,000 mm 4,5 UV-I 643 W/m 16,7 C 4,8 km/h (1 Bft)
31.08.2016 11:07 18,9 C 18,9 C 86 % 1019,5 hPa 0,0 mm 3,9 km/h (1 Bft) NO 54 1 min 0,000 mm 4,5 UV-I 645 W/m 16,5 C 6,4 km/h (2 Bft)
31.08.2016 11:08 19,1 C 19,1 C 86 % 1019,5 hPa 0,0 mm 2,0 km/h (1 Bft) NO 54 1 min 0,000 mm 4,5 UV-I 645 W/m 16,7 C 3,2 km/h (1 Bft)
31.08.2016 11:09 19,2 C 19,2 C 84 % 1019,5 hPa 0,0 mm 0,5 km/h (0 Bft) NO 54 1 min 0,000 mm 4,5 UV-I 647 W/m 16,4 C 1,6 km/h (1 Bft)
31.08.2016 11:10 19,3 C 19,3 C 84 % 1019,5 hPa 0,0 mm 1,9 km/h (1 Bft) NO 47 1 min 0,000 mm 4,6 UV-I 650 W/m 16,5 C 3,2 km/h (1 Bft)
31.08.2016 11:11 19,4 C 19,4 C 85 % 1019,5 hPa 0,0 mm 2,3 km/h (1 Bft) NW 319 1 min 0,000 mm 4,6 UV-I 650 W/m 16,8 C 4,8 km/h (1 Bft)
31.08.2016 11:12 19,5 C 19,5 C 84 % 1019,5 hPa 0,0 mm 1,3 km/h (1 Bft) NW 319 1 min 0,000 mm 4,6 UV-I 652 W/m 16,7 C 1,6 km/h (1 Bft)
31.08.2016 11:13 19,5 C 19,6 C 83 % 1019,5 hPa 0,0 mm 2,2 km/h (1 Bft) SW 227 1 min 0,000 mm 4,6 UV-I 652 W/m 16,5 C 3,2 km/h (1 Bft)
31.08.2016 11:14 19,6 C 19,6 C 85 % 1019,5 hPa 0,0 mm 1,4 km/h (1 Bft) SW 227 1 min 0,000 mm 4,6 UV-I 652 W/m 17,0 C 1,6 km/h (1 Bft)
31.08.2016 11:15 19,6 C 19,6 C 86 % 1019,5 hPa 0,0 mm 1,1 km/h (1 Bft) NW 308 1 min 0,000 mm 4,7 UV-I 654 W/m 17,2 C 3,2 km/h (1 Bft)
31.08.2016 11:16 19,5 C 19,6 C 87 % 1019,5 hPa 0,0 mm 3,8 km/h (1 Bft) N-NO 22 1 min 0,000 mm 4,7 UV-I 659 W/m 17,3 C 4,8 km/h (1 Bft)
31.08.2016 11:17 19,4 C 19,6 C 87 % 1019,5 hPa 0,0 mm 2,0 km/h (1 Bft) N-NW 338 1 min 0,000 mm 4,7 UV-I 661 W/m 17,2 C 6,4 km/h (2 Bft)
31.08.2016 11:18 19,6 C 19,6 C 89 % 1019,5 hPa 0,0 mm 4,4 km/h (1 Bft) W-NW 303 1 min 0,000 mm 4,7 UV-I 663 W/m 17,7 C 6,4 km/h (2 Bft)
31.08.2016 11:19 19,8 C 19,8 C 84 % 1019,5 hPa 0,0 mm 3,2 km/h (1 Bft) NO 51 1 min 0,000 mm 4,8 UV-I 663 W/m 17,0 C 4,8 km/h (1 Bft)
31.08.2016 11:20 20,0 C 20,0 C 83 % 1019,5 hPa 0,0 mm 2,5 km/h (1 Bft) W-SW 250 1 min 0,000 mm 4,8 UV-I 663 W/m 17,0 C 4,8 km/h (1 Bft)
31.08.2016 11:21 20,1 C 20,1 C 83 % 1019,5 hPa 0,0 mm 2,7 km/h (1 Bft) W-NW 295 1 min 0,000 mm 4,8 UV-I 668 W/m 17,1 C 4,8 km/h (1 Bft)
31.08.2016 11:22 20,2 C 20,2 C 83 % 1019,5 hPa 0,0 mm 1,7 km/h (1 Bft) W-NW 294 1 min 0,000 mm 4,8 UV-I 670 W/m 17,2 C 3,2 km/h (1 Bft)
31.08.2016 11:23 20,2 C 20,2 C 83 % 1019,5 hPa 0,0 mm 1,1 km/h (1 Bft) W-NW 286 1 min 0,000 mm 4,8 UV-I 670 W/m 17,2 C 3,2 km/h (1 Bft)
31.08.2016 11:24 20,4 C 20,4 C 87 % 1019,5 hPa 0,0 mm 0,7 km/h (0 Bft) W-NW 286 1 min 0,000 mm 4,9 UV-I 670 W/m 18,2 C 1,6 km/h (1 Bft)
31.08.2016 11:25 20,6 C 20,6 C 83 % 1019,5 hPa 0,0 mm 1,2 km/h (1 Bft) N-NW 337 1 min 0,000 mm 4,9 UV-I 671 W/m 17,6 C 4,8 km/h (1 Bft)
31.08.2016 11:26 20,4 C 20,6 C 82 % 1019,5 hPa 0,0 mm 5,4 km/h (1 Bft) N-NO 25 1 min 0,000 mm 4,9 UV-I 673 W/m 17,2 C 6,4 km/h (2 Bft)
31.08.2016 11:27 20,5 C 20,6 C 81 % 1019,5 hPa 0,0 mm 3,4 km/h (1 Bft) N-NO 24 1 min 0,000 mm 4,9 UV-I 679 W/m 17,1 C 4,8 km/h (1 Bft)
31.08.2016 11:28 20,5 C 20,5 C 81 % 1019,4 hPa 0,0 mm 4,9 km/h (1 Bft) N 5 1 min 0,000 mm 4,9 UV-I 679 W/m 17,1 C 6,4 km/h (2 Bft)
31.08.2016 11:29 20,6 C 20,6 C 81 % 1019,5 hPa 0,0 mm 4,1 km/h (1 Bft) N 11 1 min 0,000 mm 5,0 UV-I 680 W/m 17,2 C 6,4 km/h (2 Bft)
31.08.2016 11:30 20,7 C 20,7 C 80 % 1019,5 hPa 0,0 mm 3,0 km/h (1 Bft) W-NW 286 1 min 0,000 mm 4,9 UV-I 679 W/m 17,1 C 3,2 km/h (1 Bft)
31.08.2016 11:31 20,7 C 20,7 C 82 % 1019,5 hPa 0,0 mm 0,6 km/h (0 Bft) W-NW 286 1 min 0,000 mm 4,9 UV-I 680 W/m 17,5 C 1,6 km/h (1 Bft)
31.08.2016 11:32 20,7 C 20,7 C 81 % 1019,5 hPa 0,0 mm 4,7 km/h (1 Bft) W-NW 299 1 min 0,000 mm 5,0 UV-I 682 W/m 17,3 C 6,4 km/h (2 Bft)
31.08.2016 11:33 20,7 C 20,7 C 81 % 1019,5 hPa 0,0 mm 4,1 km/h (1 Bft) W-NW 299 1 min 0,000 mm 5,0 UV-I 682 W/m 17,3 C 6,4 km/h (2 Bft)
31.08.2016 11:34 20,6 C 20,7 C 81 % 1019,5 hPa 0,0 mm 5,9 km/h (2 Bft) W-NW 296 1 min 0,000 mm 5,0 UV-I 682 W/m 17,2 C 8,0 km/h (2 Bft)
31.08.2016 11:35 20,6 C 20,6 C 82 % 1019,5 hPa 0,0 mm 4,1 km/h (1 Bft) N-NO 19 1 min 0,000 mm 5,0 UV-I 687 W/m 17,4 C 6,4 km/h (2 Bft)
31.08.2016 11:36 20,6 C 20,6 C 79 % 1019,5 hPa 0,0 mm 3,0 km/h (1 Bft) NO 46 1 min 0,000 mm 5,0 UV-I 689 W/m 16,8 C 4,8 km/h (1 Bft)
31.08.2016 11:37 20,7 C 20,7 C 83 % 1019,6 hPa 0,0 mm 3,5 km/h (1 Bft) N-NW 330 1 min 0,000 mm 5,1 UV-I 689 W/m 17,7 C 8,0 km/h (2 Bft)
31.08.2016 11:38 20,8 C 20,8 C 84 % 1019,5 hPa 0,0 mm 3,8 km/h (1 Bft) NW 309 1 min 0,000 mm 5,1 UV-I 693 W/m 18,0 C 6,4 km/h (2 Bft)
31.08.2016 11:39 21,0 C 21,0 C 82 % 1019,5 hPa 0,0 mm 4,0 km/h (1 Bft) NW 304 1 min 0,000 mm 5,1 UV-I 693 W/m 17,8 C 4,8 km/h (1 Bft)
31.08.2016 11:40 21,1 C 21,1 C 78 % 1019,5 hPa 0,0 mm 1,5 km/h (1 Bft) NW 304 1 min 0,000 mm 5,1 UV-I 696 W/m 17,1 C 3,2 km/h (1 Bft)
31.08.2016 11:41 21,0 C 21,1 C 78 % 1019,5 hPa 0,0 mm 0,6 km/h (0 Bft) NW 309 1 min 0,000 mm 5,2 UV-I 700 W/m 17,0 C 1,6 km/h (1 Bft)
31.08.2016 11:42 21,0 C 21,0 C 80 % 1019,5 hPa 0,0 mm 6,7 km/h (2 Bft) W-NW 303 1 min 0,000 mm 5,2 UV-I 701 W/m 17,4 C 9,7 km/h (2 Bft)
31.08.2016 11:44 21,1 C 21,1 C 80 % 1019,5 hPa 0,0 mm 3,3 km/h (1 Bft) NO 51 2 min 0,000 mm 5,2 UV-I 703 W/m 17,5 C 6,4 km/h (2 Bft)
31.08.2016 11:45 21,2 C 21,2 C 83 % 1019,5 hPa 0,0 mm 1,6 km/h (1 Bft) W 265 1 min 0,000 mm 5,2 UV-I 701 W/m 18,2 C 3,2 km/h (1 Bft)
31.08.2016 11:46 21,2 C 21,2 C 78 % 1019,5 hPa 0,0 mm 4,4 km/h (1 Bft) N 360 1 min 0,000 mm 5,2 UV-I 701 W/m 17,2 C 6,4 km/h (2 Bft)
31.08.2016 11:47 21,2 C 21,2 C 78 % 1019,5 hPa 0,0 mm 4,6 km/h (1 Bft) N-NO 16 1 min 0,000 mm 5,2 UV-I 703 W/m 17,2 C 6,4 km/h (2 Bft)
31.08.2016 11:48 21,2 C 21,2 C 76 % 1019,5 hPa 0,0 mm 1,7 km/h (1 Bft) O-NO 61 1 min 0,000 mm 5,2 UV-I 703 W/m 16,8 C 3,2 km/h (1 Bft)
31.08.2016 11:49 21,0 C 21,2 C 79 % 1019,5 hPa 0,0 mm 1,9 km/h (1 Bft) O-NO 64 1 min 0,000 mm 5,3 UV-I 707 W/m 17,2 C 3,2 km/h (1 Bft)
31.08.2016 11:50 20,9 C 21,0 C 78 % 1019,5 hPa 0,0 mm 1,3 km/h (1 Bft) O-NO 59 1 min 0,000 mm 5,3 UV-I 708 W/m 16,9 C 3,2 km/h (1 Bft)
31.08.2016 11:51 20,9 C 20,9 C 80 % 1019,4 hPa 0,0 mm 1,1 km/h (1 Bft) NO 49 1 min 0,000 mm 5,3 UV-I 710 W/m 17,3 C 3,2 km/h (1 Bft)
31.08.2016 11:52 20,8 C 20,9 C 82 % 1019,4 hPa 0,0 mm 7,8 km/h (2 Bft) N 360 1 min 0,000 mm 5,3 UV-I 710 W/m 17,6 C 12,9 km/h (3 Bft)
31.08.2016 11:53 20,9 C 20,9 C 79 % 1019,5 hPa 0,0 mm 6,8 km/h (2 Bft) N-NO 12 1 min 0,000 mm 5,3 UV-I 710 W/m 17,1 C 9,7 km/h (2 Bft)
31.08.2016 11:54 21,1 C 21,1 C 76 % 1019,5 hPa 0,0 mm 6,6 km/h (2 Bft) N 350 1 min 0,000 mm 5,3 UV-I 712 W/m 16,7 C 8,0 km/h (2 Bft)
31.08.2016 11:55 21,2 C 21,2 C 77 % 1019,4 hPa 0,0 mm 2,9 km/h (1 Bft) N-NW 341 1 min 0,000 mm 5,3 UV-I 714 W/m 17,0 C 4,8 km/h (1 Bft)
31.08.2016 11:56 21,3 C 21,3 C 78 % 1019,5 hPa 0,0 mm 3,8 km/h (1 Bft) N 355 1 min 0,000 mm 5,3 UV-I 712 W/m 17,3 C 6,4 km/h (2 Bft)
31.08.2016 11:57 21,4 C 21,4 C 77 % 1019,4 hPa 0,0 mm 8,6 km/h (2 Bft) N 5 1 min 0,000 mm 5,3 UV-I 714 W/m 17,2 C 11,3 km/h (2 Bft)
31.08.2016 11:58 21,4 C 21,5 C 74 % 1019,4 hPa 0,0 mm 6,9 km/h (2 Bft) N-NO 22 1 min 0,000 mm 5,3 UV-I 715 W/m 16,6 C 11,3 km/h (2 Bft)
31.08.2016 11:59 21,4 C 21,4 C 74 % 1019,5 hPa 0,0 mm 2,9 km/h (1 Bft) N-NO 22 1 min 0,000 mm 5,3 UV-I 714 W/m 16,6 C 4,8 km/h (1 Bft)
31.08.2016 12:00 21,3 C 21,4 C 76 % 1019,4 hPa 0,0 mm 3,5 km/h (1 Bft) NO 47 1 min 0,000 mm 5,4 UV-I 715 W/m 16,9 C 6,4 km/h (2 Bft)
31.08.2016 12:01 21,4 C 21,4 C 78 % 1019,5 hPa 0,0 mm 5,8 km/h (2 Bft) O-NO 67 1 min 0,406 mm 5,4 UV-I 719 W/m 17,4 C 8,0 km/h (2 Bft)
31.08.2016 12:02 21,4 C 21,4 C 75 % 1019,5 hPa 0,0 mm 5,4 km/h (1 Bft) N 9 1 min 0,000 mm 5,4 UV-I 719 W/m 16,8 C 14,5 km/h (3 Bft)
31.08.2016 12:03 21,4 C 21,4 C 78 % 1019,5 hPa 0,0 mm 10,5 km/h (2 Bft) N 355 1 min 0,000 mm 5,4 UV-I 719 W/m 17,4 C 16,1 km/h (3 Bft)
31.08.2016 12:04 21,4 C 21,4 C 73 % 1019,5 hPa 0,0 mm 7,5 km/h (2 Bft) N 355 1 min 0,000 mm 5,4 UV-I 719 W/m 16,4 C 8,0 km/h (2 Bft)
31.08.2016 12:05 21,6 C 21,6 C 75 % 1019,5 hPa 0,0 mm 5,1 km/h (1 Bft) N-NO 13 1 min 0,000 mm 5,4 UV-I 721 W/m 17,0 C 8,0 km/h (2 Bft)
31.08.2016 12:06 21,7 C 21,7 C 73 % 1019,5 hPa 0,0 mm 7,4 km/h (2 Bft) N-NO 20 1 min 0,000 mm 5,4 UV-I 722 W/m 16,6 C 11,3 km/h (2 Bft)
31.08.2016 12:07 21,6 C 21,7 C 73 % 1019,5 hPa 0,0 mm 3,8 km/h (1 Bft) N 10 1 min 0,000 mm 5,4 UV-I 724 W/m 16,5 C 4,8 km/h (1 Bft)
31.08.2016 12:08 21,6 C 21,6 C 75 % 1019,6 hPa 0,0 mm 6,3 km/h (2 Bft) W-NW 300 1 min 0,000 mm 5,4 UV-I 724 W/m 17,0 C 11,3 km/h (2 Bft)
31.08.2016 12:09 21,7 C 21,7 C 75 % 1019,5 hPa 0,0 mm 8,0 km/h (2 Bft) NW 306 1 min 0,000 mm 5,4 UV-I 726 W/m 17,1 C 11,3 km/h (2 Bft)
31.08.2016 12:10 21,6 C 21,7 C 75 % 1019,5 hPa 0,0 mm 4,4 km/h (1 Bft) N 5 1 min 0,000 mm 5,4 UV-I 722 W/m 17,0 C 6,4 km/h (2 Bft)
31.08.2016 12:11 21,7 C 21,7 C 76 % 1019,6 hPa 0,0 mm 4,9 km/h (1 Bft) N-NW 342 1 min 0,000 mm 5,5 UV-I 728 W/m 17,3 C 8,0 km/h (2 Bft)
31.08.2016 12:12 21,8 C 21,8 C 76 % 1019,5 hPa 0,0 mm 6,7 km/h (2 Bft) N-NO 18 1 min 0,000 mm 5,5 UV-I 728 W/m 17,4 C 8,0 km/h (2 Bft)
31.08.2016 12:13 22,0 C 22,0 C 77 % 1019,5 hPa 0,0 mm 8,2 km/h (2 Bft) N 11 1 min 0,000 mm 5,5 UV-I 726 W/m 17,8 C 9,7 km/h (2 Bft)
31.08.2016 12:14 22,1 C 22,1 C 70 % 1019,6 hPa 0,0 mm 7,4 km/h (2 Bft) N-NO 19 1 min 0,000 mm 5,5 UV-I 729 W/m 16,4 C 9,7 km/h (2 Bft)
31.08.2016 12:15 21,9 C 22,1 C 71 % 1019,5 hPa 0,0 mm 4,7 km/h (1 Bft) NO 48 1 min 0,000 mm 5,5 UV-I 729 W/m 16,4 C 6,4 km/h (2 Bft)
31.08.2016 12:16 21,9 C 21,9 C 74 % 1019,5 hPa 0,0 mm 3,2 km/h (1 Bft) N-NO 17 1 min 0,000 mm 5,5 UV-I 729 W/m 17,0 C 6,4 km/h (2 Bft)
31.08.2016 12:17 22,1 C 22,1 C 80 % 1019,6 hPa 0,0 mm 7,8 km/h (2 Bft) N 360 1 min 0,000 mm 5,5 UV-I 733 W/m 18,5 C 11,3 km/h (2 Bft)
31.08.2016 12:18 22,1 C 22,1 C 74 % 1019,5 hPa 0,0 mm 3,3 km/h (1 Bft) NW 316 1 min 0,000 mm 5,5 UV-I 733 W/m 17,2 C 4,8 km/h (1 Bft)
31.08.2016 12:19 22,0 C 22,1 C 73 % 1019,5 hPa 0,0 mm 4,6 km/h (1 Bft) NW 312 1 min 0,000 mm 5,5 UV-I 731 W/m 16,9 C 8,0 km/h (2 Bft)
31.08.2016 12:20 21,8 C 22,0 C 74 % 1019,6 hPa 0,0 mm 3,1 km/h (1 Bft) W-NW 302 1 min 0,000 mm 5,5 UV-I 735 W/m 17,0 C 6,4 km/h (2 Bft)
31.08.2016 12:21 21,8 C 21,8 C 72 % 1019,5 hPa 0,0 mm 3,5 km/h (1 Bft) W-NW 301 1 min 0,000 mm 5,6 UV-I 737 W/m 16,5 C 8,0 km/h (2 Bft)
31.08.2016 12:22 21,8 C 21,8 C 74 % 1019,5 hPa 0,0 mm 6,0 km/h (2 Bft) N 5 1 min 0,000 mm 5,6 UV-I 735 W/m 17,0 C 8,0 km/h (2 Bft)
31.08.2016 12:23 21,9 C 21,9 C 77 % 1019,5 hPa 0,0 mm 5,7 km/h (1 Bft) N 5 1 min 0,000 mm 5,6 UV-I 735 W/m 17,7 C 8,0 km/h (2 Bft)
31.08.2016 12:24 22,1 C 22,1 C 77 % 1019,5 hPa 0,0 mm 7,4 km/h (2 Bft) N-NO 29 1 min 0,000 mm 5,6 UV-I 738 W/m 17,9 C 11,3 km/h (2 Bft)
31.08.2016 12:25 22,1 C 22,1 C 73 % 1019,5 hPa 0,0 mm 6,3 km/h (2 Bft) N 355 1 min 0,000 mm 5,6 UV-I 738 W/m 17,0 C 8,0 km/h (2 Bft)
31.08.2016 12:26 22,2 C 22,2 C 75 % 1019,5 hPa 0,0 mm 5,0 km/h (1 Bft) W 279 1 min 0,000 mm 5,6 UV-I 740 W/m 17,5 C 6,4 km/h (2 Bft)
31.08.2016 12:27 22,2 C 22,2 C 72 % 1019,5 hPa 0,0 mm 4,7 km/h (1 Bft) NW 304 1 min 0,000 mm 5,7 UV-I 742 W/m 16,9 C 9,7 km/h (2 Bft)
31.08.2016 12:28 22,1 C 22,2 C 75 % 1019,5 hPa 0,0 mm 7,4 km/h (2 Bft) N-NW 346 1 min 0,000 mm 5,7 UV-I 744 W/m 17,5 C 11,3 km/h (2 Bft)
31.08.2016 12:29 22,0 C 22,1 C 74 % 1019,5 hPa 0,0 mm 6,4 km/h (2 Bft) N-NW 338 1 min 0,000 mm 5,7 UV-I 747 W/m 17,1 C 8,0 km/h (2 Bft)
31.08.2016 12:30 22,0 C 22,0 C 76 % 1019,5 hPa 0,0 mm 4,8 km/h (1 Bft) N 355 1 min 0,000 mm 5,7 UV-I 744 W/m 17,6 C 8,0 km/h (2 Bft)
31.08.2016 12:31 22,0 C 22,1 C 74 % 1019,6 hPa 0,0 mm 5,1 km/h (1 Bft) N-NW 342 1 min 0,000 mm 5,7 UV-I 752 W/m 17,1 C 8,0 km/h (2 Bft)
31.08.2016 12:32 22,1 C 22,1 C 73 % 1019,5 hPa 0,0 mm 1,4 km/h (1 Bft) N-NW 342 1 min 0,000 mm 5,6 UV-I 738 W/m 17,0 C 3,2 km/h (1 Bft)
31.08.2016 12:33 22,1 C 22,1 C 74 % 1019,5 hPa 0,0 mm 3,2 km/h (1 Bft) NW 324 1 min 0,000 mm 5,7 UV-I 737 W/m 17,2 C 4,8 km/h (1 Bft)
31.08.2016 12:34 22,1 C 22,1 C 73 % 1019,5 hPa 0,0 mm 3,3 km/h (1 Bft) N 5 1 min 0,000 mm 5,7 UV-I 747 W/m 17,0 C 4,8 km/h (1 Bft)
31.08.2016 12:35 22,1 C 22,1 C 74 % 1019,5 hPa 0,0 mm 3,3 km/h (1 Bft) NW 319 1 min 0,000 mm 5,7 UV-I 745 W/m 17,2 C 4,8 km/h (1 Bft)
31.08.2016 12:36 22,1 C 22,1 C 77 % 1019,5 hPa 0,0 mm 6,0 km/h (2 Bft) N-NW 342 1 min 0,000 mm 5,7 UV-I 749 W/m 17,9 C 11,3 km/h (2 Bft)
31.08.2016 12:37 22,1 C 22,1 C 75 % 1019,5 hPa 0,0 mm 5,1 km/h (1 Bft) NW 313 1 min 0,000 mm 5,8 UV-I 752 W/m 17,5 C 6,4 km/h (2 Bft)
31.08.2016 12:38 22,0 C 22,1 C 72 % 1019,5 hPa 0,0 mm 4,3 km/h (1 Bft) N-NW 348 1 min 0,000 mm 5,8 UV-I 749 W/m 16,7 C 6,4 km/h (2 Bft)
31.08.2016 12:39 21,9 C 22,0 C 74 % 1019,5 hPa 0,0 mm 5,7 km/h (1 Bft) N 355 1 min 0,000 mm 5,8 UV-I 749 W/m 17,0 C 6,4 km/h (2 Bft)
31.08.2016 12:40 22,1 C 22,1 C 76 % 1019,5 hPa 0,0 mm 4,5 km/h (1 Bft) N 350 1 min 0,000 mm 5,8 UV-I 745 W/m 17,7 C 6,4 km/h (2 Bft)
31.08.2016 12:41 22,1 C 22,1 C 78 % 1019,5 hPa 0,0 mm 2,1 km/h (1 Bft) N 350 1 min 0,000 mm 5,7 UV-I 740 W/m 18,1 C 3,2 km/h (1 Bft)
31.08.2016 12:42 22,0 C 22,1 C 74 % 1019,5 hPa 0,0 mm 3,0 km/h (1 Bft) O 83 1 min 0,000 mm 5,8 UV-I 740 W/m 17,1 C 4,8 km/h (1 Bft)
31.08.2016 12:43 21,9 C 22,0 C 76 % 1019,5 hPa 0,0 mm 5,0 km/h (1 Bft) N-NW 339 1 min 0,000 mm 5,8 UV-I 751 W/m 17,5 C 6,4 km/h (2 Bft)
31.08.2016 12:44 22,0 C 22,0 C 75 % 1019,5 hPa 0,0 mm 6,2 km/h (2 Bft) W-NW 300 1 min 0,000 mm 5,8 UV-I 754 W/m 17,4 C 11,3 km/h (2 Bft)
31.08.2016 12:45 22,0 C 22,0 C 73 % 1019,4 hPa 0,0 mm 5,1 km/h (1 Bft) NW 305 1 min 0,000 mm 5,8 UV-I 754 W/m 16,9 C 6,4 km/h (2 Bft)
31.08.2016 12:46 22,1 C 22,1 C 73 % 1019,4 hPa 0,0 mm 1,3 km/h (1 Bft) NW 306 1 min 0,000 mm 5,9 UV-I 756 W/m 17,0 C 3,2 km/h (1 Bft)
31.08.2016 12:47 22,0 C 22,1 C 73 % 1019,4 hPa 0,0 mm 5,1 km/h (1 Bft) NW 313 1 min 0,000 mm 5,8 UV-I 752 W/m 16,9 C 8,0 km/h (2 Bft)
31.08.2016 12:48 22,0 C 22,1 C 72 % 1019,5 hPa 0,0 mm 4,2 km/h (1 Bft) W-NW 292 1 min 0,000 mm 5,8 UV-I 754 W/m 16,7 C 6,4 km/h (2 Bft)
31.08.2016 12:49 21,9 C 22,0 C 73 % 1019,4 hPa 0,0 mm 6,6 km/h (2 Bft) N-NW 328 1 min 0,000 mm 5,9 UV-I 756 W/m 16,8 C 8,0 km/h (2 Bft)
31.08.2016 12:50 21,9 C 21,9 C 73 % 1019,4 hPa 0,0 mm 2,2 km/h (1 Bft) S 175 1 min 0,000 mm 5,9 UV-I 756 W/m 16,8 C 3,2 km/h (1 Bft)
31.08.2016 12:51 21,8 C 21,9 C 74 % 1019,4 hPa 0,0 mm 1,0 km/h (0 Bft) S 175 1 min 0,000 mm 5,9 UV-I 756 W/m 17,0 C 3,2 km/h (1 Bft)
31.08.2016 12:52 21,8 C 21,8 C 73 % 1019,4 hPa 0,0 mm 1,8 km/h (1 Bft) O-NO 61 1 min 0,000 mm 5,8 UV-I 756 W/m 16,7 C 3,2 km/h (1 Bft)
31.08.2016 12:53 22,1 C 22,1 C 77 % 1019,4 hPa 0,0 mm 5,7 km/h (1 Bft) N 355 1 min 0,000 mm 5,8 UV-I 754 W/m 17,9 C 9,7 km/h (2 Bft)
31.08.2016 12:54 22,1 C 22,1 C 73 % 1019,4 hPa 0,0 mm 2,1 km/h (1 Bft) N-NW 342 1 min 0,000 mm 5,8 UV-I 747 W/m 17,0 C 4,8 km/h (1 Bft)
31.08.2016 12:55 22,1 C 22,1 C 75 % 1019,4 hPa 0,0 mm 2,7 km/h (1 Bft) N-NW 340 1 min 0,000 mm 5,8 UV-I 763 W/m 17,5 C 6,4 km/h (2 Bft)
31.08.2016 12:56 22,1 C 22,1 C 75 % 1019,4 hPa 0,0 mm 3,8 km/h (1 Bft) N-NW 333 1 min 0,000 mm 5,8 UV-I 754 W/m 17,5 C 4,8 km/h (1 Bft)
31.08.2016 12:57 22,1 C 22,1 C 74 % 1019,4 hPa 0,0 mm 1,9 km/h (1 Bft) NW 317 1 min 0,000 mm 5,8 UV-I 749 W/m 17,2 C 3,2 km/h (1 Bft)
31.08.2016 12:58 22,0 C 22,1 C 72 % 1019,4 hPa 0,0 mm 3,2 km/h (1 Bft) NO 56 1 min 0,000 mm 5,9 UV-I 758 W/m 16,7 C 4,8 km/h (1 Bft)
31.08.2016 12:59 22,2 C 22,2 C 78 % 1019,4 hPa 0,0 mm 4,2 km/h (1 Bft) O-NO 73 1 min 0,000 mm 5,9 UV-I 768 W/m 18,2 C 4,8 km/h (1 Bft)
31.08.2016 13:00 22,1 C 22,2 C 74 % 1019,3 hPa 0,0 mm 3,8 km/h (1 Bft) O-NO 67 1 min 0,000 mm 5,8 UV-I 768 W/m 17,2 C 4,8 km/h (1 Bft)
31.08.2016 13:01 22,0 C 22,1 C 74 % 1019,3 hPa 0,0 mm 2,8 km/h (1 Bft) O-NO 65 1 min 0,457 mm 5,8 UV-I 700 W/m 17,1 C 4,8 km/h (1 Bft)
31.08.2016 13:02 21,9 C 22,0 C 73 % 1019,3 hPa 0,0 mm 1,5 km/h (1 Bft) S-SO 154 1 min 0,000 mm 5,8 UV-I 700 W/m 16,8 C 3,2 km/h (1 Bft)
31.08.2016 13:03 21,9 C 21,9 C 76 % 1019,4 hPa 0,0 mm 1,8 km/h (1 Bft) S-SO 155 1 min 0,000 mm 5,9 UV-I 761 W/m 17,5 C 3,2 km/h (1 Bft)
31.08.2016 13:04 21,9 C 21,9 C 74 % 1019,3 hPa 0,0 mm 1,0 km/h (0 Bft) S-SO 155 1 min 0,000 mm 5,9 UV-I 765 W/m 17,0 C 3,2 km/h (1 Bft)
31.08.2016 13:05 22,0 C 22,1 C 75 % 1019,4 hPa 0,0 mm 3,1 km/h (1 Bft) N 355 1 min 0,000 mm 5,9 UV-I 768 W/m 17,4 C 9,7 km/h (2 Bft)
31.08.2016 13:06 22,1 C 22,1 C 75 % 1019,4 hPa 0,0 mm 8,9 km/h (2 Bft) N 355 1 min 0,000 mm 5,9 UV-I 761 W/m 17,5 C 12,9 km/h (3 Bft)
31.08.2016 13:07 22,3 C 22,3 C 74 % 1019,4 hPa 0,0 mm 4,6 km/h (1 Bft) N-NO 18 1 min 0,000 mm 5,9 UV-I 765 W/m 17,4 C 6,4 km/h (2 Bft)
31.08.2016 13:08 22,4 C 22,4 C 77 % 1019,4 hPa 0,0 mm 4,0 km/h (1 Bft) NW 304 1 min 0,000 mm 5,9 UV-I 761 W/m 18,2 C 6,4 km/h (2 Bft)
31.08.2016 13:09 22,4 C 22,4 C 73 % 1019,3 hPa 0,0 mm 1,8 km/h (1 Bft) NW 304 1 min 0,000 mm 5,9 UV-I 758 W/m 17,3 C 4,8 km/h (1 Bft)
31.08.2016 13:10 22,3 C 22,4 C 73 % 1019,3 hPa 0,0 mm 1,5 km/h (1 Bft) N-NW 333 1 min 0,000 mm 5,9 UV-I 758 W/m 17,2 C 4,8 km/h (1 Bft)
31.08.2016 13:11 22,4 C 22,4 C 74 % 1019,3 hPa 0,0 mm 3,2 km/h (1 Bft) NW 305 1 min 0,000 mm 5,9 UV-I 758 W/m 17,5 C 6,4 km/h (2 Bft)
31.08.2016 13:12 22,4 C 22,4 C 74 % 1019,3 hPa 0,0 mm 8,9 km/h (2 Bft) W-NW 292 1 min 0,000 mm 5,9 UV-I 758 W/m 17,5 C 12,9 km/h (3 Bft)
31.08.2016 13:13 22,3 C 22,4 C 72 % 1019,3 hPa 0,0 mm 5,0 km/h (1 Bft) NW 309 1 min 0,000 mm 5,9 UV-I 759 W/m 17,0 C 8,0 km/h (2 Bft)
31.08.2016 13:14 22,3 C 22,3 C 76 % 1019,3 hPa 0,0 mm 3,9 km/h (1 Bft) N-NW 348 1 min 0,000 mm 5,9 UV-I 763 W/m 17,9 C 6,4 km/h (2 Bft)
31.08.2016 13:15 22,4 C 22,4 C 76 % 1019,3 hPa 0,0 mm 3,7 km/h (1 Bft) N-NO 19 1 min 0,000 mm 5,8 UV-I 761 W/m 18,0 C 6,4 km/h (2 Bft)
31.08.2016 13:16 22,7 C 22,7 C 76 % 1019,4 hPa 0,0 mm 4,6 km/h (1 Bft) N 355 1 min 0,000 mm 4,5 UV-I 761 W/m 18,2 C 8,0 km/h (2 Bft)
31.08.2016 13:17 22,7 C 22,7 C 72 % 1019,4 hPa 0,0 mm 4,4 km/h (1 Bft) NW 325 1 min 0,000 mm 5,9 UV-I 761 W/m 17,4 C 6,4 km/h (2 Bft)
31.08.2016 13:18 22,6 C 22,7 C 74 % 1019,3 hPa 0,0 mm 4,0 km/h (1 Bft) NW 323 1 min 0,000 mm 3,5 UV-I 761 W/m 17,7 C 6,4 km/h (2 Bft)
31.08.2016 13:19 22,5 C 22,6 C 72 % 1019,3 hPa 0,0 mm 8,0 km/h (2 Bft) NW 306 1 min 0,000 mm 5,3 UV-I 761 W/m 17,2 C 12,9 km/h (3 Bft)
31.08.2016 13:20 22,5 C 22,5 C 72 % 1019,3 hPa 0,0 mm 7,3 km/h (2 Bft) NW 319 1 min 0,000 mm 5,9 UV-I 763 W/m 17,2 C 11,3 km/h (2 Bft)
31.08.2016 13:21 22,5 C 22,5 C 74 % 1019,4 hPa 0,0 mm 5,0 km/h (1 Bft) W-NW 291 1 min 0,000 mm 5,9 UV-I 761 W/m 17,6 C 8,0 km/h (2 Bft)
31.08.2016 13:22 22,6 C 22,6 C 75 % 1019,4 hPa 0,0 mm 6,8 km/h (2 Bft) N-NO 25 1 min 0,000 mm 5,9 UV-I 763 W/m 17,9 C 8,0 km/h (2 Bft)
31.08.2016 13:23 22,7 C 22,7 C 72 % 1019,4 hPa 0,0 mm 4,6 km/h (1 Bft) N-NO 22 1 min 0,000 mm 5,9 UV-I 765 W/m 17,4 C 6,4 km/h (2 Bft)
31.08.2016 13:24 22,8 C 22,8 C 70 % 1019,4 hPa 0,0 mm 3,4 km/h (1 Bft) N-NO 14 1 min 0,000 mm 6,0 UV-I 763 W/m 17,0 C 4,8 km/h (1 Bft)
31.08.2016 13:25 22,8 C 22,8 C 70 % 1019,4 hPa 0,0 mm 4,9 km/h (1 Bft) N-NO 31 1 min 0,000 mm 5,9 UV-I 765 W/m 17,0 C 8,0 km/h (2 Bft)
31.08.2016 13:26 22,8 C 22,8 C 71 % 1019,4 hPa 0,0 mm 3,6 km/h (1 Bft) N-NO 17 1 min 0,000 mm 5,9 UV-I 761 W/m 17,3 C 8,0 km/h (2 Bft)
31.08.2016 13:27 22,9 C 22,9 C 71 % 1019,3 hPa 0,0 mm 0,8 km/h (0 Bft) N-NO 17 1 min 0,000 mm 5,9 UV-I 759 W/m 17,4 C 1,6 km/h (1 Bft)
31.08.2016 13:28 22,8 C 22,9 C 69 % 1019,4 hPa 0,0 mm 1,5 km/h (1 Bft) NW 317 1 min 0,000 mm 5,9 UV-I 761 W/m 16,8 C 3,2 km/h (1 Bft)
31.08.2016 13:29 22,7 C 22,8 C 69 % 1019,3 hPa 0,0 mm 3,3 km/h (1 Bft) N 11 1 min 0,000 mm 5,9 UV-I 758 W/m 16,7 C 6,4 km/h (2 Bft)
31.08.2016 13:30 22,7 C 22,7 C 71 % 1019,4 hPa 0,0 mm 4,1 km/h (1 Bft) N-NO 23 1 min 0,000 mm 5,9 UV-I 758 W/m 17,2 C 6,4 km/h (2 Bft)
31.08.2016 13:31 22,8 C 22,8 C 71 % 1019,3 hPa 0,0 mm 5,7 km/h (1 Bft) NO 40 1 min 0,000 mm 5,9 UV-I 758 W/m 17,3 C 8,0 km/h (2 Bft)
31.08.2016 13:32 22,8 C 22,8 C 72 % 1019,3 hPa 0,0 mm 5,5 km/h (1 Bft) NO 34 1 min 0,000 mm 5,8 UV-I 752 W/m 17,5 C 8,0 km/h (2 Bft)
31.08.2016 13:33 22,8 C 22,8 C 70 % 1019,3 hPa 0,0 mm 1,9 km/h (1 Bft) NO 34 1 min 0,000 mm 5,8 UV-I 752 W/m 17,0 C 4,8 km/h (1 Bft)
31.08.2016 13:34 22,9 C 22,9 C 76 % 1019,3 hPa 0,0 mm 2,3 km/h (1 Bft) NW 311 1 min 0,000 mm 5,8 UV-I 754 W/m 18,4 C 4,8 km/h (1 Bft)
31.08.2016 13:35 23,0 C 23,0 C 72 % 1019,3 hPa 0,0 mm 4,0 km/h (1 Bft) W-NW 296 1 min 0,000 mm 5,8 UV-I 758 W/m 17,7 C 6,4 km/h (2 Bft)
31.08.2016 13:36 23,0 C 23,0 C 71 % 1019,3 hPa 0,0 mm 5,6 km/h (1 Bft) N-NO 15 1 min 0,000 mm 5,8 UV-I 756 W/m 17,4 C 12,9 km/h (3 Bft)
31.08.2016 13:37 22,9 C 23,0 C 69 % 1019,3 hPa 0,0 mm 7,5 km/h (2 Bft) N-NO 17 1 min 0,000 mm 5,9 UV-I 758 W/m 16,9 C 12,9 km/h (3 Bft)
31.08.2016 13:38 22,9 C 22,9 C 70 % 1019,3 hPa 0,0 mm 5,3 km/h (1 Bft) N 11 1 min 0,000 mm 5,9 UV-I 759 W/m 17,1 C 8,0 km/h (2 Bft)
31.08.2016 13:39 22,9 C 22,9 C 70 % 1019,3 hPa 0,0 mm 3,4 km/h (1 Bft) N-NO 14 1 min 0,000 mm 5,8 UV-I 756 W/m 17,1 C 6,4 km/h (2 Bft)
31.08.2016 13:40 22,8 C 22,9 C 71 % 1019,3 hPa 0,0 mm 3,8 km/h (1 Bft) N-NW 333 1 min 0,000 mm 5,8 UV-I 752 W/m 17,3 C 6,4 km/h (2 Bft)
31.08.2016 13:41 22,9 C 22,9 C 71 % 1019,3 hPa 0,0 mm 4,5 km/h (1 Bft) N-NW 334 1 min 0,000 mm 5,8 UV-I 751 W/m 17,4 C 8,0 km/h (2 Bft)
31.08.2016 13:42 22,9 C 22,9 C 70 % 1019,3 hPa 0,0 mm 3,7 km/h (1 Bft) NW 313 1 min 0,000 mm 5,8 UV-I 754 W/m 17,1 C 8,0 km/h (2 Bft)
31.08.2016 13:43 22,9 C 22,9 C 72 % 1019,3 hPa 0,0 mm 3,3 km/h (1 Bft) N 360 1 min 0,000 mm 5,8 UV-I 761 W/m 17,6 C 6,4 km/h (2 Bft)
31.08.2016 13:44 22,8 C 22,9 C 70 % 1019,3 hPa 0,0 mm 5,6 km/h (1 Bft) N-NO 30 1 min 0,000 mm 5,7 UV-I 758 W/m 17,0 C 8,0 km/h (2 Bft)
31.08.2016 13:45 22,8 C 22,8 C 70 % 1019,3 hPa 0,0 mm 1,7 km/h (1 Bft) N-NO 31 1 min 0,000 mm 5,7 UV-I 765 W/m 17,0 C 3,2 km/h (1 Bft)
31.08.2016 13:46 22,7 C 22,8 C 72 % 1019,3 hPa 0,0 mm 2,4 km/h (1 Bft) N 5 1 min 0,000 mm 5,7 UV-I 752 W/m 17,4 C 4,8 km/h (1 Bft)
31.08.2016 13:47 22,6 C 22,7 C 69 % 1019,3 hPa 0,0 mm 2,3 km/h (1 Bft) N 360 1 min 0,000 mm 5,7 UV-I 761 W/m 16,6 C 4,8 km/h (1 Bft)
31.08.2016 13:48 22,6 C 22,6 C 72 % 1019,2 hPa 0,0 mm 2,7 km/h (1 Bft) NO 49 1 min 0,000 mm 5,8 UV-I 756 W/m 17,3 C 3,2 km/h (1 Bft)
31.08.2016 13:49 22,8 C 22,8 C 74 % 1019,2 hPa 0,0 mm 2,1 km/h (1 Bft) N-NO 23 1 min 0,000 mm 5,8 UV-I 751 W/m 17,9 C 3,2 km/h (1 Bft)
31.08.2016 13:50 22,9 C 22,9 C 70 % 1019,2 hPa 0,0 mm 4,7 km/h (1 Bft) N 360 1 min 0,000 mm 5,8 UV-I 752 W/m 17,1 C 6,4 km/h (2 Bft)
31.08.2016 13:51 23,0 C 23,0 C 70 % 1019,2 hPa 0,0 mm 4,5 km/h (1 Bft) N-NW 336 1 min 0,000 mm 5,8 UV-I 754 W/m 17,2 C 6,4 km/h (2 Bft)
31.08.2016 13:52 23,1 C 23,1 C 69 % 1019,2 hPa 0,0 mm 2,9 km/h (1 Bft) N-NW 344 1 min 0,000 mm 5,7 UV-I 751 W/m 17,1 C 4,8 km/h (1 Bft)
31.08.2016 13:53 23,1 C 23,1 C 71 % 1019,2 hPa 0,0 mm 1,3 km/h (1 Bft) NO 56 1 min 0,000 mm 5,7 UV-I 749 W/m 17,5 C 3,2 km/h (1 Bft)
31.08.2016 13:54 23,1 C 23,1 C 73 % 1019,2 hPa 0,0 mm 4,1 km/h (1 Bft) O 80 1 min 0,000 mm 5,7 UV-I 758 W/m 18,0 C 6,4 km/h (2 Bft)
31.08.2016 13:55 23,1 C 23,2 C 69 % 1019,2 hPa 0,0 mm 2,5 km/h (1 Bft) NO 55 1 min 0,000 mm 5,8 UV-I 759 W/m 17,1 C 4,8 km/h (1 Bft)
31.08.2016 13:56 23,1 C 23,1 C 68 % 1019,2 hPa 0,0 mm 4,1 km/h (1 Bft) NO 50 1 min 0,000 mm 5,8 UV-I 759 W/m 16,9 C 6,4 km/h (2 Bft)
31.08.2016 13:57 23,1 C 23,1 C 74 % 1019,2 hPa 0,0 mm 3,1 km/h (1 Bft) N 10 1 min 0,000 mm 5,8 UV-I 759 W/m 18,2 C 4,8 km/h (1 Bft)
31.08.2016 13:58 23,2 C 23,2 C 69 % 1019,2 hPa 0,0 mm 4,8 km/h (1 Bft) N-NO 32 1 min 0,000 mm 5,8 UV-I 765 W/m 17,2 C 6,4 km/h (2 Bft)
31.08.2016 13:59 23,2 C 23,3 C 68 % 1019,2 hPa 0,0 mm 2,8 km/h (1 Bft) N-NW 336 1 min 0,000 mm 5,7 UV-I 761 W/m 17,0 C 4,8 km/h (1 Bft)
31.08.2016 14:00 23,3 C 23,3 C 71 % 1019,2 hPa 0,0 mm 2,7 km/h (1 Bft) O-NO 67 1 min 0,000 mm 5,8 UV-I 754 W/m 17,7 C 4,8 km/h (1 Bft)
31.08.2016 14:01 23,4 C 23,4 C 72 % 1019,2 hPa 0,0 mm 5,0 km/h (1 Bft) N-NW 330 1 min 0,457 mm 5,7 UV-I 744 W/m 18,1 C 8,0 km/h (2 Bft)
31.08.2016 14:02 23,3 C 23,4 C 72 % 1019,2 hPa 0,0 mm 4,8 km/h (1 Bft) N-NW 332 1 min 0,000 mm 5,7 UV-I 754 W/m 18,0 C 8,0 km/h (2 Bft)
31.08.2016 14:03 23,3 C 23,3 C 72 % 1019,1 hPa 0,0 mm 4,4 km/h (1 Bft) NO 36 1 min 0,000 mm 5,7 UV-I 751 W/m 18,0 C 8,0 km/h (2 Bft)
31.08.2016 14:04 23,2 C 23,3 C 73 % 1019,2 hPa 0,0 mm 6,2 km/h (2 Bft) N 9 1 min 0,000 mm 5,6 UV-I 745 W/m 18,1 C 8,0 km/h (2 Bft)
31.08.2016 14:05 23,1 C 23,2 C 74 % 1019,2 hPa 0,0 mm 4,5 km/h (1 Bft) N-NO 30 1 min 0,000 mm 5,7 UV-I 754 W/m 18,2 C 6,4 km/h (2 Bft)
31.08.2016 14:06 23,0 C 23,1 C 74 % 1019,2 hPa 0,0 mm 5,8 km/h (2 Bft) NO 52 1 min 0,000 mm 5,7 UV-I 751 W/m 18,1 C 8,0 km/h (2 Bft)
31.08.2016 14:07 22,9 C 23,0 C 74 % 1019,2 hPa 0,0 mm 6,4 km/h (2 Bft) NO 55 1 min 0,000 mm 5,6 UV-I 745 W/m 18,0 C 8,0 km/h (2 Bft)
31.08.2016 14:08 22,8 C 22,9 C 75 % 1019,2 hPa 0,0 mm 5,2 km/h (1 Bft) O-NO 69 1 min 0,000 mm 5,6 UV-I 766 W/m 18,1 C 6,4 km/h (2 Bft)
31.08.2016 14:09 22,7 C 22,8 C 74 % 1019,2 hPa 0,0 mm 4,4 km/h (1 Bft) NO 38 1 min 0,000 mm 5,5 UV-I 759 W/m 17,8 C 6,4 km/h (2 Bft)
31.08.2016 14:10 22,7 C 22,7 C 74 % 1019,1 hPa 0,0 mm 3,6 km/h (1 Bft) O 79 1 min 0,000 mm 5,5 UV-I 759 W/m 17,8 C 8,0 km/h (2 Bft)
31.08.2016 14:11 22,7 C 22,7 C 78 % 1019,1 hPa 0,0 mm 8,0 km/h (2 Bft) O 101 1 min 0,000 mm 5,6 UV-I 751 W/m 18,7 C 14,5 km/h (3 Bft)
31.08.2016 14:12 22,7 C 22,7 C 75 % 1019,0 hPa 0,0 mm 6,5 km/h (2 Bft) NO 40 1 min 0,000 mm 5,6 UV-I 756 W/m 18,0 C 11,3 km/h (2 Bft)
31.08.2016 14:13 22,8 C 22,8 C 74 % 1019,1 hPa 0,0 mm 9,0 km/h (2 Bft) O-NO 78 1 min 0,000 mm 5,6 UV-I 759 W/m 17,9 C 14,5 km/h (3 Bft)
31.08.2016 14:14 22,8 C 22,8 C 75 % 1019,1 hPa 0,0 mm 8,2 km/h (2 Bft) NO 50 1 min 0,000 mm 5,6 UV-I 756 W/m 18,1 C 14,5 km/h (3 Bft)
31.08.2016 14:15 22,8 C 22,8 C 74 % 1019,0 hPa 0,0 mm 7,6 km/h (2 Bft) N-NO 26 1 min 0,000 mm 5,5 UV-I 747 W/m 17,9 C 9,7 km/h (2 Bft)
31.08.2016 14:16 22,9 C 22,9 C 75 % 1019,0 hPa 0,0 mm 5,1 km/h (1 Bft) O 98 1 min 0,000 mm 5,5 UV-I 742 W/m 18,2 C 11,3 km/h (2 Bft)
31.08.2016 14:17 22,9 C 22,9 C 74 % 1019,0 hPa 0,0 mm 4,3 km/h (1 Bft) N-NO 30 1 min 0,000 mm 5,5 UV-I 737 W/m 18,0 C 8,0 km/h (2 Bft)
31.08.2016 14:18 23,0 C 23,0 C 78 % 1019,0 hPa 0,0 mm 5,5 km/h (1 Bft) NO 39 1 min 0,000 mm 5,5 UV-I 738 W/m 18,9 C 9,7 km/h (2 Bft)
31.08.2016 14:19 23,0 C 23,0 C 75 % 1019,0 hPa 0,0 mm 7,3 km/h (2 Bft) O-NO 61 1 min 0,000 mm 5,5 UV-I 745 W/m 18,3 C 12,9 km/h (3 Bft)
31.08.2016 14:20 23,1 C 23,1 C 74 % 1019,0 hPa 0,0 mm 7,9 km/h (2 Bft) NO 38 1 min 0,000 mm 5,3 UV-I 729 W/m 18,2 C 11,3 km/h (2 Bft)
31.08.2016 14:21 23,1 C 23,1 C 73 % 1019,0 hPa 0,0 mm 5,4 km/h (1 Bft) NO 55 1 min 0,000 mm 5,4 UV-I 733 W/m 18,0 C 8,0 km/h (2 Bft)
31.08.2016 14:22 22,9 C 23,1 C 72 % 1019,0 hPa 0,0 mm 2,8 km/h (1 Bft) O 94 1 min 0,000 mm 5,4 UV-I 742 W/m 17,6 C 4,8 km/h (1 Bft)
31.08.2016 14:23 22,8 C 22,9 C 74 % 1019,0 hPa 0,0 mm 2,5 km/h (1 Bft) N 5 1 min 0,000 mm 5,4 UV-I 758 W/m 17,9 C 8,0 km/h (2 Bft)
31.08.2016 14:24 22,8 C 22,8 C 76 % 1019,0 hPa 0,0 mm 5,2 km/h (1 Bft) N-NW 340 1 min 0,000 mm 5,3 UV-I 758 W/m 18,3 C 6,4 km/h (2 Bft)
31.08.2016 14:25 22,9 C 22,9 C 76 % 1019,0 hPa 0,0 mm 5,8 km/h (2 Bft) N-NW 340 1 min 0,000 mm 5,5 UV-I 766 W/m 18,4 C 8,0 km/h (2 Bft)
31.08.2016 14:26 22,8 C 22,9 C 74 % 1018,9 hPa 0,0 mm 5,4 km/h (1 Bft) NW 324 1 min 0,000 mm 5,4 UV-I 765 W/m 17,9 C 6,4 km/h (2 Bft)
31.08.2016 14:27 22,9 C 22,9 C 77 % 1019,0 hPa 0,0 mm 2,1 km/h (1 Bft) O-NO 71 1 min 0,000 mm 4,8 UV-I 731 W/m 18,6 C 4,8 km/h (1 Bft)
31.08.2016 14:28 22,9 C 22,9 C 74 % 1018,9 hPa 0,0 mm 5,3 km/h (1 Bft) O-NO 78 1 min 0,000 mm 5,2 UV-I 733 W/m 18,0 C 9,7 km/h (2 Bft)
31.08.2016 14:29 23,0 C 23,0 C 74 % 1018,9 hPa 0,0 mm 9,1 km/h (2 Bft) NO 56 1 min 0,000 mm 5,1 UV-I 733 W/m 18,1 C 12,9 km/h (3 Bft)
31.08.2016 14:30 22,9 C 23,0 C 74 % 1018,9 hPa 0,0 mm 5,2 km/h (1 Bft) O-NO 74 1 min 0,000 mm 4,4 UV-I 773 W/m 18,0 C 8,0 km/h (2 Bft)
31.08.2016 14:31 22,8 C 22,9 C 73 % 1018,9 hPa 0,0 mm 1,2 km/h (1 Bft) O-NO 78 1 min 0,000 mm 3,0 UV-I 773 W/m 17,7 C 3,2 km/h (1 Bft)
31.08.2016 14:32 22,7 C 22,8 C 76 % 1018,8 hPa 0,0 mm 4,1 km/h (1 Bft) O-NO 68 1 min 0,000 mm 3,9 UV-I 773 W/m 18,2 C 6,4 km/h (2 Bft)
31.08.2016 14:33 22,7 C 22,7 C 75 % 1018,9 hPa 0,0 mm 7,8 km/h (2 Bft) O 98 1 min 0,000 mm 5,1 UV-I 773 W/m 18,0 C 14,5 km/h (3 Bft)
31.08.2016 14:34 22,6 C 22,7 C 78 % 1018,8 hPa 0,0 mm 5,6 km/h (1 Bft) NO 36 1 min 0,000 mm 5,3 UV-I 773 W/m 18,6 C 8,0 km/h (2 Bft)
31.08.2016 14:35 22,6 C 22,6 C 77 % 1018,9 hPa 0,0 mm 4,2 km/h (1 Bft) SO 135 1 min 0,000 mm 5,3 UV-I 795 W/m 18,4 C 6,4 km/h (2 Bft)
31.08.2016 14:36 22,7 C 22,7 C 76 % 1018,8 hPa 0,0 mm 5,0 km/h (1 Bft) O-NO 70 1 min 0,000 mm 5,4 UV-I 798 W/m 18,2 C 8,0 km/h (2 Bft)
31.08.2016 14:37 22,7 C 22,7 C 75 % 1018,9 hPa 0,0 mm 3,4 km/h (1 Bft) O 82 1 min 0,000 mm 5,3 UV-I 798 W/m 18,0 C 6,4 km/h (2 Bft)
31.08.2016 14:38 22,8 C 22,8 C 77 % 1018,8 hPa 0,0 mm 6,3 km/h (2 Bft) O-SO 117 1 min 0,000 mm 5,3 UV-I 812 W/m 18,5 C 9,7 km/h (2 Bft)
31.08.2016 14:39 22,8 C 22,8 C 74 % 1018,8 hPa 0,0 mm 7,0 km/h (2 Bft) O-NO 77 1 min 0,000 mm 4,9 UV-I 779 W/m 17,9 C 12,9 km/h (3 Bft)
31.08.2016 14:40 22,8 C 22,8 C 74 % 1018,8 hPa 0,0 mm 5,6 km/h (1 Bft) N-NO 25 1 min 0,000 mm 5,1 UV-I 779 W/m 17,9 C 9,7 km/h (2 Bft)
31.08.2016 14:41 22,7 C 22,8 C 75 % 1018,9 hPa 0,0 mm 6,5 km/h (2 Bft) O-SO 119 1 min 0,000 mm 5,4 UV-I 814 W/m 18,0 C 12,9 km/h (3 Bft)
31.08.2016 14:42 22,7 C 22,7 C 75 % 1018,8 hPa 0,0 mm 6,3 km/h (2 Bft) O-NO 67 1 min 0,000 mm 5,4 UV-I 795 W/m 18,0 C 8,0 km/h (2 Bft)
31.08.2016 14:43 22,7 C 22,7 C 77 % 1018,8 hPa 0,0 mm 6,6 km/h (2 Bft) O-NO 71 1 min 0,000 mm 5,4 UV-I 772 W/m 18,5 C 11,3 km/h (2 Bft)
31.08.2016 14:44 22,7 C 22,7 C 75 % 1018,8 hPa 0,0 mm 6,2 km/h (2 Bft) O-NO 62 1 min 0,000 mm 5,3 UV-I 751 W/m 18,0 C 8,0 km/h (2 Bft)
31.08.2016 14:45 22,8 C 22,8 C 77 % 1018,8 hPa 0,0 mm 8,9 km/h (2 Bft) O-NO 61 1 min 0,000 mm 5,2 UV-I 733 W/m 18,5 C 14,5 km/h (3 Bft)
31.08.2016 14:46 22,8 C 22,8 C 76 % 1018,8 hPa 0,0 mm 7,0 km/h (2 Bft) O-NO 61 1 min 0,000 mm 5,2 UV-I 714 W/m 18,3 C 8,0 km/h (2 Bft)
31.08.2016 14:47 22,6 C 22,8 C 76 % 1018,8 hPa 0,0 mm 3,8 km/h (1 Bft) O 90 1 min 0,000 mm 5,1 UV-I 712 W/m 18,1 C 6,4 km/h (2 Bft)
31.08.2016 14:48 22,5 C 22,6 C 77 % 1018,8 hPa 0,0 mm 2,7 km/h (1 Bft) SO 127 1 min 0,000 mm 5,0 UV-I 705 W/m 18,3 C 8,0 km/h (2 Bft)
31.08.2016 14:49 22,5 C 22,5 C 75 % 1018,8 hPa 0,0 mm 5,4 km/h (1 Bft) O-NO 65 1 min 0,000 mm 5,1 UV-I 712 W/m 17,8 C 8,0 km/h (2 Bft)
31.08.2016 14:50 22,5 C 22,5 C 76 % 1018,8 hPa 0,0 mm 8,0 km/h (2 Bft) O 86 1 min 0,000 mm 5,1 UV-I 710 W/m 18,0 C 11,3 km/h (2 Bft)
31.08.2016 14:51 22,6 C 22,6 C 75 % 1018,8 hPa 0,0 mm 7,3 km/h (2 Bft) O 88 1 min 0,000 mm 5,0 UV-I 700 W/m 17,9 C 12,9 km/h (3 Bft)
31.08.2016 14:52 22,5 C 22,6 C 76 % 1018,8 hPa 0,0 mm 8,5 km/h (2 Bft) O-NO 74 1 min 0,000 mm 5,0 UV-I 705 W/m 18,0 C 12,9 km/h (3 Bft)
31.08.2016 14:53 22,5 C 22,6 C 75 % 1018,8 hPa 0,0 mm 9,1 km/h (2 Bft) O 85 1 min 0,000 mm 5,0 UV-I 707 W/m 17,8 C 14,5 km/h (3 Bft)
31.08.2016 14:54 22,5 C 22,6 C 77 % 1018,7 hPa 0,0 mm 6,9 km/h (2 Bft) N-NO 32 1 min 0,000 mm 5,0 UV-I 710 W/m 18,3 C 11,3 km/h (2 Bft)
31.08.2016 14:55 22,7 C 22,7 C 76 % 1018,7 hPa 0,0 mm 5,1 km/h (1 Bft) N-NO 30 1 min 0,000 mm 4,9 UV-I 712 W/m 18,2 C 8,0 km/h (2 Bft)
31.08.2016 14:56 22,8 C 22,8 C 80 % 1018,7 hPa 0,0 mm 7,6 km/h (2 Bft) NO 44 1 min 0,000 mm 4,9 UV-I 728 W/m 19,2 C 11,3 km/h (2 Bft)
31.08.2016 14:57 22,8 C 22,8 C 75 % 1018,8 hPa 0,0 mm 8,1 km/h (2 Bft) O 80 1 min 0,000 mm 4,9 UV-I 742 W/m 18,1 C 12,9 km/h (3 Bft)
31.08.2016 14:58 22,8 C 22,8 C 74 % 1018,7 hPa 0,0 mm 6,8 km/h (2 Bft) NO 55 1 min 0,000 mm 4,9 UV-I 726 W/m 17,9 C 12,9 km/h (3 Bft)
31.08.2016 14:59 22,7 C 22,8 C 74 % 1018,7 hPa 0,0 mm 7,3 km/h (2 Bft) NO 56 1 min 0,000 mm 4,7 UV-I 726 W/m 17,8 C 9,7 km/h (2 Bft)
31.08.2016 15:00 22,8 C 22,8 C 75 % 1018,7 hPa 0,0 mm 6,2 km/h (2 Bft) O 95 1 min 0,000 mm 4,6 UV-I 721 W/m 18,1 C 11,3 km/h (2 Bft)
31.08.2016 15:01 22,8 C 22,8 C 74 % 1018,7 hPa 0,0 mm 5,5 km/h (1 Bft) SO 132 1 min 0,457 mm 4,6 UV-I 722 W/m 17,9 C 9,7 km/h (2 Bft)
31.08.2016 15:02 22,9 C 22,9 C 75 % 1018,7 hPa 0,0 mm 3,6 km/h (1 Bft) O-NO 68 1 min 0,001 mm 4,5 UV-I 712 W/m 18,2 C 8,0 km/h (2 Bft)
31.08.2016 15:03 22,9 C 22,9 C 74 % 1018,7 hPa 0,0 mm 4,3 km/h (1 Bft) O-NO 68 1 min 0,000 mm 4,5 UV-I 714 W/m 18,0 C 8,0 km/h (2 Bft)
31.08.2016 15:04 23,0 C 23,0 C 74 % 1018,7 hPa 0,0 mm 5,6 km/h (1 Bft) O-NO 71 1 min 0,000 mm 4,5 UV-I 717 W/m 18,1 C 8,0 km/h (2 Bft)
31.08.2016 15:05 23,0 C 23,0 C 75 % 1018,7 hPa 0,0 mm 3,9 km/h (1 Bft) NW 309 1 min 0,000 mm 4,5 UV-I 735 W/m 18,3 C 4,8 km/h (1 Bft)
31.08.2016 15:06 22,9 C 23,0 C 74 % 1018,6 hPa 0,0 mm 4,5 km/h (1 Bft) NO 56 1 min 0,000 mm 3,7 UV-I 735 W/m 18,0 C 8,0 km/h (2 Bft)
31.08.2016 15:07 23,0 C 23,0 C 75 % 1018,6 hPa 0,0 mm 7,5 km/h (2 Bft) O-NO 61 0 min 0,000 mm 3,3 UV-I 320 W/m 18,3 C 11,3 km/h (2 Bft)
31.08.2016 15:08 23,1 C 23,1 C 75 % 1018,7 hPa 0,0 mm 9,7 km/h (2 Bft) O 90 0 min 0,000 mm 3,0 UV-I 255 W/m 18,4 C 14,5 km/h (3 Bft)
31.08.2016 15:09 22,9 C 23,1 C 77 % 1018,6 hPa 0,0 mm 7,3 km/h (2 Bft) O-NO 74 0 min 0,000 mm 3,7 UV-I 290 W/m 18,6 C 12,9 km/h (3 Bft)
31.08.2016 15:10 22,9 C 22,9 C 75 % 1018,7 hPa 0,0 mm 5,6 km/h (1 Bft) O-NO 66 1 min 0,000 mm 3,3 UV-I 403 W/m 18,2 C 8,0 km/h (2 Bft)
31.08.2016 15:11 22,8 C 22,9 C 76 % 1018,6 hPa 0,0 mm 5,9 km/h (2 Bft) O-NO 68 1 min 0,000 mm 4,4 UV-I 403 W/m 18,3 C 6,4 km/h (2 Bft)
31.08.2016 15:12 22,7 C 22,8 C 74 % 1018,6 hPa 0,0 mm 6,7 km/h (2 Bft) O-NO 65 1 min 0,000 mm 4,4 UV-I 795 W/m 17,8 C 9,7 km/h (2 Bft)
31.08.2016 15:13 22,6 C 22,7 C 76 % 1018,6 hPa 0,0 mm 4,8 km/h (1 Bft) NO 50 1 min 0,000 mm 4,4 UV-I 795 W/m 18,1 C 6,4 km/h (2 Bft)
31.08.2016 15:14 22,7 C 22,7 C 78 % 1018,6 hPa 0,0 mm 7,1 km/h (2 Bft) O-NO 63 1 min 0,000 mm 4,4 UV-I 789 W/m 18,7 C 11,3 km/h (2 Bft)
31.08.2016 15:15 22,8 C 22,8 C 75 % 1018,6 hPa 0,0 mm 5,4 km/h (1 Bft) O-NO 63 1 min 0,000 mm 4,4 UV-I 788 W/m 18,1 C 8,0 km/h (2 Bft)
31.08.2016 15:16 22,9 C 22,9 C 75 % 1018,6 hPa 0,0 mm 9,7 km/h (2 Bft) NO 50 1 min 0,000 mm 4,3 UV-I 756 W/m 18,2 C 12,9 km/h (3 Bft)
31.08.2016 15:17 22,8 C 22,9 C 75 % 1018,6 hPa 0,0 mm 7,2 km/h (2 Bft) O 89 1 min 0,000 mm 4,2 UV-I 737 W/m 18,1 C 9,7 km/h (2 Bft)
31.08.2016 15:18 22,8 C 22,8 C 75 % 1018,6 hPa 0,0 mm 6,4 km/h (2 Bft) O 94 1 min 0,000 mm 4,2 UV-I 731 W/m 18,1 C 8,0 km/h (2 Bft)
31.08.2016 15:19 22,7 C 22,8 C 77 % 1018,5 hPa 0,0 mm 6,7 km/h (2 Bft) O-NO 69 1 min 0,000 mm 4,3 UV-I 731 W/m 18,5 C 8,0 km/h (2 Bft)
31.08.2016 15:20 22,7 C 22,7 C 75 % 1018,6 hPa 0,0 mm 5,9 km/h (2 Bft) N-NO 30 1 min 0,000 mm 4,3 UV-I 724 W/m 18,0 C 9,7 km/h (2 Bft)
31.08.2016 15:21 22,8 C 22,8 C 75 % 1018,6 hPa 0,0 mm 5,4 km/h (1 Bft) N 11 1 min 0,000 mm 4,2 UV-I 705 W/m 18,1 C 11,3 km/h (2 Bft)
31.08.2016 15:22 22,7 C 22,8 C 74 % 1018,5 hPa 0,0 mm 2,1 km/h (1 Bft) O 80 1 min 0,000 mm 4,1 UV-I 656 W/m 17,8 C 4,8 km/h (1 Bft)
31.08.2016 15:23 22,8 C 22,8 C 78 % 1018,5 hPa 0,0 mm 3,7 km/h (1 Bft) N-NO 16 1 min 0,000 mm 4,0 UV-I 652 W/m 18,8 C 6,4 km/h (2 Bft)
31.08.2016 15:24 22,9 C 22,9 C 76 % 1018,5 hPa 0,0 mm 5,1 km/h (1 Bft) N-NO 22 1 min 0,000 mm 4,0 UV-I 642 W/m 18,4 C 8,0 km/h (2 Bft)
31.08.2016 15:25 22,9 C 22,9 C 74 % 1018,4 hPa 0,0 mm 5,9 km/h (2 Bft) N-NO 28 1 min 0,000 mm 3,8 UV-I 642 W/m 18,0 C 8,0 km/h (2 Bft)
31.08.2016 15:26 22,8 C 22,9 C 74 % 1018,5 hPa 0,0 mm 2,9 km/h (1 Bft) O-NO 57 1 min 0,000 mm 4,0 UV-I 642 W/m 17,9 C 4,8 km/h (1 Bft)
31.08.2016 15:27 22,8 C 22,8 C 76 % 1018,5 hPa 0,0 mm 5,5 km/h (1 Bft) N-NW 348 1 min 0,000 mm 2,4 UV-I 642 W/m 18,3 C 8,0 km/h (2 Bft)
31.08.2016 15:28 22,8 C 22,8 C 75 % 1018,5 hPa 0,0 mm 3,6 km/h (1 Bft) NW 320 0 min 0,000 mm 2,3 UV-I 160 W/m 18,1 C 4,8 km/h (1 Bft)
31.08.2016 15:29 22,7 C 22,8 C 74 % 1018,5 hPa 0,0 mm 2,8 km/h (1 Bft) NO 36 0 min 0,000 mm 4,0 UV-I 160 W/m 17,8 C 4,8 km/h (1 Bft)
31.08.2016 15:30 22,7 C 22,7 C 76 % 1018,4 hPa 0,0 mm 4,2 km/h (1 Bft) N 355 0 min 0,000 mm 3,7 UV-I 160 W/m 18,2 C 4,8 km/h (1 Bft)
31.08.2016 15:31 22,7 C 22,8 C 76 % 1018,5 hPa 0,0 mm 4,0 km/h (1 Bft) NO 35 0 min 0,000 mm 4,1 UV-I 160 W/m 18,2 C 6,4 km/h (2 Bft)
31.08.2016 15:32 22,9 C 22,9 C 76 % 1018,4 hPa 0,0 mm 5,9 km/h (2 Bft) N-NO 30 1 min 0,000 mm 4,1 UV-I 621 W/m 18,4 C 8,0 km/h (2 Bft)
31.08.2016 15:33 23,1 C 23,1 C 77 % 1018,4 hPa 0,0 mm 5,2 km/h (1 Bft) NO 40 1 min 0,000 mm 4,1 UV-I 610 W/m 18,8 C 6,4 km/h (2 Bft)
31.08.2016 15:34 23,0 C 23,1 C 74 % 1018,4 hPa 0,0 mm 3,4 km/h (1 Bft) O-NO 70 1 min 0,000 mm 4,0 UV-I 612 W/m 18,1 C 6,4 km/h (2 Bft)
31.08.2016 15:35 22,9 C 23,0 C 74 % 1018,4 hPa 0,0 mm 4,2 km/h (1 Bft) N-NO 29 1 min 0,000 mm 4,0 UV-I 612 W/m 18,0 C 9,7 km/h (2 Bft)
31.08.2016 15:36 23,0 C 23,0 C 75 % 1018,4 hPa 0,0 mm 4,8 km/h (1 Bft) O-NO 78 1 min 0,000 mm 4,0 UV-I 608 W/m 18,3 C 6,4 km/h (2 Bft)
31.08.2016 15:37 22,9 C 23,0 C 75 % 1018,5 hPa 0,0 mm 3,4 km/h (1 Bft) O-NO 78 1 min 0,000 mm 3,9 UV-I 605 W/m 18,2 C 4,8 km/h (1 Bft)
31.08.2016 15:38 22,9 C 22,9 C 76 % 1018,5 hPa 0,0 mm 3,1 km/h (1 Bft) NO 56 1 min 0,000 mm 3,9 UV-I 601 W/m 18,4 C 4,8 km/h (1 Bft)
31.08.2016 15:39 22,9 C 22,9 C 78 % 1018,5 hPa 0,0 mm 2,8 km/h (1 Bft) N 5 1 min 0,000 mm 3,9 UV-I 591 W/m 18,9 C 6,4 km/h (2 Bft)
31.08.2016 15:40 22,9 C 22,9 C 74 % 1018,5 hPa 0,0 mm 3,2 km/h (1 Bft) O 82 1 min 0,000 mm 3,8 UV-I 594 W/m 18,0 C 4,8 km/h (1 Bft)
31.08.2016 15:41 23,0 C 23,0 C 75 % 1018,4 hPa 0,0 mm 6,8 km/h (2 Bft) N-NW 348 1 min 0,000 mm 3,9 UV-I 610 W/m 18,3 C 12,9 km/h (3 Bft)
31.08.2016 15:42 23,1 C 23,1 C 74 % 1018,4 hPa 0,0 mm 5,3 km/h (1 Bft) N-NW 345 1 min 0,000 mm 3,8 UV-I 613 W/m 18,2 C 8,0 km/h (2 Bft)
31.08.2016 15:43 23,1 C 23,1 C 74 % 1018,4 hPa 0,0 mm 6,8 km/h (2 Bft) NO 42 1 min 0,000 mm 3,8 UV-I 621 W/m 18,2 C 9,7 km/h (2 Bft)
31.08.2016 15:44 23,2 C 23,2 C 73 % 1018,4 hPa 0,0 mm 3,1 km/h (1 Bft) NO 49 1 min 0,000 mm 3,8 UV-I 621 W/m 18,1 C 6,4 km/h (2 Bft)
31.08.2016 15:45 23,1 C 23,2 C 74 % 1018,4 hPa 0,0 mm 6,4 km/h (2 Bft) O-NO 74 1 min 0,000 mm 3,7 UV-I 598 W/m 18,2 C 9,7 km/h (2 Bft)
31.08.2016 15:46 23,0 C 23,1 C 75 % 1018,4 hPa 0,0 mm 7,3 km/h (2 Bft) O 80 1 min 0,000 mm 3,7 UV-I 589 W/m 18,3 C 11,3 km/h (2 Bft)
31.08.2016 15:47 23,0 C 23,1 C 75 % 1018,3 hPa 0,0 mm 5,4 km/h (1 Bft) O-NO 63 1 min 0,000 mm 3,7 UV-I 592 W/m 18,3 C 8,0 km/h (2 Bft)
31.08.2016 15:48 22,9 C 23,0 C 75 % 1018,4 hPa 0,0 mm 10,6 km/h (2 Bft) O 87 1 min 0,000 mm 3,7 UV-I 599 W/m 18,2 C 14,5 km/h (3 Bft)
31.08.2016 15:49 22,8 C 22,9 C 76 % 1018,4 hPa 0,0 mm 8,0 km/h (2 Bft) O-SO 105 1 min 0,000 mm 3,0 UV-I 599 W/m 18,3 C 16,1 km/h (3 Bft)
31.08.2016 15:50 22,8 C 22,8 C 76 % 1018,4 hPa 0,0 mm 3,4 km/h (1 Bft) NO 47 0 min 0,000 mm 2,6 UV-I 221 W/m 18,3 C 6,4 km/h (2 Bft)
31.08.2016 15:51 22,8 C 22,8 C 78 % 1018,4 hPa 0,0 mm 4,8 km/h (1 Bft) O 90 0 min 0,000 mm 3,7 UV-I 221 W/m 18,8 C 8,0 km/h (2 Bft)
31.08.2016 15:52 22,8 C 22,8 C 75 % 1018,4 hPa 0,0 mm 5,9 km/h (2 Bft) NO 38 1 min 0,000 mm 3,6 UV-I 570 W/m 18,1 C 8,0 km/h (2 Bft)
31.08.2016 15:53 22,8 C 22,8 C 75 % 1018,4 hPa 0,0 mm 5,5 km/h (1 Bft) N 360 1 min 0,000 mm 3,6 UV-I 555 W/m 18,1 C 8,0 km/h (2 Bft)
31.08.2016 15:54 22,9 C 22,9 C 75 % 1018,4 hPa 0,0 mm 4,2 km/h (1 Bft) N-NW 329 1 min 0,000 mm 3,6 UV-I 564 W/m 18,2 C 6,4 km/h (2 Bft)
31.08.2016 15:55 22,9 C 22,9 C 75 % 1018,4 hPa 0,0 mm 4,0 km/h (1 Bft) N-NO 20 1 min 0,000 mm 3,6 UV-I 468 W/m 18,2 C 6,4 km/h (2 Bft)
31.08.2016 15:56 23,0 C 23,0 C 74 % 1018,3 hPa 0,0 mm 7,7 km/h (2 Bft) NO 38 1 min 0,000 mm 3,3 UV-I 531 W/m 18,1 C 11,3 km/h (2 Bft)
31.08.2016 15:57 22,9 C 23,0 C 74 % 1018,4 hPa 0,0 mm 8,2 km/h (2 Bft) N 355 0 min 0,000 mm 2,3 UV-I 123 W/m 18,0 C 12,9 km/h (3 Bft)
31.08.2016 15:58 22,8 C 22,9 C 73 % 1018,3 hPa 0,0 mm 5,8 km/h (2 Bft) N-NO 20 0 min 0,000 mm 2,6 UV-I 123 W/m 17,7 C 8,0 km/h (2 Bft)
31.08.2016 15:59 22,7 C 22,8 C 73 % 1018,3 hPa 0,0 mm 4,6 km/h (1 Bft) N-NO 32 0 min 0,000 mm 3,5 UV-I 123 W/m 17,6 C 6,4 km/h (2 Bft)
31.08.2016 16:00 22,6 C 22,7 C 75 % 1018,3 hPa 0,0 mm 6,5 km/h (2 Bft) NO 41 1 min 0,000 mm 3,5 UV-I 568 W/m 17,9 C 8,0 km/h (2 Bft)
31.08.2016 16:01 22,6 C 22,6 C 75 % 1018,3 hPa 0,0 mm 4,2 km/h (1 Bft) N-NO 28 1 min 0,355 mm 3,4 UV-I 557 W/m 17,9 C 6,4 km/h (2 Bft)
31.08.2016 16:02 22,7 C 22,7 C 75 % 1018,4 hPa 0,0 mm 3,7 km/h (1 Bft) O 88 1 min 0,000 mm 3,4 UV-I 555 W/m 18,0 C 6,4 km/h (2 Bft)
31.08.2016 16:03 22,6 C 22,7 C 75 % 1018,4 hPa 0,0 mm 3,6 km/h (1 Bft) O 92 1 min 0,000 mm 3,4 UV-I 541 W/m 17,9 C 6,4 km/h (2 Bft)
31.08.2016 16:04 22,6 C 22,6 C 75 % 1018,4 hPa 0,0 mm 3,0 km/h (1 Bft) NW 323 1 min 0,000 mm 3,3 UV-I 540 W/m 17,9 C 4,8 km/h (1 Bft)
31.08.2016 16:05 22,6 C 22,6 C 76 % 1018,4 hPa 0,0 mm 4,0 km/h (1 Bft) N-NO 22 1 min 0,000 mm 3,2 UV-I 540 W/m 18,1 C 6,4 km/h (2 Bft)
31.08.2016 16:06 22,7 C 22,7 C 74 % 1018,5 hPa 0,0 mm 6,3 km/h (2 Bft) N 355 1 min 0,000 mm 3,2 UV-I 540 W/m 17,8 C 8,0 km/h (2 Bft)
31.08.2016 16:07 22,8 C 22,8 C 76 % 1018,5 hPa 0,0 mm 3,1 km/h (1 Bft) N 355 1 min 0,000 mm 3,1 UV-I 538 W/m 18,3 C 4,8 km/h (1 Bft)
31.08.2016 16:08 22,9 C 22,9 C 76 % 1018,4 hPa 0,0 mm 2,7 km/h (1 Bft) O-NO 74 1 min 0,000 mm 2,6 UV-I 526 W/m 18,4 C 8,0 km/h (2 Bft)
31.08.2016 16:09 23,0 C 23,0 C 76 % 1018,4 hPa 0,0 mm 5,1 km/h (1 Bft) O-NO 58 1 min 0,000 mm 2,6 UV-I 526 W/m 18,5 C 8,0 km/h (2 Bft)
31.08.2016 16:10 23,0 C 23,0 C 75 % 1018,4 hPa 0,0 mm 6,6 km/h (2 Bft) O-NO 59 1 min 0,000 mm 3,1 UV-I 526 W/m 18,3 C 8,0 km/h (2 Bft)
31.08.2016 16:11 23,1 C 23,1 C 74 % 1018,4 hPa 0,0 mm 3,0 km/h (1 Bft) NO 54 1 min 0,000 mm 2,9 UV-I 490 W/m 18,2 C 4,8 km/h (1 Bft)
31.08.2016 16:12 23,0 C 23,1 C 75 % 1018,4 hPa 0,0 mm 4,4 km/h (1 Bft) O 83 1 min 0,000 mm 2,9 UV-I 519 W/m 18,3 C 8,0 km/h (2 Bft)
31.08.2016 16:13 22,9 C 23,0 C 75 % 1018,3 hPa 0,0 mm 5,4 km/h (1 Bft) NO 38 1 min 0,000 mm 2,9 UV-I 555 W/m 18,2 C 8,0 km/h (2 Bft)
31.08.2016 16:14 22,9 C 22,9 C 75 % 1018,4 hPa 0,0 mm 5,2 km/h (1 Bft) NO 36 0 min 0,000 mm 1,8 UV-I 128 W/m 18,2 C 8,0 km/h (2 Bft)
31.08.2016 16:15 23,0 C 23,0 C 75 % 1018,4 hPa 0,0 mm 6,4 km/h (2 Bft) NO 54 0 min 0,000 mm 2,1 UV-I 174 W/m 18,3 C 9,7 km/h (2 Bft)
31.08.2016 16:16 22,9 C 23,0 C 75 % 1018,4 hPa 0,0 mm 6,7 km/h (2 Bft) NO 41 0 min 0,000 mm 2,5 UV-I 174 W/m 18,2 C 11,3 km/h (2 Bft)
31.08.2016 16:17 22,9 C 22,9 C 75 % 1018,4 hPa 0,0 mm 6,1 km/h (2 Bft) N-NO 15 0 min 0,000 mm 2,0 UV-I 174 W/m 18,2 C 8,0 km/h (2 Bft)
31.08.2016 16:18 22,8 C 22,9 C 74 % 1018,4 hPa 0,0 mm 5,9 km/h (2 Bft) N-NW 327 0 min 0,000 mm 1,9 UV-I 185 W/m 17,9 C 8,0 km/h (2 Bft)
31.08.2016 16:19 22,8 C 22,8 C 77 % 1018,4 hPa 0,0 mm 3,0 km/h (1 Bft) O-NO 78 0 min 0,000 mm 2,0 UV-I 197 W/m 18,5 C 6,4 km/h (2 Bft)
31.08.2016 16:20 22,8 C 22,8 C 74 % 1018,4 hPa 0,0 mm 6,0 km/h (2 Bft) O-NO 58 0 min 0,000 mm 1,9 UV-I 148 W/m 17,9 C 8,0 km/h (2 Bft)
31.08.2016 16:21 22,7 C 22,8 C 76 % 1018,4 hPa 0,0 mm 5,9 km/h (2 Bft) O 83 0 min 0,000 mm 1,7 UV-I 127 W/m 18,2 C 8,0 km/h (2 Bft)
31.08.2016 16:22 22,7 C 22,7 C 76 % 1018,4 hPa 0,0 mm 4,0 km/h (1 Bft) O 80 0 min 0,000 mm 1,6 UV-I 93 W/m 18,2 C 8,0 km/h (2 Bft)
31.08.2016 16:23 22,6 C 22,7 C 76 % 1018,4 hPa 0,0 mm 3,4 km/h (1 Bft) NO 40 0 min 0,000 mm 1,6 UV-I 88 W/m 18,1 C 6,4 km/h (2 Bft)
31.08.2016 16:24 22,5 C 22,6 C 77 % 1018,4 hPa 0,0 mm 5,8 km/h (2 Bft) O-NO 72 0 min 0,000 mm 1,7 UV-I 95 W/m 18,3 C 8,0 km/h (2 Bft)
31.08.2016 16:25 22,4 C 22,5 C 76 % 1018,4 hPa 0,0 mm 3,2 km/h (1 Bft) O-SO 111 0 min 0,000 mm 1,7 UV-I 104 W/m 18,0 C 6,4 km/h (2 Bft)
31.08.2016 16:26 22,3 C 22,4 C 77 % 1018,3 hPa 0,0 mm 2,9 km/h (1 Bft) O 80 0 min 0,000 mm 1,9 UV-I 139 W/m 18,1 C 4,8 km/h (1 Bft)
31.08.2016 16:27 22,3 C 22,3 C 77 % 1018,3 hPa 0,0 mm 3,0 km/h (1 Bft) O-NO 68 0 min 0,000 mm 1,9 UV-I 125 W/m 18,1 C 4,8 km/h (1 Bft)
31.08.2016 16:28 22,3 C 22,3 C 77 % 1018,2 hPa 0,0 mm 3,9 km/h (1 Bft) NO 34 0 min 0,000 mm 1,9 UV-I 107 W/m 18,1 C 4,8 km/h (1 Bft)
31.08.2016 16:29 22,3 C 22,3 C 77 % 1018,3 hPa 0,0 mm 3,2 km/h (1 Bft) NO 51 0 min 0,000 mm 1,9 UV-I 105 W/m 18,1 C 6,4 km/h (2 Bft)
31.08.2016 16:30 22,4 C 22,4 C 76 % 1018,3 hPa 0,0 mm 6,2 km/h (2 Bft) O 82 0 min 0,000 mm 1,9 UV-I 95 W/m 18,0 C 8,0 km/h (2 Bft)
31.08.2016 16:31 22,4 C 22,4 C 77 % 1018,3 hPa 0,0 mm 6,5 km/h (2 Bft) NO 51 0 min 0,000 mm 1,9 UV-I 93 W/m 18,2 C 11,3 km/h (2 Bft)
31.08.2016 16:32 22,5 C 22,5 C 76 % 1018,3 hPa 0,0 mm 8,1 km/h (2 Bft) O-NO 61 0 min 0,000 mm 1,9 UV-I 95 W/m 18,0 C 11,3 km/h (2 Bft)
31.08.2016 16:33 22,5 C 22,5 C 75 % 1018,3 hPa 0,0 mm 6,4 km/h (2 Bft) O 98 0 min 0,000 mm 1,9 UV-I 93 W/m 17,8 C 8,0 km/h (2 Bft)
31.08.2016 16:34 22,4 C 22,5 C 76 % 1018,3 hPa 0,0 mm 3,8 km/h (1 Bft) NO 46 0 min 0,000 mm 1,9 UV-I 93 W/m 18,0 C 4,8 km/h (1 Bft)
31.08.2016 16:35 22,4 C 22,4 C 76 % 1018,3 hPa 0,0 mm 4,7 km/h (1 Bft) O 85 0 min 0,000 mm 1,8 UV-I 95 W/m 18,0 C 8,0 km/h (2 Bft)
31.08.2016 16:36 22,3 C 22,4 C 76 % 1018,3 hPa 0,0 mm 3,8 km/h (1 Bft) NO 39 0 min 0,000 mm 1,8 UV-I 97 W/m 17,9 C 4,8 km/h (1 Bft)
31.08.2016 16:37 22,4 C 22,4 C 79 % 1018,3 hPa 0,0 mm 4,9 km/h (1 Bft) O-NO 66 0 min 0,000 mm 1,9 UV-I 123 W/m 18,6 C 8,0 km/h (2 Bft)
31.08.2016 16:38 22,4 C 22,4 C 76 % 1018,3 hPa 0,0 mm 7,0 km/h (2 Bft) NO 49 0 min 0,000 mm 1,9 UV-I 107 W/m 18,0 C 9,7 km/h (2 Bft)
31.08.2016 16:39 22,4 C 22,4 C 76 % 1018,3 hPa 0,0 mm 5,8 km/h (2 Bft) O 96 0 min 0,000 mm 1,8 UV-I 105 W/m 18,0 C 11,3 km/h (2 Bft)
31.08.2016 16:40 22,4 C 22,4 C 75 % 1018,3 hPa 0,0 mm 1,8 km/h (1 Bft) NO 56 0 min 0,000 mm 1,8 UV-I 116 W/m 17,7 C 3,2 km/h (1 Bft)
31.08.2016 16:41 22,4 C 22,4 C 75 % 1018,3 hPa 0,0 mm 7,0 km/h (2 Bft) NO 45 0 min 0,000 mm 1,8 UV-I 134 W/m 17,7 C 9,7 km/h (2 Bft)
31.08.2016 16:42 22,4 C 22,4 C 75 % 1018,4 hPa 0,0 mm 3,8 km/h (1 Bft) N-NO 28 0 min 0,000 mm 1,8 UV-I 141 W/m 17,7 C 6,4 km/h (2 Bft)
31.08.2016 16:43 22,6 C 22,6 C 76 % 1018,4 hPa 0,0 mm 4,9 km/h (1 Bft) NO 44 0 min 0,000 mm 1,8 UV-I 130 W/m 18,1 C 8,0 km/h (2 Bft)
31.08.2016 16:44 22,6 C 22,6 C 75 % 1018,3 hPa 0,0 mm 5,7 km/h (1 Bft) NO 40 0 min 0,000 mm 1,8 UV-I 100 W/m 17,9 C 8,0 km/h (2 Bft)
31.08.2016 16:45 22,6 C 22,6 C 75 % 1018,3 hPa 0,0 mm 4,1 km/h (1 Bft) O-NO 66 0 min 0,000 mm 1,6 UV-I 93 W/m 17,9 C 6,4 km/h (2 Bft)
31.08.2016 16:46 22,5 C 22,6 C 77 % 1018,3 hPa 0,0 mm 5,9 km/h (2 Bft) O-NO 59 0 min 0,000 mm 1,6 UV-I 83 W/m 18,3 C 8,0 km/h (2 Bft)
31.08.2016 16:47 22,3 C 22,5 C 77 % 1018,3 hPa 0,0 mm 3,7 km/h (1 Bft) NO 41 0 min 0,000 mm 1,5 UV-I 70 W/m 18,1 C 4,8 km/h (1 Bft)
31.08.2016 16:48 22,3 C 22,3 C 78 % 1018,3 hPa 0,0 mm 2,7 km/h (1 Bft) N-NO 30 0 min 0,000 mm 1,5 UV-I 63 W/m 18,3 C 4,8 km/h (1 Bft)
31.08.2016 16:49 22,1 C 22,3 C 78 % 1018,3 hPa 0,0 mm 2,8 km/h (1 Bft) NO 42 0 min 0,000 mm 1,5 UV-I 63 W/m 18,1 C 4,8 km/h (1 Bft)
31.08.2016 16:50 22,0 C 22,1 C 77 % 1018,3 hPa 0,0 mm 2,9 km/h (1 Bft) NO 48 0 min 0,000 mm 1,5 UV-I 79 W/m 17,8 C 3,2 km/h (1 Bft)
31.08.2016 16:51 22,0 C 22,0 C 77 % 1018,3 hPa 0,0 mm 2,8 km/h (1 Bft) NO 48 0 min 0,000 mm 1,6 UV-I 104 W/m 17,8 C 3,2 km/h (1 Bft)
31.08.2016 16:52 22,1 C 22,1 C 78 % 1018,3 hPa 0,0 mm 2,3 km/h (1 Bft) O 79 0 min 0,000 mm 1,6 UV-I 116 W/m 18,1 C 3,2 km/h (1 Bft)
31.08.2016 16:53 22,1 C 22,1 C 77 % 1018,4 hPa 0,0 mm 0,8 km/h (0 Bft) O 79 0 min 0,000 mm 1,6 UV-I 104 W/m 17,9 C 1,6 km/h (1 Bft)
31.08.2016 16:54 22,1 C 22,1 C 76 % 1018,3 hPa 0,0 mm 0,7 km/h (0 Bft) O 79 0 min 0,000 mm 1,6 UV-I 98 W/m 17,7 C 1,6 km/h (1 Bft)
31.08.2016 16:55 22,1 C 22,1 C 76 % 1018,3 hPa 0,0 mm 2,5 km/h (1 Bft) O-NO 78 0 min 0,000 mm 1,5 UV-I 95 W/m 17,7 C 4,8 km/h (1 Bft)
31.08.2016 16:56 22,0 C 22,1 C 78 % 1018,3 hPa 0,0 mm 4,2 km/h (1 Bft) O-NO 78 0 min 0,000 mm 1,5 UV-I 98 W/m 18,0 C 8,0 km/h (2 Bft)
31.08.2016 16:57 21,8 C 22,0 C 77 % 1018,3 hPa 0,0 mm 1,7 km/h (1 Bft) O-NO 78 0 min 0,000 mm 1,5 UV-I 102 W/m 17,6 C 3,2 km/h (1 Bft)
31.08.2016 16:58 21,8 C 21,9 C 78 % 1018,3 hPa 0,0 mm 1,5 km/h (1 Bft) O-NO 78 0 min 0,000 mm 1,4 UV-I 95 W/m 17,8 C 3,2 km/h (1 Bft)
31.08.2016 16:59 21,8 C 21,8 C 79 % 1018,2 hPa 0,0 mm 0,9 km/h (0 Bft) O-NO 77 0 min 0,000 mm 1,4 UV-I 91 W/m 18,0 C 3,2 km/h (1 Bft)
31.08.2016 17:00 21,8 C 21,8 C 79 % 1018,3 hPa 0,0 mm 2,9 km/h (1 Bft) O-NO 78 0 min 0,000 mm 1,4 UV-I 90 W/m 18,0 C 3,2 km/h (1 Bft)
31.08.2016 17:01 21,7 C 21,8 C 80 % 1018,3 hPa 0,0 mm 1,7 km/h (1 Bft) O-NO 78 0 min 0,127 mm 1,3 UV-I 74 W/m 18,1 C 3,2 km/h (1 Bft)
31.08.2016 17:02 21,6 C 21,7 C 80 % 1018,3 hPa 0,0 mm 1,4 km/h (1 Bft) O-NO 78 0 min 0,000 mm 1,3 UV-I 70 W/m 18,0 C 3,2 km/h (1 Bft)
31.08.2016 17:03 21,6 C 21,7 C 79 % 1018,3 hPa 0,0 mm 2,2 km/h (1 Bft) O-NO 78 0 min 0,000 mm 1,3 UV-I 74 W/m 17,8 C 4,8 km/h (1 Bft)
31.08.2016 17:04 21,6 C 21,6 C 81 % 1018,3 hPa 0,0 mm 2,5 km/h (1 Bft) O-NO 78 0 min 0,000 mm 1,2 UV-I 70 W/m 18,2 C 3,2 km/h (1 Bft)
31.08.2016 17:05 21,5 C 21,6 C 80 % 1018,3 hPa 0,0 mm 2,4 km/h (1 Bft) O-NO 78 0 min 0,000 mm 1,2 UV-I 67 W/m 17,9 C 3,2 km/h (1 Bft)
31.08.2016 17:06 21,6 C 21,6 C 79 % 1018,3 hPa 0,0 mm 1,6 km/h (1 Bft) O-NO 78 0 min 0,000 mm 1,2 UV-I 65 W/m 17,8 C 3,2 km/h (1 Bft)
31.08.2016 17:07 21,7 C 21,7 C 79 % 1018,3 hPa 0,0 mm 0,5 km/h (0 Bft) O-NO 78 0 min 0,000 mm 1,2 UV-I 69 W/m 17,9 C 1,6 km/h (1 Bft)
31.08.2016 17:08 21,7 C 21,7 C 79 % 1018,3 hPa 0,0 mm 1,5 km/h (1 Bft) O-NO 78 0 min 0,000 mm 1,2 UV-I 67 W/m 17,9 C 3,2 km/h (1 Bft)
31.08.2016 17:09 21,7 C 21,7 C 80 % 1018,3 hPa 0,0 mm 2,5 km/h (1 Bft) O-NO 78 0 min 0,000 mm 1,2 UV-I 76 W/m 18,1 C 4,8 km/h (1 Bft)
31.08.2016 17:10 21,7 C 21,7 C 80 % 1018,3 hPa 0,0 mm 1,5 km/h (1 Bft) O-NO 78 0 min 0,000 mm 1,2 UV-I 76 W/m 18,1 C 3,2 km/h (1 Bft)
31.08.2016 17:11 21,7 C 21,7 C 79 % 1018,3 hPa 0,0 mm 3,0 km/h (1 Bft) O 91 0 min 0,000 mm 1,2 UV-I 74 W/m 17,9 C 4,8 km/h (1 Bft)
31.08.2016 17:12 21,7 C 21,7 C 78 % 1018,3 hPa 0,0 mm 1,2 km/h (1 Bft) O 91 0 min 0,000 mm 1,1 UV-I 67 W/m 17,7 C 3,2 km/h (1 Bft)
31.08.2016 17:13 21,7 C 21,7 C 80 % 1018,3 hPa 0,0 mm 3,8 km/h (1 Bft) O 94 0 min 0,000 mm 1,1 UV-I 60 W/m 18,1 C 6,4 km/h (2 Bft)
31.08.2016 17:14 21,6 C 21,7 C 80 % 1018,4 hPa 0,0 mm 1,4 km/h (1 Bft) O 94 0 min 0,000 mm 1,1 UV-I 56 W/m 18,0 C 4,8 km/h (1 Bft)
31.08.2016 17:15 21,5 C 21,6 C 80 % 1018,4 hPa 0,0 mm 3,0 km/h (1 Bft) O 101 0 min 0,000 mm 1,1 UV-I 58 W/m 17,9 C 4,8 km/h (1 Bft)
31.08.2016 17:16 21,4 C 21,5 C 80 % 1018,4 hPa 0,0 mm 2,2 km/h (1 Bft) O 101 0 min 0,000 mm 1,1 UV-I 63 W/m 17,8 C 3,2 km/h (1 Bft)
31.08.2016 17:17 21,3 C 21,4 C 80 % 1018,4 hPa 0,0 mm 1,9 km/h (1 Bft) O 101 0 min 0,000 mm 1,1 UV-I 74 W/m 17,7 C 3,2 km/h (1 Bft)
31.08.2016 17:18 21,3 C 21,3 C 81 % 1018,4 hPa 0,0 mm 2,0 km/h (1 Bft) S-SO 150 0 min 0,000 mm 1,1 UV-I 83 W/m 17,9 C 3,2 km/h (1 Bft)
31.08.2016 17:19 21,3 C 21,3 C 82 % 1018,4 hPa 0,0 mm 2,7 km/h (1 Bft) S-SO 149 0 min 0,000 mm 1,1 UV-I 69 W/m 18,1 C 4,8 km/h (1 Bft)
31.08.2016 17:20 21,3 C 21,3 C 81 % 1018,3 hPa 0,0 mm 1,4 km/h (1 Bft) S-SO 149 0 min 0,000 mm 1,1 UV-I 65 W/m 17,9 C 3,2 km/h (1 Bft)
31.08.2016 17:21 21,3 C 21,3 C 80 % 1018,3 hPa 0,0 mm 1,0 km/h (0 Bft) S-SO 149 0 min 0,000 mm 1,1 UV-I 62 W/m 17,7 C 3,2 km/h (1 Bft)
31.08.2016 17:22 21,2 C 21,3 C 83 % 1018,3 hPa 0,0 mm 1,7 km/h (1 Bft) S-SO 149 0 min 0,000 mm 1,1 UV-I 62 W/m 18,2 C 3,2 km/h (1 Bft)
31.08.2016 17:23 21,2 C 21,2 C 82 % 1018,3 hPa 0,0 mm 1,1 km/h (1 Bft) O-NO 78 0 min 0,000 mm 1,2 UV-I 74 W/m 18,0 C 3,2 km/h (1 Bft)
31.08.2016 17:24 21,1 C 21,2 C 84 % 1018,3 hPa 0,0 mm 2,3 km/h (1 Bft) O-NO 78 0 min 0,000 mm 1,2 UV-I 83 W/m 18,3 C 3,2 km/h (1 Bft)
31.08.2016 17:25 21,1 C 21,1 C 83 % 1018,3 hPa 0,0 mm 0,5 km/h (0 Bft) O-NO 78 0 min 0,000 mm 1,2 UV-I 100 W/m 18,1 C 1,6 km/h (1 Bft)
31.08.2016 17:26 21,1 C 21,1 C 82 % 1018,3 hPa 0,0 mm 0,3 km/h (0 Bft) O-NO 78 0 min 0,000 mm 1,3 UV-I 104 W/m 17,9 C 1,6 km/h (1 Bft)
31.08.2016 17:27 21,2 C 21,2 C 81 % 1018,3 hPa 0,0 mm 0,4 km/h (0 Bft) O-NO 78 0 min 0,000 mm 1,3 UV-I 102 W/m 17,8 C 3,2 km/h (1 Bft)
31.08.2016 17:28 21,3 C 21,3 C 83 % 1018,3 hPa 0,0 mm 1,9 km/h (1 Bft) O 80 0 min 0,000 mm 1,3 UV-I 102 W/m 18,3 C 4,8 km/h (1 Bft)
31.08.2016 17:29 21,4 C 21,4 C 81 % 1018,3 hPa 0,0 mm 1,6 km/h (1 Bft) O 80 0 min 0,000 mm 1,2 UV-I 102 W/m 18,0 C 3,2 km/h (1 Bft)
31.08.2016 17:30 21,4 C 21,4 C 84 % 1018,3 hPa 0,0 mm 0,3 km/h (0 Bft) O 80 0 min 0,000 mm 1,2 UV-I 88 W/m 18,6 C 1,6 km/h (1 Bft)
31.08.2016 17:31 21,6 C 21,6 C 81 % 1018,2 hPa 0,0 mm 0,7 km/h (0 Bft) O 80 0 min 0,000 mm 1,2 UV-I 76 W/m 18,2 C 3,2 km/h (1 Bft)
31.08.2016 17:32 21,6 C 21,6 C 83 % 1018,2 hPa 0,0 mm 5,2 km/h (1 Bft) NO 39 0 min 0,000 mm 1,1 UV-I 70 W/m 18,6 C 6,4 km/h (2 Bft)
31.08.2016 17:33 21,7 C 21,7 C 81 % 1018,2 hPa 0,0 mm 3,0 km/h (1 Bft) NO 52 0 min 0,000 mm 1,0 UV-I 58 W/m 18,3 C 4,8 km/h (1 Bft)
31.08.2016 17:34 21,7 C 21,7 C 81 % 1018,2 hPa 0,0 mm 2,1 km/h (1 Bft) NO 52 0 min 0,000 mm 0,0 UV-I 46 W/m 18,3 C 3,2 km/h (1 Bft)
31.08.2016 17:35 21,7 C 21,7 C 82 % 1018,2 hPa 0,0 mm 2,3 km/h (1 Bft) NO 52 0 min 0,000 mm 0,0 UV-I 40 W/m 18,5 C 3,2 km/h (1 Bft)
31.08.2016 17:36 21,6 C 21,7 C 82 % 1018,3 hPa 0,0 mm 0,5 km/h (0 Bft) NO 52 0 min 0,000 mm 0,0 UV-I 37 W/m 18,4 C 1,6 km/h (1 Bft)
31.08.2016 17:37 21,6 C 21,6 C 81 % 1018,3 hPa 0,0 mm 1,5 km/h (1 Bft) NO 52 0 min 0,000 mm 0,0 UV-I 37 W/m 18,2 C 3,2 km/h (1 Bft)
31.08.2016 17:38 21,4 C 21,6 C 82 % 1018,3 hPa 0,0 mm 0,3 km/h (0 Bft) NO 52 0 min 0,000 mm 0,0 UV-I 37 W/m 18,2 C 1,6 km/h (1 Bft)
31.08.2016 17:39 21,3 C 21,4 C 82 % 1018,3 hPa 0,0 mm 0,1 km/h (0 Bft) NO 52 0 min 0,000 mm 0,0 UV-I 37 W/m 18,1 C 1,6 km/h (1 Bft)
31.08.2016 17:40 21,3 C 21,3 C 81 % 1018,3 hPa 0,0 mm 0,6 km/h (0 Bft) NO 52 0 min 0,000 mm 0,0 UV-I 40 W/m 17,9 C 1,6 km/h (1 Bft)
31.08.2016 17:41 21,3 C 21,3 C 81 % 1018,3 hPa 0,0 mm 1,6 km/h (1 Bft) NO 52 0 min 0,000 mm 0,0 UV-I 42 W/m 17,9 C 3,2 km/h (1 Bft)
31.08.2016 17:42 21,3 C 21,3 C 81 % 1018,3 hPa 0,0 mm 1,1 km/h (1 Bft) NO 52 0 min 0,000 mm 0,0 UV-I 44 W/m 17,9 C 3,2 km/h (1 Bft)
31.08.2016 17:43 21,3 C 21,3 C 80 % 1018,3 hPa 0,0 mm 0,9 km/h (0 Bft) NO 52 0 min 0,000 mm 0,0 UV-I 49 W/m 17,7 C 1,6 km/h (1 Bft)
31.08.2016 17:44 21,3 C 21,3 C 81 % 1018,3 hPa 0,0 mm 1,1 km/h (1 Bft) NO 52 0 min 0,000 mm 0,0 UV-I 47 W/m 17,9 C 1,6 km/h (1 Bft)
31.08.2016 17:45 21,2 C 21,3 C 81 % 1018,3 hPa 0,0 mm 0,6 km/h (0 Bft) NO 52 0 min 0,000 mm 0,0 UV-I 47 W/m 17,8 C 1,6 km/h (1 Bft)
31.08.2016 17:46 21,2 C 21,2 C 82 % 1018,3 hPa 0,0 mm 0,4 km/h (0 Bft) NO 52 0 min 0,000 mm 0,0 UV-I 49 W/m 18,0 C 1,6 km/h (1 Bft)
31.08.2016 17:47 21,1 C 21,2 C 82 % 1018,3 hPa 0,0 mm 0,5 km/h (0 Bft) NO 52 0 min 0,000 mm 0,0 UV-I 47 W/m 17,9 C 1,6 km/h (1 Bft)
31.08.2016 17:48 21,1 C 21,1 C 83 % 1018,3 hPa 0,0 mm 0,9 km/h (0 Bft) NO 52 0 min 0,000 mm 0,0 UV-I 49 W/m 18,1 C 1,6 km/h (1 Bft)
31.08.2016 17:49 21,1 C 21,1 C 83 % 1018,3 hPa 0,0 mm 0,8 km/h (0 Bft) NO 52 0 min 0,000 mm 0,0 UV-I 54 W/m 18,1 C 1,6 km/h (1 Bft)
31.08.2016 17:50 21,0 C 21,1 C 83 % 1018,3 hPa 0,0 mm 0,2 km/h (0 Bft) NO 52 0 min 0,000 mm 0,7 UV-I 67 W/m 18,0 C 1,6 km/h (1 Bft)
31.08.2016 17:51 21,0 C 21,0 C 84 % 1018,3 hPa 0,0 mm 0,8 km/h (0 Bft) NO 52 0 min 0,000 mm 0,7 UV-I 70 W/m 18,2 C 1,6 km/h (1 Bft)
31.08.2016 17:52 21,0 C 21,0 C 82 % 1018,3 hPa 0,0 mm 0,4 km/h (0 Bft) NO 52 0 min 0,000 mm 0,7 UV-I 67 W/m 17,8 C 1,6 km/h (1 Bft)
31.08.2016 17:53 21,1 C 21,1 C 82 % 1018,3 hPa 0,0 mm 0,5 km/h (0 Bft) NO 52 0 min 0,000 mm 0,7 UV-I 67 W/m 17,9 C 1,6 km/h (1 Bft)
31.08.2016 17:54 21,2 C 21,2 C 82 % 1018,2 hPa 0,0 mm 1,4 km/h (1 Bft) NO 52 0 min 0,000 mm 0,7 UV-I 70 W/m 18,0 C 3,2 km/h (1 Bft)
31.08.2016 17:55 21,2 C 21,2 C 82 % 1018,2 hPa 0,0 mm 1,1 km/h (1 Bft) NO 52 0 min 0,000 mm 0,7 UV-I 70 W/m 18,0 C 1,6 km/h (1 Bft)
31.08.2016 17:56 21,2 C 21,2 C 81 % 1018,2 hPa 0,0 mm 0,1 km/h (0 Bft) NO 52 0 min 0,000 mm 0,7 UV-I 69 W/m 17,8 C 1,6 km/h (1 Bft)
31.08.2016 17:57 21,3 C 21,3 C 81 % 1018,3 hPa 0,0 mm 0,0 km/h (0 Bft) NO 52 0 min 0,000 mm 0,6 UV-I 65 W/m 17,9 C 0,0 km/h (0 Bft)
31.08.2016 17:58 21,3 C 21,3 C 83 % 1018,2 hPa 0,0 mm 1,5 km/h (1 Bft) NO 52 0 min 0,000 mm 0,7 UV-I 67 W/m 18,3 C 3,2 km/h (1 Bft)
31.08.2016 17:59 21,2 C 21,3 C 82 % 1018,3 hPa 0,0 mm 0,8 km/h (0 Bft) NO 52 0 min 0,000 mm 0,7 UV-I 69 W/m 18,0 C 1,6 km/h (1 Bft)
31.08.2016 18:00 21,2 C 21,2 C 82 % 1018,3 hPa 0,0 mm 0,0 km/h (0 Bft) NO 52 0 min 0,000 mm 0,7 UV-I 77 W/m 18,0 C 0,0 km/h (0 Bft)
31.08.2016 18:01 21,2 C 21,2 C 82 % 1018,3 hPa 0,0 mm 0,0 km/h (0 Bft) NO 52 0 min 0,051 mm 0,6 UV-I 76 W/m 18,0 C 0,0 km/h (0 Bft)
31.08.2016 18:02 21,2 C 21,2 C 83 % 1018,3 hPa 0,0 mm 0,0 km/h (0 Bft) NO 52 0 min 0,000 mm 0,6 UV-I 76 W/m 18,2 C 0,0 km/h (0 Bft)
31.08.2016 18:03 21,2 C 21,2 C 84 % 1018,3 hPa 0,0 mm 0,1 km/h (0 Bft) NO 52 0 min 0,000 mm 0,6 UV-I 70 W/m 18,4 C 1,6 km/h (1 Bft)
31.08.2016 18:04 21,1 C 21,2 C 84 % 1018,3 hPa 0,0 mm 1,5 km/h (1 Bft) NO 52 0 min 0,000 mm 0,7 UV-I 67 W/m 18,3 C 3,2 km/h (1 Bft)
31.08.2016 18:05 21,1 C 21,1 C 83 % 1018,3 hPa 0,0 mm 1,3 km/h (1 Bft) NO 52 0 min 0,000 mm 0,7 UV-I 72 W/m 18,1 C 3,2 km/h (1 Bft)
31.08.2016 18:06 21,0 C 21,1 C 84 % 1018,4 hPa 0,0 mm 0,8 km/h (0 Bft) NO 52 0 min 0,000 mm 0,7 UV-I 72 W/m 18,2 C 1,6 km/h (1 Bft)
31.08.2016 18:07 21,0 C 21,0 C 83 % 1018,3 hPa 0,0 mm 0,5 km/h (0 Bft) NO 52 0 min 0,000 mm 0,7 UV-I 67 W/m 18,0 C 1,6 km/h (1 Bft)
31.08.2016 18:08 20,9 C 21,0 C 84 % 1018,3 hPa 0,0 mm 1,9 km/h (1 Bft) NO 52 0 min 0,000 mm 0,7 UV-I 60 W/m 18,1 C 3,2 km/h (1 Bft)
31.08.2016 18:09 20,9 C 20,9 C 84 % 1018,3 hPa 0,0 mm 1,1 km/h (1 Bft) NO 52 0 min 0,000 mm 0,0 UV-I 53 W/m 18,1 C 3,2 km/h (1 Bft)
31.08.2016 18:10 20,8 C 20,9 C 85 % 1018,3 hPa 0,0 mm 0,6 km/h (0 Bft) NO 52 0 min 0,000 mm 0,0 UV-I 47 W/m 18,2 C 1,6 km/h (1 Bft)
31.08.2016 18:11 20,8 C 20,8 C 84 % 1018,3 hPa 0,0 mm 0,1 km/h (0 Bft) NO 52 0 min 0,000 mm 0,0 UV-I 46 W/m 18,0 C 1,6 km/h (1 Bft)
31.08.2016 18:12 20,8 C 20,8 C 84 % 1018,3 hPa 0,0 mm 0,1 km/h (0 Bft) NO 52 0 min 0,000 mm 0,0 UV-I 49 W/m 18,0 C 1,6 km/h (1 Bft)
31.08.2016 18:13 20,8 C 20,8 C 84 % 1018,2 hPa 0,0 mm 0,1 km/h (0 Bft) NO 52 0 min 0,000 mm 0,0 UV-I 49 W/m 18,0 C 1,6 km/h (1 Bft)
31.08.2016 18:14 20,7 C 20,8 C 85 % 1018,3 hPa 0,0 mm 0,0 km/h (0 Bft) NO 52 0 min 0,000 mm 0,0 UV-I 49 W/m 18,1 C 0,0 km/h (0 Bft)
31.08.2016 18:15 20,7 C 20,7 C 85 % 1018,3 hPa 0,0 mm 0,2 km/h (0 Bft) NO 52 0 min 0,000 mm 0,0 UV-I 47 W/m 18,1 C 1,6 km/h (1 Bft)
31.08.2016 18:16 20,7 C 20,7 C 85 % 1018,2 hPa 0,0 mm 0,7 km/h (0 Bft) NO 52 0 min 0,000 mm 0,0 UV-I 46 W/m 18,1 C 1,6 km/h (1 Bft)
31.08.2016 18:17 20,6 C 20,7 C 85 % 1018,2 hPa 0,0 mm 0,0 km/h (0 Bft) NO 52 0 min 0,000 mm 0,0 UV-I 49 W/m 18,0 C 0,0 km/h (0 Bft)
31.08.2016 18:18 20,6 C 20,6 C 85 % 1018,2 hPa 0,0 mm 0,0 km/h (0 Bft) NO 52 0 min 0,000 mm 0,0 UV-I 51 W/m 18,0 C 0,0 km/h (0 Bft)
31.08.2016 18:19 20,5 C 20,6 C 86 % 1018,2 hPa 0,0 mm 0,5 km/h (0 Bft) NO 52 0 min 0,000 mm 0,0 UV-I 53 W/m 18,1 C 1,6 km/h (1 Bft)
31.08.2016 18:20 20,5 C 20,5 C 85 % 1018,2 hPa 0,0 mm 0,6 km/h (0 Bft) NO 52 0 min 0,000 mm 0,0 UV-I 53 W/m 17,9 C 1,6 km/h (1 Bft)
31.08.2016 18:21 20,4 C 20,5 C 86 % 1018,2 hPa 0,0 mm 0,7 km/h (0 Bft) NO 52 0 min 0,000 mm 0,7 UV-I 56 W/m 18,0 C 1,6 km/h (1 Bft)
31.08.2016 18:22 20,5 C 20,5 C 85 % 1018,2 hPa 0,0 mm 0,1 km/h (0 Bft) NO 52 0 min 0,000 mm 0,7 UV-I 60 W/m 17,9 C 1,6 km/h (1 Bft)
31.08.2016 18:23 20,4 C 20,5 C 85 % 1018,2 hPa 0,0 mm 1,4 km/h (1 Bft) NO 52 0 min 0,000 mm 0,7 UV-I 74 W/m 17,8 C 1,6 km/h (1 Bft)
31.08.2016 18:24 20,4 C 20,4 C 85 % 1018,2 hPa 0,0 mm 0,5 km/h (0 Bft) NO 52 0 min 0,000 mm 0,7 UV-I 81 W/m 17,8 C 1,6 km/h (1 Bft)
31.08.2016 18:25 20,5 C 20,5 C 85 % 1018,3 hPa 0,0 mm 0,1 km/h (0 Bft) NO 52 0 min 0,000 mm 0,7 UV-I 84 W/m 17,9 C 1,6 km/h (1 Bft)
31.08.2016 18:26 20,6 C 20,6 C 85 % 1018,2 hPa 0,0 mm 0,1 km/h (0 Bft) NO 52 0 min 0,000 mm 0,7 UV-I 84 W/m 18,0 C 1,6 km/h (1 Bft)
31.08.2016 18:27 20,6 C 20,6 C 85 % 1018,3 hPa 0,0 mm 0,1 km/h (0 Bft) NO 52 0 min 0,000 mm 0,7 UV-I 83 W/m 18,0 C 1,6 km/h (1 Bft)
31.08.2016 18:28 20,7 C 20,7 C 84 % 1018,3 hPa 0,0 mm 0,1 km/h (0 Bft) NO 52 0 min 0,000 mm 0,7 UV-I 81 W/m 17,9 C 1,6 km/h (1 Bft)
31.08.2016 18:29 20,7 C 20,7 C 85 % 1018,3 hPa 0,0 mm 0,0 km/h (0 Bft) NO 52 0 min 0,000 mm 0,6 UV-I 63 W/m 18,1 C 0,0 km/h (0 Bft)
31.08.2016 18:30 20,7 C 20,7 C 85 % 1018,2 hPa 0,0 mm 0,1 km/h (0 Bft) NO 52 0 min 0,000 mm 0,6 UV-I 58 W/m 18,1 C 1,6 km/h (1 Bft)
31.08.2016 18:31 20,7 C 20,7 C 84 % 1018,2 hPa 0,0 mm 0,5 km/h (0 Bft) NO 52 0 min 0,000 mm 0,0 UV-I 51 W/m 17,9 C 1,6 km/h (1 Bft)
31.08.2016 18:32 20,7 C 20,7 C 86 % 1018,2 hPa 0,0 mm 0,0 km/h (0 Bft) NO 52 0 min 0,000 mm 0,0 UV-I 49 W/m 18,3 C 0,0 km/h (0 Bft)
31.08.2016 18:33 20,7 C 20,7 C 86 % 1018,2 hPa 0,0 mm 0,0 km/h (0 Bft) NO 52 0 min 0,000 mm 0,0 UV-I 49 W/m 18,3 C 0,0 km/h (0 Bft)
31.08.2016 18:34 20,6 C 20,7 C 85 % 1018,2 hPa 0,0 mm 0,0 km/h (0 Bft) NO 52 0 min 0,000 mm 0,0 UV-I 53 W/m 18,0 C 0,0 km/h (0 Bft)
31.08.2016 18:35 20,6 C 20,6 C 85 % 1018,2 hPa 0,0 mm 0,2 km/h (0 Bft) NO 52 0 min 0,000 mm 0,0 UV-I 49 W/m 18,0 C 1,6 km/h (1 Bft)
31.08.2016 18:36 20,6 C 20,6 C 84 % 1018,3 hPa 0,0 mm 0,4 km/h (0 Bft) NO 52 0 min 0,000 mm 0,0 UV-I 49 W/m 17,8 C 1,6 km/h (1 Bft)
31.08.2016 18:37 20,6 C 20,6 C 84 % 1018,2 hPa 0,0 mm 0,6 km/h (0 Bft) NO 52 0 min 0,000 mm 0,0 UV-I 53 W/m 17,8 C 1,6 km/h (1 Bft)
31.08.2016 18:38 20,6 C 20,6 C 84 % 1018,2 hPa 0,0 mm 0,3 km/h (0 Bft) NO 52 0 min 0,000 mm 0,0 UV-I 54 W/m 17,8 C 1,6 km/h (1 Bft)
31.08.2016 18:39 20,7 C 20,7 C 84 % 1018,2 hPa 0,0 mm 0,7 km/h (0 Bft) NO 52 0 min 0,000 mm 0,0 UV-I 54 W/m 17,9 C 1,6 km/h (1 Bft)
31.08.2016 18:40 20,7 C 20,7 C 84 % 1018,2 hPa 0,0 mm 1,2 km/h (1 Bft) NO 52 0 min 0,000 mm 0,0 UV-I 53 W/m 17,9 C 1,6 km/h (1 Bft)
31.08.2016 18:41 20,7 C 20,7 C 85 % 1018,2 hPa 0,0 mm 1,3 km/h (1 Bft) NO 52 0 min 0,000 mm 0,0 UV-I 44 W/m 18,1 C 3,2 km/h (1 Bft)
31.08.2016 18:42 20,7 C 20,7 C 84 % 1018,1 hPa 0,0 mm 1,3 km/h (1 Bft) NO 52 0 min 0,000 mm 0,0 UV-I 44 W/m 17,9 C 3,2 km/h (1 Bft)
31.08.2016 18:43 20,6 C 20,7 C 84 % 1018,0 hPa 0,0 mm 0,3 km/h (0 Bft) NO 52 0 min 0,000 mm 0,0 UV-I 42 W/m 17,8 C 1,6 km/h (1 Bft)
31.08.2016 18:44 20,6 C 20,7 C 84 % 1018,0 hPa 0,0 mm 0,9 km/h (0 Bft) NO 52 0 min 0,000 mm 0,0 UV-I 42 W/m 17,8 C 1,6 km/h (1 Bft)
31.08.2016 18:45 20,6 C 20,7 C 83 % 1018,0 hPa 0,0 mm 0,1 km/h (0 Bft) NO 52 0 min 0,000 mm 0,0 UV-I 42 W/m 17,6 C 1,6 km/h (1 Bft)
31.08.2016 18:46 20,7 C 20,7 C 83 % 1018,0 hPa 0,0 mm 0,5 km/h (0 Bft) NO 52 0 min 0,000 mm 0,0 UV-I 40 W/m 17,7 C 1,6 km/h (1 Bft)
31.08.2016 18:47 20,6 C 20,7 C 83 % 1018,0 hPa 0,0 mm 0,5 km/h (0 Bft) NO 52 0 min 0,000 mm 0,0 UV-I 40 W/m 17,6 C 1,6 km/h (1 Bft)
31.08.2016 18:48 20,6 C 20,7 C 83 % 1018,0 hPa 0,0 mm 0,3 km/h (0 Bft) NO 52 0 min 0,000 mm 0,0 UV-I 42 W/m 17,6 C 1,6 km/h (1 Bft)
31.08.2016 18:49 20,6 C 20,7 C 84 % 1018,0 hPa 0,0 mm 0,2 km/h (0 Bft) NO 52 0 min 0,000 mm 0,0 UV-I 40 W/m 17,8 C 1,6 km/h (1 Bft)
31.08.2016 18:50 20,6 C 20,6 C 84 % 1018,0 hPa 0,0 mm 0,3 km/h (0 Bft) NO 52 0 min 0,000 mm 0,0 UV-I 40 W/m 17,8 C 1,6 km/h (1 Bft)
31.08.2016 18:51 20,6 C 20,6 C 84 % 1018,1 hPa 0,0 mm 0,5 km/h (0 Bft) NO 52 0 min 0,000 mm 0,0 UV-I 39 W/m 17,8 C 1,6 km/h (1 Bft)
31.08.2016 18:52 20,6 C 20,6 C 84 % 1018,0 hPa 0,0 mm 1,1 km/h (1 Bft) NO 52 0 min 0,000 mm 0,0 UV-I 39 W/m 17,8 C 1,6 km/h (1 Bft)
31.08.2016 18:53 20,6 C 20,6 C 83 % 1018,0 hPa 0,0 mm 1,0 km/h (0 Bft) NO 52 0 min 0,000 mm 0,0 UV-I 39 W/m 17,6 C 1,6 km/h (1 Bft)
31.08.2016 18:54 20,6 C 20,6 C 84 % 1018,0 hPa 0,0 mm 0,4 km/h (0 Bft) NO 52 0 min 0,000 mm 0,0 UV-I 39 W/m 17,8 C 1,6 km/h (1 Bft)
31.08.2016 18:55 20,6 C 20,6 C 84 % 1018,0 hPa 0,0 mm 0,0 km/h (0 Bft) NO 52 0 min 0,000 mm 0,0 UV-I 40 W/m 17,8 C 0,0 km/h (0 Bft)
31.08.2016 18:56 20,6 C 20,6 C 83 % 1018,0 hPa 0,0 mm 0,2 km/h (0 Bft) NO 52 0 min 0,000 mm 0,0 UV-I 42 W/m 17,6 C 1,6 km/h (1 Bft)
31.08.2016 18:57 20,6 C 20,6 C 83 % 1018,0 hPa 0,0 mm 0,7 km/h (0 Bft) NO 52 0 min 0,000 mm 0,0 UV-I 42 W/m 17,6 C 1,6 km/h (1 Bft)
31.08.2016 18:58 20,6 C 20,7 C 83 % 1018,1 hPa 0,0 mm 0,9 km/h (0 Bft) NO 52 0 min 0,000 mm 0,0 UV-I 37 W/m 17,6 C 1,6 km/h (1 Bft)
31.08.2016 18:59 20,7 C 20,7 C 83 % 1018,1 hPa 0,0 mm 1,0 km/h (0 Bft) NO 52 0 min 0,000 mm 0,0 UV-I 35 W/m 17,7 C 1,6 km/h (1 Bft)
31.08.2016 19:00 20,6 C 20,7 C 84 % 1018,0 hPa 0,0 mm 0,7 km/h (0 Bft) NO 52 0 min 0,000 mm 0,0 UV-I 35 W/m 17,8 C 1,6 km/h (1 Bft)
31.08.2016 19:01 20,6 C 20,6 C 84 % 1018,0 hPa 0,0 mm 0,6 km/h (0 Bft) NO 52 0 min 0,025 mm 0,0 UV-I 39 W/m 17,8 C 1,6 km/h (1 Bft)
31.08.2016 19:02 20,6 C 20,6 C 83 % 1018,1 hPa 0,0 mm 1,4 km/h (1 Bft) NO 52 0 min 0,000 mm 0,0 UV-I 39 W/m 17,6 C 3,2 km/h (1 Bft)
31.08.2016 19:03 20,5 C 20,6 C 83 % 1018,1 hPa 0,0 mm 0,0 km/h (0 Bft) NO 52 0 min 0,000 mm 0,0 UV-I 47 W/m 17,5 C 0,0 km/h (0 Bft)
31.08.2016 19:04 20,5 C 20,5 C 83 % 1018,1 hPa 0,0 mm 0,0 km/h (0 Bft) NO 52 0 min 0,000 mm 0,0 UV-I 26 W/m 17,5 C 0,0 km/h (0 Bft)
31.08.2016 19:05 20,4 C 20,5 C 83 % 1018,1 hPa 0,0 mm 0,1 km/h (0 Bft) NO 52 0 min 0,000 mm 0,0 UV-I 25 W/m 17,4 C 1,6 km/h (1 Bft)
31.08.2016 19:06 20,4 C 20,5 C 82 % 1018,1 hPa 0,0 mm 1,1 km/h (1 Bft) NO 52 0 min 0,000 mm 0,0 UV-I 25 W/m 17,2 C 3,2 km/h (1 Bft)
31.08.2016 19:07 20,4 C 20,5 C 83 % 1018,0 hPa 0,0 mm 2,4 km/h (1 Bft) NO 52 0 min 0,000 mm 0,0 UV-I 25 W/m 17,4 C 3,2 km/h (1 Bft)
31.08.2016 19:08 20,4 C 20,4 C 83 % 1018,1 hPa 0,0 mm 2,5 km/h (1 Bft) NO 52 0 min 0,000 mm 0,0 UV-I 25 W/m 17,4 C 3,2 km/h (1 Bft)
31.08.2016 19:09 20,3 C 20,4 C 84 % 1018,1 hPa 0,0 mm 3,1 km/h (1 Bft) O-NO 64 0 min 0,000 mm 0,0 UV-I 25 W/m 17,5 C 3,2 km/h (1 Bft)
31.08.2016 19:10 20,3 C 20,3 C 84 % 1018,0 hPa 0,0 mm 3,2 km/h (1 Bft) O-NO 64 0 min 0,000 mm 0,0 UV-I 23 W/m 17,5 C 3,2 km/h (1 Bft)
31.08.2016 19:11 20,2 C 20,3 C 84 % 1018,1 hPa 0,0 mm 3,2 km/h (1 Bft) O-NO 64 0 min 0,000 mm 0,0 UV-I 23 W/m 17,4 C 3,2 km/h (1 Bft)
31.08.2016 19:12 20,2 C 20,2 C 85 % 1018,1 hPa 0,0 mm 3,2 km/h (1 Bft) O-NO 64 0 min 0,000 mm 0,0 UV-I 23 W/m 17,6 C 3,2 km/h (1 Bft)
31.08.2016 19:13 20,2 C 20,2 C 85 % 1018,1 hPa 0,0 mm 2,8 km/h (1 Bft) O-NO 64 0 min 0,000 mm 0,0 UV-I 23 W/m 17,6 C 3,2 km/h (1 Bft)
31.08.2016 19:14 20,1 C 20,2 C 85 % 1018,1 hPa 0,0 mm 1,5 km/h (1 Bft) O-NO 64 0 min 0,000 mm 0,0 UV-I 23 W/m 17,5 C 3,2 km/h (1 Bft)
31.08.2016 19:15 20,1 C 20,1 C 85 % 1018,1 hPa 0,0 mm 1,9 km/h (1 Bft) O-NO 64 0 min 0,000 mm 0,0 UV-I 21 W/m 17,5 C 3,2 km/h (1 Bft)
31.08.2016 19:16 20,0 C 20,1 C 85 % 1018,1 hPa 0,0 mm 2,3 km/h (1 Bft) O-NO 64 0 min 0,000 mm 0,0 UV-I 23 W/m 17,4 C 3,2 km/h (1 Bft)
31.08.2016 19:17 19,9 C 20,0 C 86 % 1018,1 hPa 0,0 mm 1,7 km/h (1 Bft) O-NO 64 0 min 0,000 mm 0,0 UV-I 25 W/m 17,5 C 3,2 km/h (1 Bft)
31.08.2016 19:18 19,9 C 20,0 C 86 % 1018,0 hPa 0,0 mm 1,8 km/h (1 Bft) O-NO 64 0 min 0,000 mm 0,0 UV-I 21 W/m 17,5 C 3,2 km/h (1 Bft)
31.08.2016 19:19 19,9 C 19,9 C 86 % 1018,1 hPa 0,0 mm 1,8 km/h (1 Bft) O-NO 64 0 min 0,000 mm 0,0 UV-I 21 W/m 17,5 C 3,2 km/h (1 Bft)
31.08.2016 19:20 19,8 C 19,9 C 86 % 1018,1 hPa 0,0 mm 1,6 km/h (1 Bft) O-NO 64 0 min 0,000 mm 0,0 UV-I 23 W/m 17,4 C 1,6 km/h (1 Bft)
31.08.2016 19:21 19,8 C 19,8 C 86 % 1018,1 hPa 0,0 mm 2,0 km/h (1 Bft) O-NO 64 0 min 0,000 mm 0,0 UV-I 23 W/m 17,4 C 3,2 km/h (1 Bft)
31.08.2016 19:22 19,7 C 19,8 C 86 % 1018,2 hPa 0,0 mm 0,9 km/h (0 Bft) O-NO 64 0 min 0,000 mm 0,0 UV-I 23 W/m 17,3 C 1,6 km/h (1 Bft)
31.08.2016 19:23 19,7 C 19,7 C 86 % 1018,0 hPa 0,0 mm 1,9 km/h (1 Bft) O-NO 64 0 min 0,000 mm 0,0 UV-I 23 W/m 17,3 C 3,2 km/h (1 Bft)
31.08.2016 19:24 19,7 C 19,7 C 87 % 1018,1 hPa 0,0 mm 1,8 km/h (1 Bft) O-NO 64 0 min 0,000 mm 0,0 UV-I 21 W/m 17,5 C 3,2 km/h (1 Bft)
31.08.2016 19:25 19,6 C 19,7 C 87 % 1018,1 hPa 0,0 mm 2,3 km/h (1 Bft) O-NO 64 0 min 0,000 mm 0,0 UV-I 21 W/m 17,4 C 3,2 km/h (1 Bft)
31.08.2016 19:26 19,6 C 19,6 C 87 % 1018,1 hPa 0,0 mm 1,7 km/h (1 Bft) O-NO 64 0 min 0,000 mm 0,0 UV-I 21 W/m 17,4 C 3,2 km/h (1 Bft)
31.08.2016 19:27 19,6 C 19,6 C 87 % 1018,2 hPa 0,0 mm 1,5 km/h (1 Bft) O-NO 64 0 min 0,000 mm 0,0 UV-I 19 W/m 17,4 C 3,2 km/h (1 Bft)
31.08.2016 19:28 19,5 C 19,6 C 87 % 1018,2 hPa 0,0 mm 1,5 km/h (1 Bft) O-NO 64 0 min 0,000 mm 0,0 UV-I 19 W/m 17,3 C 1,6 km/h (1 Bft)
31.08.2016 19:29 19,4 C 19,5 C 87 % 1018,2 hPa 0,0 mm 1,0 km/h (0 Bft) O-NO 64 0 min 0,000 mm 0,0 UV-I 19 W/m 17,2 C 1,6 km/h (1 Bft)
31.08.2016 19:30 19,4 C 19,4 C 87 % 1018,2 hPa 0,0 mm 1,9 km/h (1 Bft) O-NO 64 0 min 0,000 mm 0,0 UV-I 18 W/m 17,2 C 3,2 km/h (1 Bft)
31.08.2016 19:31 19,3 C 19,4 C 87 % 1018,3 hPa 0,0 mm 2,0 km/h (1 Bft) O-NO 64 0 min 0,000 mm 0,0 UV-I 18 W/m 17,1 C 3,2 km/h (1 Bft)
31.08.2016 19:32 19,3 C 19,3 C 88 % 1018,2 hPa 0,0 mm 1,7 km/h (1 Bft) O-NO 64 0 min 0,000 mm 0,0 UV-I 18 W/m 17,3 C 3,2 km/h (1 Bft)
31.08.2016 19:33 19,2 C 19,3 C 88 % 1018,2 hPa 0,0 mm 2,0 km/h (1 Bft) O-NO 64 0 min 0,000 mm 0,0 UV-I 16 W/m 17,2 C 3,2 km/h (1 Bft)
31.08.2016 19:34 19,1 C 19,2 C 88 % 1018,2 hPa 0,0 mm 1,4 km/h (1 Bft) O-NO 64 0 min 0,000 mm 0,0 UV-I 16 W/m 17,1 C 3,2 km/h (1 Bft)
31.08.2016 19:35 19,0 C 19,1 C 89 % 1018,3 hPa 0,0 mm 1,3 km/h (1 Bft) O-NO 64 0 min 0,000 mm 0,0 UV-I 16 W/m 17,1 C 1,6 km/h (1 Bft)
31.08.2016 19:36 18,9 C 19,1 C 89 % 1018,2 hPa 0,0 mm 1,3 km/h (1 Bft) O-NO 64 0 min 0,000 mm 0,0 UV-I 16 W/m 17,0 C 3,2 km/h (1 Bft)
31.08.2016 19:37 18,9 C 18,9 C 89 % 1018,2 hPa 0,0 mm 1,6 km/h (1 Bft) O-NO 64 0 min 0,000 mm 0,0 UV-I 16 W/m 17,0 C 1,6 km/h (1 Bft)
31.08.2016 19:38 18,8 C 18,9 C 89 % 1018,2 hPa 0,0 mm 1,3 km/h (1 Bft) O-NO 64 0 min 0,000 mm 0,0 UV-I 14 W/m 16,9 C 3,2 km/h (1 Bft)
31.08.2016 19:39 18,8 C 18,8 C 89 % 1018,2 hPa 0,0 mm 2,1 km/h (1 Bft) O-NO 64 0 min 0,000 mm 0,0 UV-I 14 W/m 16,9 C 3,2 km/h (1 Bft)
31.08.2016 19:40 18,7 C 18,8 C 90 % 1018,2 hPa 0,0 mm 1,7 km/h (1 Bft) O-NO 64 0 min 0,000 mm 0,0 UV-I 12 W/m 17,0 C 3,2 km/h (1 Bft)
31.08.2016 19:41 18,7 C 18,7 C 90 % 1018,2 hPa 0,0 mm 1,3 km/h (1 Bft) O-NO 64 0 min 0,000 mm 0,0 UV-I 12 W/m 17,0 C 1,6 km/h (1 Bft)
31.08.2016 19:42 18,6 C 18,7 C 90 % 1018,2 hPa 0,0 mm 0,5 km/h (0 Bft) O-NO 64 0 min 0,000 mm 0,0 UV-I 12 W/m 16,9 C 3,2 km/h (1 Bft)
31.08.2016 19:43 18,6 C 18,6 C 90 % 1018,2 hPa 0,0 mm 0,0 km/h (0 Bft) O-NO 64 0 min 0,000 mm 0,0 UV-I 12 W/m 16,9 C 0,0 km/h (0 Bft)
31.08.2016 19:44 18,4 C 18,6 C 89 % 1018,2 hPa 0,0 mm 0,0 km/h (0 Bft) O-NO 64 0 min 0,000 mm 0,0 UV-I 11 W/m 16,6 C 0,0 km/h (0 Bft)
31.08.2016 19:45 18,3 C 18,4 C 90 % 1018,2 hPa 0,0 mm 0,0 km/h (0 Bft) O-NO 64 0 min 0,000 mm 0,0 UV-I 11 W/m 16,6 C 0,0 km/h (0 Bft)
31.08.2016 19:46 18,3 C 18,3 C 90 % 1018,2 hPa 0,0 mm 0,0 km/h (0 Bft) O-NO 64 1 min 0,000 mm 0,0 UV-I 11 W/m 16,6 C 0,0 km/h (0 Bft)
31.08.2016 19:47 18,2 C 18,3 C 91 % 1018,2 hPa 0,0 mm 0,0 km/h (0 Bft) O-NO 64 0 min 0,000 mm 0,0 UV-I 9 W/m 16,7 C 0,0 km/h (0 Bft)
31.08.2016 19:48 18,2 C 18,2 C 91 % 1018,3 hPa 0,0 mm 0,0 km/h (0 Bft) O-NO 64 0 min 0,000 mm 0,0 UV-I 9 W/m 16,7 C 0,0 km/h (0 Bft)
31.08.2016 19:49 18,2 C 18,2 C 91 % 1018,3 hPa 0,0 mm 0,0 km/h (0 Bft) O-NO 64 0 min 0,000 mm 0,0 UV-I 7 W/m 16,7 C 0,0 km/h (0 Bft)
31.08.2016 19:50 18,1 C 18,2 C 91 % 1018,3 hPa 0,0 mm 0,0 km/h (0 Bft) O-NO 64 0 min 0,000 mm 0,0 UV-I 7 W/m 16,6 C 0,0 km/h (0 Bft)
31.08.2016 19:51 18,1 C 18,1 C 91 % 1018,3 hPa 0,0 mm 0,0 km/h (0 Bft) O-NO 64 0 min 0,000 mm 0,0 UV-I 5 W/m 16,6 C 0,0 km/h (0 Bft)
31.08.2016 19:52 18,1 C 18,1 C 91 % 1018,3 hPa 0,0 mm 0,0 km/h (0 Bft) O-NO 64 0 min 0,000 mm 0,0 UV-I 5 W/m 16,6 C 0,0 km/h (0 Bft)
31.08.2016 19:53 18,0 C 18,1 C 91 % 1018,3 hPa 0,0 mm 0,0 km/h (0 Bft) O-NO 64 0 min 0,000 mm 0,0 UV-I 5 W/m 16,5 C 0,0 km/h (0 Bft)
31.08.2016 19:54 18,0 C 18,0 C 91 % 1018,4 hPa 0,0 mm 0,0 km/h (0 Bft) O-NO 64 0 min 0,000 mm 0,0 UV-I 5 W/m 16,5 C 0,0 km/h (0 Bft)
31.08.2016 19:55 17,9 C 18,0 C 91 % 1018,4 hPa 0,0 mm 0,0 km/h (0 Bft) O-NO 64 0 min 0,000 mm 0,0 UV-I 5 W/m 16,4 C 0,0 km/h (0 Bft)
31.08.2016 19:56 17,9 C 17,9 C 91 % 1018,4 hPa 0,0 mm 0,0 km/h (0 Bft) O-NO 64 0 min 0,000 mm 0,0 UV-I 5 W/m 16,4 C 0,0 km/h (0 Bft)
31.08.2016 19:57 17,9 C 17,9 C 91 % 1018,5 hPa 0,0 mm 0,0 km/h (0 Bft) O-NO 64 0 min 0,000 mm 0,0 UV-I 0 W/m 16,4 C 0,0 km/h (0 Bft)
31.08.2016 19:58 17,9 C 17,9 C 91 % 1018,4 hPa 0,0 mm 0,0 km/h (0 Bft) O-NO 64 0 min 0,000 mm 0,0 UV-I 0 W/m 16,4 C 0,0 km/h (0 Bft)
31.08.2016 19:59 17,9 C 17,9 C 91 % 1018,5 hPa 0,0 mm 0,0 km/h (0 Bft) O-NO 64 0 min 0,000 mm 0,0 UV-I 0 W/m 16,4 C 0,0 km/h (0 Bft)
31.08.2016 20:00 17,8 C 17,9 C 91 % 1018,5 hPa 0,0 mm 0,0 km/h (0 Bft) O-NO 64 0 min 0,000 mm 0,0 UV-I 0 W/m 16,3 C 0,0 km/h (0 Bft)
31.08.2016 20:01 17,8 C 17,8 C 91 % 1018,4 hPa 0,0 mm 0,0 km/h (0 Bft) O-NO 64 0 min 0,025 mm 0,0 UV-I 0 W/m 16,3 C 0,0 km/h (0 Bft)
31.08.2016 20:02 17,8 C 17,8 C 90 % 1018,4 hPa 0,0 mm 0,0 km/h (0 Bft) O-NO 64 0 min 0,001 mm 0,0 UV-I 0 W/m 16,1 C 0,0 km/h (0 Bft)
31.08.2016 20:03 17,7 C 17,8 C 91 % 1018,4 hPa 0,0 mm 0,0 km/h (0 Bft) O-NO 64 0 min 0,000 mm 0,0 UV-I 0 W/m 16,2 C 0,0 km/h (0 Bft)
31.08.2016 20:04 17,7 C 17,7 C 91 % 1018,5 hPa 0,0 mm 0,0 km/h (0 Bft) O-NO 64 0 min 0,000 mm 0,0 UV-I 0 W/m 16,2 C 0,0 km/h (0 Bft)
31.08.2016 20:05 17,7 C 17,7 C 91 % 1018,5 hPa 0,0 mm 0,0 km/h (0 Bft) O-NO 64 0 min 0,000 mm 0,0 UV-I 0 W/m 16,2 C 0,0 km/h (0 Bft)
31.08.2016 20:06 17,7 C 17,7 C 91 % 1018,5 hPa 0,0 mm 0,0 km/h (0 Bft) O-NO 64 0 min 0,000 mm 0,0 UV-I 0 W/m 16,2 C 0,0 km/h (0 Bft)
31.08.2016 20:07 17,7 C 17,7 C 91 % 1018,5 hPa 0,0 mm 0,0 km/h (0 Bft) O-NO 65 0 min 0,000 mm 0,0 UV-I 0 W/m 16,2 C 0,0 km/h (0 Bft)
31.08.2016 20:08 17,7 C 17,7 C 91 % 1018,5 hPa 0,0 mm 0,0 km/h (0 Bft) SO 146 0 min 0,000 mm 0,0 UV-I 0 W/m 16,2 C 0,0 km/h (0 Bft)
31.08.2016 20:09 17,7 C 17,7 C 91 % 1018,6 hPa 0,0 mm 0,0 km/h (0 Bft) SO 146 0 min 0,000 mm 0,0 UV-I 0 W/m 16,2 C 0,0 km/h (0 Bft)
31.08.2016 20:10 17,7 C 17,7 C 91 % 1018,6 hPa 0,0 mm 0,0 km/h (0 Bft) SO 146 0 min 0,000 mm 0,0 UV-I 0 W/m 16,2 C 0,0 km/h (0 Bft)
31.08.2016 20:11 17,7 C 17,7 C 91 % 1018,6 hPa 0,0 mm 0,0 km/h (0 Bft) SO 146 0 min 0,000 mm 0,0 UV-I 0 W/m 16,2 C 0,0 km/h (0 Bft)
31.08.2016 20:12 17,6 C 17,7 C 91 % 1018,6 hPa 0,0 mm 0,0 km/h (0 Bft) SO 146 0 min 0,000 mm 0,0 UV-I 0 W/m 16,1 C 0,0 km/h (0 Bft)
31.08.2016 20:13 17,6 C 17,6 C 91 % 1018,6 hPa 0,0 mm 0,0 km/h (0 Bft) SO 146 0 min 0,000 mm 0,0 UV-I 0 W/m 16,1 C 0,0 km/h (0 Bft)
31.08.2016 20:14 17,6 C 17,6 C 92 % 1018,7 hPa 0,0 mm 0,0 km/h (0 Bft) SO 146 0 min 0,000 mm 0,0 UV-I 0 W/m 16,3 C 0,0 km/h (0 Bft)
31.08.2016 20:15 17,6 C 17,6 C 92 % 1018,7 hPa 0,0 mm 0,0 km/h (0 Bft) SO 146 0 min 0,000 mm 0,0 UV-I 0 W/m 16,3 C 0,0 km/h (0 Bft)
31.08.2016 20:16 17,6 C 17,6 C 91 % 1018,7 hPa 0,0 mm 0,0 km/h (0 Bft) SO 146 0 min 0,000 mm 0,0 UV-I 0 W/m 16,1 C 0,0 km/h (0 Bft)
31.08.2016 20:17 17,6 C 17,6 C 92 % 1018,7 hPa 0,0 mm 0,0 km/h (0 Bft) SO 146 0 min 0,000 mm 0,0 UV-I 0 W/m 16,3 C 0,0 km/h (0 Bft)
31.08.2016 20:18 17,6 C 17,6 C 91 % 1018,7 hPa 0,0 mm 0,0 km/h (0 Bft) SO 146 0 min 0,000 mm 0,0 UV-I 0 W/m 16,1 C 0,0 km/h (0 Bft)
31.08.2016 20:19 17,6 C 17,6 C 92 % 1018,7 hPa 0,0 mm 0,0 km/h (0 Bft) SO 146 0 min 0,000 mm 0,0 UV-I 0 W/m 16,3 C 0,0 km/h (0 Bft)
31.08.2016 20:20 17,6 C 17,6 C 92 % 1018,7 hPa 0,0 mm 0,0 km/h (0 Bft) SO 146 0 min 0,000 mm 0,0 UV-I 0 W/m 16,3 C 0,0 km/h (0 Bft)
31.08.2016 20:21 17,6 C 17,6 C 91 % 1018,7 hPa 0,0 mm 0,0 km/h (0 Bft) SO 146 0 min 0,000 mm 0,0 UV-I 0 W/m 16,1 C 0,0 km/h (0 Bft)
31.08.2016 20:22 17,6 C 17,6 C 91 % 1018,7 hPa 0,0 mm 0,0 km/h (0 Bft) SO 146 0 min 0,000 mm 0,0 UV-I 0 W/m 16,1 C 0,0 km/h (0 Bft)
31.08.2016 20:23 17,5 C 17,6 C 91 % 1018,6 hPa 0,0 mm 0,0 km/h (0 Bft) SO 146 0 min 0,000 mm 0,0 UV-I 0 W/m 16,0 C 0,0 km/h (0 Bft)
31.08.2016 20:24 17,5 C 17,5 C 91 % 1018,6 hPa 0,0 mm 0,0 km/h (0 Bft) SO 146 0 min 0,000 mm 0,0 UV-I 0 W/m 16,0 C 0,0 km/h (0 Bft)
31.08.2016 20:25 17,4 C 17,5 C 91 % 1018,6 hPa 0,0 mm 0,0 km/h (0 Bft) SO 146 0 min 0,000 mm 0,0 UV-I 0 W/m 15,9 C 0,0 km/h (0 Bft)
31.08.2016 20:26 17,4 C 17,4 C 92 % 1018,6 hPa 0,0 mm 0,0 km/h (0 Bft) SO 146 0 min 0,000 mm 0,0 UV-I 0 W/m 16,1 C 0,0 km/h (0 Bft)
31.08.2016 20:27 17,4 C 17,4 C 92 % 1018,6 hPa 0,0 mm 0,0 km/h (0 Bft) SO 146 0 min 0,000 mm 0,0 UV-I 0 W/m 16,1 C 0,0 km/h (0 Bft)
31.08.2016 20:28 17,4 C 17,4 C 92 % 1018,7 hPa 0,0 mm 0,0 km/h (0 Bft) SO 146 0 min 0,000 mm 0,0 UV-I 0 W/m 16,1 C 0,0 km/h (0 Bft)
31.08.2016 20:29 17,5 C 17,5 C 92 % 1018,7 hPa 0,0 mm 0,0 km/h (0 Bft) SO 146 0 min 0,000 mm 0,0 UV-I 0 W/m 16,2 C 0,0 km/h (0 Bft)
31.08.2016 20:30 17,5 C 17,5 C 92 % 1018,7 hPa 0,0 mm 0,0 km/h (0 Bft) SO 146 0 min 0,000 mm 0,0 UV-I 0 W/m 16,2 C 0,0 km/h (0 Bft)
31.08.2016 20:31 17,5 C 17,5 C 92 % 1018,7 hPa 0,0 mm 0,0 km/h (0 Bft) SO 146 0 min 0,000 mm 0,0 UV-I 0 W/m 16,2 C 0,0 km/h (0 Bft)
31.08.2016 20:32 17,5 C 17,6 C 92 % 1018,8 hPa 0,0 mm 0,0 km/h (0 Bft) SO 146 0 min 0,000 mm 0,0 UV-I 0 W/m 16,2 C 0,0 km/h (0 Bft)
31.08.2016 20:33 17,6 C 17,6 C 92 % 1018,8 hPa 0,0 mm 0,0 km/h (0 Bft) SO 146 0 min 0,000 mm 0,0 UV-I 0 W/m 16,3 C 0,0 km/h (0 Bft)
31.08.2016 20:34 17,6 C 17,6 C 92 % 1018,7 hPa 0,0 mm 0,0 km/h (0 Bft) SO 146 0 min 0,000 mm 0,0 UV-I 0 W/m 16,3 C 0,0 km/h (0 Bft)
31.08.2016 20:35 17,6 C 17,6 C 92 % 1018,8 hPa 0,0 mm 0,0 km/h (0 Bft) SO 146 0 min 0,000 mm 0,0 UV-I 0 W/m 16,3 C 0,0 km/h (0 Bft)
31.08.2016 20:36 17,6 C 17,6 C 92 % 1018,8 hPa 0,0 mm 0,0 km/h (0 Bft) SO 146 0 min 0,000 mm 0,0 UV-I 0 W/m 16,3 C 0,0 km/h (0 Bft)
31.08.2016 20:37 17,6 C 17,6 C 92 % 1018,9 hPa 0,0 mm 0,0 km/h (0 Bft) SO 146 0 min 0,000 mm 0,0 UV-I 0 W/m 16,3 C 0,0 km/h (0 Bft)
31.08.2016 20:38 17,6 C 17,6 C 92 % 1018,8 hPa 0,0 mm 0,0 km/h (0 Bft) SO 146 0 min 0,000 mm 0,0 UV-I 0 W/m 16,3 C 0,0 km/h (0 Bft)
31.08.2016 20:39 17,6 C 17,6 C 92 % 1018,9 hPa 0,0 mm 0,0 km/h (0 Bft) SO 146 0 min 0,000 mm 0,0 UV-I 0 W/m 16,3 C 0,0 km/h (0 Bft)
31.08.2016 20:40 17,6 C 17,6 C 92 % 1018,9 hPa 0,0 mm 0,0 km/h (0 Bft) SO 146 0 min 0,000 mm 0,0 UV-I 0 W/m 16,3 C 0,0 km/h (0 Bft)
31.08.2016 20:41 17,6 C 17,6 C 92 % 1018,9 hPa 0,0 mm 0,0 km/h (0 Bft) SO 146 0 min 0,000 mm 0,0 UV-I 0 W/m 16,3 C 0,0 km/h (0 Bft)
31.08.2016 20:42 17,6 C 17,7 C 92 % 1018,9 hPa 0,0 mm 0,0 km/h (0 Bft) SO 146 0 min 0,000 mm 0,0 UV-I 0 W/m 16,3 C 0,0 km/h (0 Bft)
31.08.2016 20:43 17,6 C 17,6 C 92 % 1018,9 hPa 0,0 mm 0,0 km/h (0 Bft) SO 146 0 min 0,000 mm 0,0 UV-I 0 W/m 16,3 C 0,0 km/h (0 Bft)
31.08.2016 20:44 17,6 C 17,7 C 92 % 1019,0 hPa 0,0 mm 0,0 km/h (0 Bft) SO 146 0 min 0,000 mm 0,0 UV-I 0 W/m 16,3 C 0,0 km/h (0 Bft)
31.08.2016 20:45 17,6 C 17,6 C 92 % 1019,0 hPa 0,0 mm 0,0 km/h (0 Bft) SO 146 0 min 0,000 mm 0,0 UV-I 0 W/m 16,3 C 0,0 km/h (0 Bft)
31.08.2016 20:46 17,5 C 17,6 C 91 % 1019,0 hPa 0,0 mm 0,0 km/h (0 Bft) SO 146 0 min 0,000 mm 0,0 UV-I 0 W/m 16,0 C 0,0 km/h (0 Bft)
31.08.2016 20:47 17,5 C 17,6 C 91 % 1019,0 hPa 0,0 mm 0,0 km/h (0 Bft) SO 146 0 min 0,000 mm 0,0 UV-I 0 W/m 16,0 C 0,0 km/h (0 Bft)
31.08.2016 20:48 17,4 C 17,5 C 91 % 1019,0 hPa 0,0 mm 0,0 km/h (0 Bft) SO 146 0 min 0,000 mm 0,0 UV-I 0 W/m 15,9 C 0,0 km/h (0 Bft)
31.08.2016 20:49 17,3 C 17,4 C 91 % 1019,0 hPa 0,0 mm 0,0 km/h (0 Bft) SO 146 0 min 0,000 mm 0,0 UV-I 0 W/m 15,8 C 0,0 km/h (0 Bft)
31.08.2016 20:50 17,2 C 17,3 C 91 % 1019,0 hPa 0,0 mm 0,0 km/h (0 Bft) SO 146 0 min 0,000 mm 0,0 UV-I 0 W/m 15,7 C 0,0 km/h (0 Bft)
31.08.2016 20:51 17,2 C 17,3 C 92 % 1019,1 hPa 0,0 mm 0,0 km/h (0 Bft) SO 146 0 min 0,000 mm 0,0 UV-I 0 W/m 15,9 C 0,0 km/h (0 Bft)
31.08.2016 20:52 17,1 C 17,2 C 92 % 1019,1 hPa 0,0 mm 0,0 km/h (0 Bft) SO 146 0 min 0,000 mm 0,0 UV-I 0 W/m 15,8 C 0,0 km/h (0 Bft)
31.08.2016 20:53 17,1 C 17,2 C 92 % 1019,1 hPa 0,0 mm 0,0 km/h (0 Bft) SO 146 0 min 0,000 mm 0,0 UV-I 0 W/m 15,8 C 0,0 km/h (0 Bft)
31.08.2016 20:54 17,1 C 17,1 C 93 % 1019,1 hPa 0,0 mm 0,0 km/h (0 Bft) SO 146 0 min 0,000 mm 0,0 UV-I 0 W/m 16,0 C 0,0 km/h (0 Bft)
31.08.2016 20:55 17,1 C 17,1 C 93 % 1019,0 hPa 0,0 mm 0,0 km/h (0 Bft) SO 146 0 min 0,000 mm 0,0 UV-I 0 W/m 16,0 C 0,0 km/h (0 Bft)
31.08.2016 20:56 17,1 C 17,1 C 93 % 1019,1 hPa 0,0 mm 0,0 km/h (0 Bft) SO 146 0 min 0,000 mm 0,0 UV-I 0 W/m 16,0 C 0,0 km/h (0 Bft)
31.08.2016 20:57 17,1 C 17,2 C 93 % 1019,1 hPa 0,0 mm 0,0 km/h (0 Bft) SO 146 0 min 0,000 mm 0,0 UV-I 0 W/m 16,0 C 0,0 km/h (0 Bft)
31.08.2016 20:58 17,1 C 17,2 C 93 % 1019,1 hPa 0,0 mm 0,0 km/h (0 Bft) SO 146 0 min 0,000 mm 0,0 UV-I 0 W/m 16,0 C 0,0 km/h (0 Bft)
31.08.2016 20:59 17,1 C 17,1 C 93 % 1019,1 hPa 0,0 mm 0,0 km/h (0 Bft) SO 146 0 min 0,000 mm 0,0 UV-I 0 W/m 16,0 C 0,0 km/h (0 Bft)
31.08.2016 21:00 17,2 C 17,2 C 93 % 1019,1 hPa 0,0 mm 0,0 km/h (0 Bft) SO 146 0 min 0,000 mm 0,0 UV-I 0 W/m 16,1 C 0,0 km/h (0 Bft)
31.08.2016 21:01 17,1 C 17,2 C 93 % 1019,1 hPa 0,0 mm 0,0 km/h (0 Bft) SO 146 0 min 0,000 mm 0,0 UV-I 0 W/m 16,0 C 0,0 km/h (0 Bft)
31.08.2016 21:02 17,2 C 17,2 C 93 % 1019,1 hPa 0,0 mm 0,0 km/h (0 Bft) SO 146 0 min 0,000 mm 0,0 UV-I 0 W/m 16,1 C 0,0 km/h (0 Bft)
31.08.2016 21:03 17,2 C 17,2 C 93 % 1019,2 hPa 0,0 mm 0,0 km/h (0 Bft) SO 146 0 min 0,000 mm 0,0 UV-I 0 W/m 16,1 C 0,0 km/h (0 Bft)
31.08.2016 21:04 17,2 C 17,2 C 93 % 1019,2 hPa 0,0 mm 0,0 km/h (0 Bft) SO 146 0 min 0,000 mm 0,0 UV-I 0 W/m 16,1 C 0,0 km/h (0 Bft)
31.08.2016 21:05 17,2 C 17,2 C 93 % 1019,2 hPa 0,0 mm 0,0 km/h (0 Bft) SO 146 0 min 0,000 mm 0,0 UV-I 0 W/m 16,1 C 0,0 km/h (0 Bft)
31.08.2016 21:06 17,2 C 17,2 C 93 % 1019,2 hPa 0,0 mm 0,0 km/h (0 Bft) SO 146 0 min 0,000 mm 0,0 UV-I 0 W/m 16,1 C 0,0 km/h (0 Bft)
31.08.2016 21:07 17,3 C 17,3 C 93 % 1019,2 hPa 0,0 mm 0,0 km/h (0 Bft) SO 146 0 min 0,000 mm 0,0 UV-I 0 W/m 16,2 C 0,0 km/h (0 Bft)
31.08.2016 21:08 17,3 C 17,3 C 93 % 1019,2 hPa 0,0 mm 0,0 km/h (0 Bft) SO 146 0 min 0,000 mm 0,0 UV-I 0 W/m 16,2 C 0,0 km/h (0 Bft)
31.08.2016 21:09 17,3 C 17,3 C 93 % 1019,2 hPa 0,0 mm 0,0 km/h (0 Bft) SO 146 0 min 0,000 mm 0,0 UV-I 0 W/m 16,2 C 0,0 km/h (0 Bft)
31.08.2016 21:10 17,3 C 17,3 C 93 % 1019,2 hPa 0,0 mm 0,0 km/h (0 Bft) SO 146 0 min 0,000 mm 0,0 UV-I 0 W/m 16,2 C 0,0 km/h (0 Bft)
31.08.2016 21:11 17,3 C 17,3 C 93 % 1019,2 hPa 0,0 mm 0,0 km/h (0 Bft) SO 146 0 min 0,000 mm 0,0 UV-I 0 W/m 16,2 C 0,0 km/h (0 Bft)
31.08.2016 21:12 17,3 C 17,4 C 93 % 1019,2 hPa 0,0 mm 0,0 km/h (0 Bft) SO 146 0 min 0,000 mm 0,0 UV-I 0 W/m 16,2 C 0,0 km/h (0 Bft)
31.08.2016 21:13 17,4 C 17,4 C 93 % 1019,2 hPa 0,0 mm 0,0 km/h (0 Bft) SO 146 0 min 0,000 mm 0,0 UV-I 0 W/m 16,3 C 0,0 km/h (0 Bft)
31.08.2016 21:14 17,4 C 17,4 C 93 % 1019,2 hPa 0,0 mm 0,0 km/h (0 Bft) SO 146 0 min 0,000 mm 0,0 UV-I 0 W/m 16,3 C 0,0 km/h (0 Bft)
31.08.2016 21:15 17,4 C 17,4 C 93 % 1019,2 hPa 0,0 mm 0,0 km/h (0 Bft) SO 146 0 min 0,000 mm 0,0 UV-I 0 W/m 16,3 C 0,0 km/h (0 Bft)
31.08.2016 21:16 17,4 C 17,4 C 92 % 1019,2 hPa 0,0 mm 0,0 km/h (0 Bft) SO 146 0 min 0,000 mm 0,0 UV-I 0 W/m 16,1 C 0,0 km/h (0 Bft)
31.08.2016 21:17 17,4 C 17,4 C 93 % 1019,3 hPa 0,0 mm 0,0 km/h (0 Bft) SO 146 0 min 0,000 mm 0,0 UV-I 0 W/m 16,3 C 0,0 km/h (0 Bft)
31.08.2016 21:18 17,4 C 17,4 C 93 % 1019,2 hPa 0,0 mm 0,6 km/h (0 Bft) SO 146 0 min 0,000 mm 0,0 UV-I 0 W/m 16,3 C 1,6 km/h (1 Bft)
31.08.2016 21:19 17,4 C 17,4 C 92 % 1019,2 hPa 0,0 mm 1,9 km/h (1 Bft) SO 146 0 min 0,000 mm 0,0 UV-I 0 W/m 16,1 C 3,2 km/h (1 Bft)
31.08.2016 21:20 17,4 C 17,4 C 93 % 1019,2 hPa 0,0 mm 1,5 km/h (1 Bft) SO 146 0 min 0,000 mm 0,0 UV-I 0 W/m 16,3 C 3,2 km/h (1 Bft)
31.08.2016 21:21 17,4 C 17,4 C 93 % 1019,1 hPa 0,0 mm 1,8 km/h (1 Bft) SO 146 0 min 0,000 mm 0,0 UV-I 0 W/m 16,3 C 3,2 km/h (1 Bft)
31.08.2016 21:22 17,5 C 17,5 C 93 % 1019,2 hPa 0,0 mm 2,1 km/h (1 Bft) SO 146 0 min 0,000 mm 0,0 UV-I 0 W/m 16,4 C 3,2 km/h (1 Bft)
31.08.2016 21:23 17,5 C 17,5 C 93 % 1019,2 hPa 0,0 mm 2,0 km/h (1 Bft) SO 146 0 min 0,000 mm 0,0 UV-I 0 W/m 16,4 C 3,2 km/h (1 Bft)
31.08.2016 21:24 17,6 C 17,6 C 93 % 1019,2 hPa 0,0 mm 1,6 km/h (1 Bft) SO 146 0 min 0,000 mm 0,0 UV-I 0 W/m 16,5 C 3,2 km/h (1 Bft)
31.08.2016 21:25 17,5 C 17,6 C 92 % 1019,2 hPa 0,0 mm 1,3 km/h (1 Bft) SO 146 0 min 0,000 mm 0,0 UV-I 0 W/m 16,2 C 3,2 km/h (1 Bft)
31.08.2016 21:26 17,5 C 17,6 C 93 % 1019,2 hPa 0,0 mm 0,5 km/h (0 Bft) SO 146 0 min 0,000 mm 0,0 UV-I 0 W/m 16,4 C 1,6 km/h (1 Bft)
31.08.2016 21:27 17,5 C 17,6 C 92 % 1019,2 hPa 0,0 mm 0,5 km/h (0 Bft) SO 146 0 min 0,000 mm 0,0 UV-I 0 W/m 16,2 C 1,6 km/h (1 Bft)
31.08.2016 21:28 17,5 C 17,5 C 92 % 1019,2 hPa 0,0 mm 0,0 km/h (0 Bft) SO 146 0 min 0,000 mm 0,0 UV-I 0 W/m 16,2 C 0,0 km/h (0 Bft)
31.08.2016 21:29 17,5 C 17,5 C 93 % 1019,2 hPa 0,0 mm 0,2 km/h (0 Bft) SO 146 0 min 0,000 mm 0,0 UV-I 0 W/m 16,4 C 1,6 km/h (1 Bft)
31.08.2016 21:30 17,5 C 17,5 C 93 % 1019,2 hPa 0,0 mm 0,5 km/h (0 Bft) S-SO 150 0 min 0,000 mm 0,0 UV-I 0 W/m 16,4 C 1,6 km/h (1 Bft)
31.08.2016 21:31 17,5 C 17,5 C 93 % 1019,2 hPa 0,0 mm 1,0 km/h (0 Bft) S-SO 150 0 min 0,000 mm 0,0 UV-I 0 W/m 16,4 C 1,6 km/h (1 Bft)
31.08.2016 21:32 17,5 C 17,5 C 93 % 1019,2 hPa 0,0 mm 1,7 km/h (1 Bft) S-SO 150 0 min 0,000 mm 0,0 UV-I 0 W/m 16,4 C 3,2 km/h (1 Bft)
31.08.2016 21:33 17,6 C 17,6 C 93 % 1019,2 hPa 0,0 mm 1,0 km/h (0 Bft) S-SO 150 0 min 0,000 mm 0,0 UV-I 0 W/m 16,5 C 1,6 km/h (1 Bft)
31.08.2016 21:34 17,6 C 17,6 C 92 % 1019,2 hPa 0,0 mm 1,5 km/h (1 Bft) S-SO 150 0 min 0,000 mm 0,0 UV-I 0 W/m 16,3 C 3,2 km/h (1 Bft)
31.08.2016 21:35 17,6 C 17,6 C 92 % 1019,3 hPa 0,0 mm 3,4 km/h (1 Bft) S 173 0 min 0,000 mm 0,0 UV-I 0 W/m 16,3 C 6,4 km/h (2 Bft)
31.08.2016 21:36 17,6 C 17,6 C 92 % 1019,2 hPa 0,0 mm 2,0 km/h (1 Bft) S 173 0 min 0,000 mm 0,0 UV-I 0 W/m 16,3 C 3,2 km/h (1 Bft)
31.08.2016 21:37 17,6 C 17,6 C 92 % 1019,3 hPa 0,0 mm 1,7 km/h (1 Bft) S 173 0 min 0,000 mm 0,0 UV-I 0 W/m 16,3 C 3,2 km/h (1 Bft)
31.08.2016 21:38 17,7 C 17,7 C 92 % 1019,3 hPa 0,0 mm 0,8 km/h (0 Bft) S 173 0 min 0,000 mm 0,0 UV-I 0 W/m 16,4 C 3,2 km/h (1 Bft)
31.08.2016 21:39 17,7 C 17,7 C 92 % 1019,3 hPa 0,0 mm 7,4 km/h (2 Bft) S 191 0 min 0,000 mm 0,0 UV-I 0 W/m 16,4 C 9,7 km/h (2 Bft)
31.08.2016 21:40 17,8 C 17,8 C 91 % 1019,3 hPa 0,0 mm 5,1 km/h (1 Bft) S 182 0 min 0,000 mm 0,0 UV-I 0 W/m 16,3 C 9,7 km/h (2 Bft)
31.08.2016 21:41 17,8 C 17,8 C 91 % 1019,3 hPa 0,0 mm 5,6 km/h (1 Bft) S 178 0 min 0,000 mm 0,0 UV-I 0 W/m 16,3 C 8,0 km/h (2 Bft)
31.08.2016 21:42 17,9 C 17,9 C 91 % 1019,2 hPa 0,0 mm 4,0 km/h (1 Bft) S 177 0 min 0,000 mm 0,0 UV-I 0 W/m 16,4 C 8,0 km/h (2 Bft)
31.08.2016 21:43 17,9 C 17,9 C 91 % 1019,2 hPa 0,0 mm 2,3 km/h (1 Bft) S-SO 154 0 min 0,000 mm 0,0 UV-I 0 W/m 16,4 C 4,8 km/h (1 Bft)
31.08.2016 21:44 17,9 C 17,9 C 91 % 1019,2 hPa 0,0 mm 0,2 km/h (0 Bft) S-SO 154 0 min 0,000 mm 0,0 UV-I 0 W/m 16,4 C 1,6 km/h (1 Bft)
31.08.2016 21:45 18,0 C 18,0 C 90 % 1019,3 hPa 0,0 mm 2,6 km/h (1 Bft) SW 217 0 min 0,000 mm 0,0 UV-I 0 W/m 16,3 C 6,4 km/h (2 Bft)
31.08.2016 21:46 18,0 C 18,0 C 90 % 1019,3 hPa 0,0 mm 1,9 km/h (1 Bft) SW 217 0 min 0,000 mm 0,0 UV-I 0 W/m 16,3 C 3,2 km/h (1 Bft)
31.08.2016 21:47 18,0 C 18,1 C 90 % 1019,3 hPa 0,0 mm 0,1 km/h (0 Bft) SW 217 0 min 0,000 mm 0,0 UV-I 0 W/m 16,3 C 1,6 km/h (1 Bft)
31.08.2016 21:48 18,0 C 18,0 C 90 % 1019,3 hPa 0,0 mm 1,3 km/h (1 Bft) SW 217 0 min 0,000 mm 0,0 UV-I 0 W/m 16,3 C 3,2 km/h (1 Bft)
31.08.2016 21:49 17,9 C 18,0 C 91 % 1019,3 hPa 0,0 mm 1,3 km/h (1 Bft) SW 217 0 min 0,000 mm 0,0 UV-I 0 W/m 16,4 C 1,6 km/h (1 Bft)
31.08.2016 21:50 17,9 C 17,9 C 90 % 1019,3 hPa 0,0 mm 1,0 km/h (0 Bft) SW 217 0 min 0,000 mm 0,0 UV-I 0 W/m 16,2 C 1,6 km/h (1 Bft)
31.08.2016 21:51 17,9 C 17,9 C 90 % 1019,3 hPa 0,0 mm 0,2 km/h (0 Bft) SW 217 0 min 0,000 mm 0,0 UV-I 0 W/m 16,2 C 1,6 km/h (1 Bft)
31.08.2016 21:52 17,9 C 17,9 C 90 % 1019,4 hPa 0,0 mm 0,7 km/h (0 Bft) SW 216 0 min 0,000 mm 0,0 UV-I 0 W/m 16,2 C 3,2 km/h (1 Bft)
31.08.2016 21:53 17,8 C 17,9 C 90 % 1019,3 hPa 0,0 mm 3,6 km/h (1 Bft) S 190 0 min 0,000 mm 0,0 UV-I 0 W/m 16,1 C 6,4 km/h (2 Bft)
31.08.2016 21:54 17,8 C 17,9 C 91 % 1019,3 hPa 0,0 mm 2,4 km/h (1 Bft) S 190 0 min 0,000 mm 0,0 UV-I 0 W/m 16,3 C 3,2 km/h (1 Bft)
31.08.2016 21:55 17,8 C 17,8 C 90 % 1019,3 hPa 0,0 mm 4,0 km/h (1 Bft) S-SW 198 0 min 0,000 mm 0,0 UV-I 0 W/m 16,1 C 8,0 km/h (2 Bft)
31.08.2016 21:56 17,8 C 17,8 C 90 % 1019,2 hPa 0,0 mm 4,0 km/h (1 Bft) S 171 0 min 0,000 mm 0,0 UV-I 0 W/m 16,1 C 6,4 km/h (2 Bft)
31.08.2016 21:57 17,8 C 17,8 C 90 % 1019,2 hPa 0,0 mm 1,3 km/h (1 Bft) S 171 0 min 0,000 mm 0,0 UV-I 0 W/m 16,1 C 3,2 km/h (1 Bft)
31.08.2016 21:58 17,7 C 17,8 C 90 % 1019,2 hPa 0,0 mm 0,0 km/h (0 Bft) S 171 0 min 0,000 mm 0,0 UV-I 0 W/m 16,0 C 0,0 km/h (0 Bft)
31.08.2016 21:59 17,7 C 17,7 C 90 % 1019,3 hPa 0,0 mm 0,1 km/h (0 Bft) S 171 0 min 0,000 mm 0,0 UV-I 0 W/m 16,0 C 1,6 km/h (1 Bft)
31.08.2016 22:00 17,7 C 17,7 C 90 % 1019,3 hPa 0,0 mm 0,1 km/h (0 Bft) S 171 0 min 0,000 mm 0,0 UV-I 0 W/m 16,0 C 1,6 km/h (1 Bft)
31.08.2016 22:01 17,7 C 17,7 C 90 % 1019,2 hPa 0,0 mm 3,4 km/h (1 Bft) S 185 0 min 0,000 mm 0,0 UV-I 0 W/m 16,0 C 6,4 km/h (2 Bft)
31.08.2016 22:02 17,7 C 17,7 C 90 % 1019,3 hPa 0,0 mm 4,1 km/h (1 Bft) S 183 0 min 0,000 mm 0,0 UV-I 0 W/m 16,0 C 4,8 km/h (1 Bft)
31.08.2016 22:03 17,7 C 17,7 C 90 % 1019,2 hPa 0,0 mm 7,1 km/h (2 Bft) S 180 0 min 0,000 mm 0,0 UV-I 0 W/m 16,0 C 9,7 km/h (2 Bft)
31.08.2016 22:04 17,7 C 17,7 C 90 % 1019,2 hPa 0,0 mm 5,4 km/h (1 Bft) S 186 0 min 0,000 mm 0,0 UV-I 0 W/m 16,0 C 8,0 km/h (2 Bft)
31.08.2016 22:05 17,7 C 17,7 C 90 % 1019,2 hPa 0,0 mm 3,8 km/h (1 Bft) S 186 0 min 0,000 mm 0,0 UV-I 0 W/m 16,0 C 6,4 km/h (2 Bft)
31.08.2016 22:06 17,7 C 17,7 C 90 % 1019,2 hPa 0,0 mm 3,1 km/h (1 Bft) S 182 0 min 0,000 mm 0,0 UV-I 0 W/m 16,0 C 4,8 km/h (1 Bft)
31.08.2016 22:07 17,7 C 17,7 C 90 % 1019,2 hPa 0,0 mm 2,7 km/h (1 Bft) S 182 0 min 0,000 mm 0,0 UV-I 0 W/m 16,0 C 4,8 km/h (1 Bft)
31.08.2016 22:08 17,6 C 17,7 C 90 % 1019,2 hPa 0,0 mm 1,6 km/h (1 Bft) S 182 0 min 0,000 mm 0,0 UV-I 0 W/m 15,9 C 1,6 km/h (1 Bft)
31.08.2016 22:09 17,6 C 17,6 C 90 % 1019,2 hPa 0,0 mm 0,5 km/h (0 Bft) S 182 0 min 0,000 mm 0,0 UV-I 0 W/m 15,9 C 1,6 km/h (1 Bft)
31.08.2016 22:10 17,6 C 17,6 C 90 % 1019,2 hPa 0,0 mm 3,8 km/h (1 Bft) S-SW 199 0 min 0,000 mm 0,0 UV-I 0 W/m 15,9 C 8,0 km/h (2 Bft)
31.08.2016 22:11 17,6 C 17,7 C 90 % 1019,2 hPa 0,0 mm 7,0 km/h (2 Bft) S-SO 157 0 min 0,000 mm 0,0 UV-I 0 W/m 15,9 C 9,7 km/h (2 Bft)
31.08.2016 22:12 17,7 C 17,7 C 90 % 1019,2 hPa 0,0 mm 3,2 km/h (1 Bft) S-SO 161 0 min 0,000 mm 0,0 UV-I 0 W/m 16,0 C 6,4 km/h (2 Bft)
31.08.2016 22:13 17,6 C 17,7 C 90 % 1019,2 hPa 0,0 mm 2,1 km/h (1 Bft) S-SO 161 0 min 0,000 mm 0,0 UV-I 0 W/m 15,9 C 3,2 km/h (1 Bft)
31.08.2016 22:14 17,7 C 17,7 C 90 % 1019,2 hPa 0,0 mm 3,6 km/h (1 Bft) S-SO 163 0 min 0,000 mm 0,0 UV-I 0 W/m 16,0 C 6,4 km/h (2 Bft)
31.08.2016 22:15 17,6 C 17,7 C 90 % 1019,2 hPa 0,0 mm 3,6 km/h (1 Bft) S 171 0 min 0,000 mm 0,0 UV-I 0 W/m 15,9 C 6,4 km/h (2 Bft)
31.08.2016 22:16 17,6 C 17,6 C 90 % 1019,2 hPa 0,0 mm 3,5 km/h (1 Bft) S 171 0 min 0,000 mm 0,0 UV-I 0 W/m 15,9 C 6,4 km/h (2 Bft)
31.08.2016 22:17 17,6 C 17,6 C 90 % 1019,2 hPa 0,0 mm 2,5 km/h (1 Bft) S 171 0 min 0,000 mm 0,0 UV-I 0 W/m 15,9 C 6,4 km/h (2 Bft)
31.08.2016 22:18 17,6 C 17,6 C 90 % 1019,2 hPa 0,0 mm 3,5 km/h (1 Bft) S 185 0 min 0,000 mm 0,0 UV-I 0 W/m 15,9 C 6,4 km/h (2 Bft)
31.08.2016 22:19 17,6 C 17,6 C 90 % 1019,2 hPa 0,0 mm 3,3 km/h (1 Bft) S 182 0 min 0,000 mm 0,0 UV-I 0 W/m 15,9 C 6,4 km/h (2 Bft)
31.08.2016 22:20 17,6 C 17,6 C 90 % 1019,3 hPa 0,0 mm 4,9 km/h (1 Bft) S 183 0 min 0,000 mm 0,0 UV-I 0 W/m 15,9 C 6,4 km/h (2 Bft)
31.08.2016 22:21 17,6 C 17,7 C 90 % 1019,2 hPa 0,0 mm 3,8 km/h (1 Bft) S-SW 200 0 min 0,000 mm 0,0 UV-I 0 W/m 15,9 C 4,8 km/h (1 Bft)
31.08.2016 22:22 17,7 C 17,7 C 90 % 1019,2 hPa 0,0 mm 5,0 km/h (1 Bft) S 189 0 min 0,000 mm 0,0 UV-I 0 W/m 16,0 C 9,7 km/h (2 Bft)
31.08.2016 22:23 17,6 C 17,7 C 89 % 1019,3 hPa 0,0 mm 4,3 km/h (1 Bft) S-SW 204 0 min 0,000 mm 0,0 UV-I 0 W/m 15,8 C 8,0 km/h (2 Bft)
31.08.2016 22:24 17,6 C 17,7 C 89 % 1019,2 hPa 0,0 mm 2,9 km/h (1 Bft) S-SW 196 0 min 0,000 mm 0,0 UV-I 0 W/m 15,8 C 4,8 km/h (1 Bft)
31.08.2016 22:25 17,6 C 17,6 C 90 % 1019,3 hPa 0,0 mm 3,2 km/h (1 Bft) S-SW 202 0 min 0,000 mm 0,0 UV-I 0 W/m 15,9 C 6,4 km/h (2 Bft)
31.08.2016 22:26 17,6 C 17,7 C 90 % 1019,4 hPa 0,0 mm 5,3 km/h (1 Bft) S 187 0 min 0,000 mm 0,0 UV-I 0 W/m 15,9 C 8,0 km/h (2 Bft)
31.08.2016 22:27 17,7 C 17,7 C 89 % 1019,3 hPa 0,0 mm 8,8 km/h (2 Bft) S 187 0 min 0,000 mm 0,0 UV-I 0 W/m 15,9 C 12,9 km/h (3 Bft)
31.08.2016 22:28 17,7 C 17,7 C 89 % 1019,4 hPa 0,0 mm 7,4 km/h (2 Bft) S 169 0 min 0,000 mm 0,0 UV-I 0 W/m 15,9 C 11,3 km/h (2 Bft)
31.08.2016 22:29 17,7 C 17,7 C 89 % 1019,3 hPa 0,0 mm 1,6 km/h (1 Bft) S 169 0 min 0,000 mm 0,0 UV-I 0 W/m 15,9 C 3,2 km/h (1 Bft)
31.08.2016 22:30 17,7 C 17,7 C 89 % 1019,3 hPa 0,0 mm 3,7 km/h (1 Bft) S 185 0 min 0,000 mm 0,0 UV-I 0 W/m 15,9 C 8,0 km/h (2 Bft)
31.08.2016 22:31 17,7 C 17,7 C 89 % 1019,3 hPa 0,0 mm 7,2 km/h (2 Bft) S 169 0 min 0,000 mm 0,0 UV-I 0 W/m 15,9 C 9,7 km/h (2 Bft)
31.08.2016 22:32 17,7 C 17,8 C 89 % 1019,3 hPa 0,0 mm 6,1 km/h (2 Bft) S-SO 150 0 min 0,000 mm 0,0 UV-I 0 W/m 15,9 C 9,7 km/h (2 Bft)
31.08.2016 22:33 17,7 C 17,7 C 89 % 1019,3 hPa 0,0 mm 4,8 km/h (1 Bft) S 187 0 min 0,000 mm 0,0 UV-I 0 W/m 15,9 C 8,0 km/h (2 Bft)
31.08.2016 22:34 17,7 C 17,7 C 89 % 1019,4 hPa 0,0 mm 5,0 km/h (1 Bft) S 173 0 min 0,000 mm 0,0 UV-I 0 W/m 15,9 C 8,0 km/h (2 Bft)
31.08.2016 22:35 17,7 C 17,7 C 89 % 1019,4 hPa 0,0 mm 4,9 km/h (1 Bft) S 171 0 min 0,000 mm 0,0 UV-I 0 W/m 15,9 C 6,4 km/h (2 Bft)
31.08.2016 22:36 17,7 C 17,7 C 89 % 1019,4 hPa 0,0 mm 5,1 km/h (1 Bft) S 176 0 min 0,000 mm 0,0 UV-I 0 W/m 15,9 C 6,4 km/h (2 Bft)
31.08.2016 22:37 17,7 C 17,7 C 89 % 1019,3 hPa 0,0 mm 3,1 km/h (1 Bft) S 176 0 min 0,000 mm 0,0 UV-I 0 W/m 15,9 C 4,8 km/h (1 Bft)
31.08.2016 22:38 17,7 C 17,7 C 89 % 1019,3 hPa 0,0 mm 5,2 km/h (1 Bft) S 191 0 min 0,000 mm 0,0 UV-I 0 W/m 15,9 C 9,7 km/h (2 Bft)
31.08.2016 22:39 17,7 C 17,7 C 89 % 1019,4 hPa 0,0 mm 7,5 km/h (2 Bft) S 184 0 min 0,000 mm 0,0 UV-I 0 W/m 15,9 C 9,7 km/h (2 Bft)
31.08.2016 22:40 17,7 C 17,7 C 89 % 1019,4 hPa 0,0 mm 6,6 km/h (2 Bft) S-SO 167 0 min 0,000 mm 0,0 UV-I 0 W/m 15,9 C 8,0 km/h (2 Bft)
31.08.2016 22:41 17,7 C 17,7 C 89 % 1019,4 hPa 0,0 mm 4,0 km/h (1 Bft) S 180 0 min 0,000 mm 0,0 UV-I 0 W/m 15,9 C 6,4 km/h (2 Bft)
31.08.2016 22:42 17,7 C 17,7 C 89 % 1019,4 hPa 0,0 mm 7,3 km/h (2 Bft) S 174 0 min 0,000 mm 0,0 UV-I 0 W/m 15,9 C 9,7 km/h (2 Bft)
31.08.2016 22:43 17,7 C 17,7 C 89 % 1019,4 hPa 0,0 mm 4,2 km/h (1 Bft) S-SO 147 0 min 0,000 mm 0,0 UV-I 0 W/m 15,9 C 8,0 km/h (2 Bft)
31.08.2016 22:44 17,7 C 17,7 C 89 % 1019,4 hPa 0,0 mm 4,4 km/h (1 Bft) S-SW 192 0 min 0,000 mm 0,0 UV-I 0 W/m 15,9 C 8,0 km/h (2 Bft)
31.08.2016 22:45 17,6 C 17,7 C 89 % 1019,4 hPa 0,0 mm 4,1 km/h (1 Bft) S 180 0 min 0,000 mm 0,0 UV-I 0 W/m 15,8 C 6,4 km/h (2 Bft)
31.08.2016 22:46 17,6 C 17,6 C 89 % 1019,3 hPa 0,0 mm 5,0 km/h (1 Bft) S 169 0 min 0,000 mm 0,0 UV-I 0 W/m 15,8 C 8,0 km/h (2 Bft)
31.08.2016 22:47 17,6 C 17,6 C 89 % 1019,4 hPa 0,0 mm 4,8 km/h (1 Bft) S 186 0 min 0,000 mm 0,0 UV-I 0 W/m 15,8 C 6,4 km/h (2 Bft)
31.08.2016 22:48 17,6 C 17,6 C 89 % 1019,4 hPa 0,0 mm 5,1 km/h (1 Bft) S 172 0 min 0,000 mm 0,0 UV-I 0 W/m 15,8 C 9,7 km/h (2 Bft)
31.08.2016 22:49 17,6 C 17,6 C 89 % 1019,4 hPa 0,0 mm 5,6 km/h (1 Bft) S-SO 153 0 min 0,000 mm 0,0 UV-I 0 W/m 15,8 C 8,0 km/h (2 Bft)
31.08.2016 22:50 17,5 C 17,6 C 90 % 1019,3 hPa 0,0 mm 3,8 km/h (1 Bft) S-SO 153 0 min 0,000 mm 0,0 UV-I 0 W/m 15,8 C 6,4 km/h (2 Bft)
31.08.2016 22:51 17,5 C 17,6 C 90 % 1019,3 hPa 0,0 mm 4,6 km/h (1 Bft) SO 138 0 min 0,000 mm 0,0 UV-I 0 W/m 15,8 C 6,4 km/h (2 Bft)
31.08.2016 22:52 17,5 C 17,6 C 90 % 1019,3 hPa 0,0 mm 1,2 km/h (1 Bft) SO 138 0 min 0,000 mm 0,0 UV-I 0 W/m 15,8 C 3,2 km/h (1 Bft)
31.08.2016 22:53 17,6 C 17,6 C 89 % 1019,3 hPa 0,0 mm 0,6 km/h (0 Bft) SO 138 0 min 0,000 mm 0,0 UV-I 0 W/m 15,8 C 1,6 km/h (1 Bft)
31.08.2016 22:54 17,6 C 17,6 C 89 % 1019,3 hPa 0,0 mm 5,4 km/h (1 Bft) S-SW 192 0 min 0,000 mm 0,0 UV-I 0 W/m 15,8 C 9,7 km/h (2 Bft)
31.08.2016 22:55 17,6 C 17,6 C 89 % 1019,3 hPa 0,0 mm 7,4 km/h (2 Bft) S-SW 192 0 min 0,000 mm 0,0 UV-I 0 W/m 15,8 C 9,7 km/h (2 Bft)
31.08.2016 22:56 17,6 C 17,6 C 89 % 1019,3 hPa 0,0 mm 6,5 km/h (2 Bft) S-SW 194 0 min 0,000 mm 0,0 UV-I 0 W/m 15,8 C 8,0 km/h (2 Bft)
31.08.2016 22:57 17,6 C 17,6 C 89 % 1019,3 hPa 0,0 mm 5,6 km/h (1 Bft) S-SO 166 0 min 0,000 mm 0,0 UV-I 0 W/m 15,8 C 8,0 km/h (2 Bft)
31.08.2016 22:58 17,6 C 17,6 C 89 % 1019,4 hPa 0,0 mm 3,8 km/h (1 Bft) S-SO 166 0 min 0,000 mm 0,0 UV-I 0 W/m 15,8 C 6,4 km/h (2 Bft)
31.08.2016 22:59 17,6 C 17,6 C 89 % 1019,4 hPa 0,0 mm 2,9 km/h (1 Bft) S-SO 167 0 min 0,000 mm 0,0 UV-I 0 W/m 15,8 C 4,8 km/h (1 Bft)
31.08.2016 23:00 17,5 C 17,6 C 89 % 1019,4 hPa 0,0 mm 2,8 km/h (1 Bft) S-SO 167 0 min 0,000 mm 0,0 UV-I 0 W/m 15,7 C 4,8 km/h (1 Bft)
31.08.2016 23:01 17,4 C 17,5 C 89 % 1019,4 hPa 0,0 mm 2,9 km/h (1 Bft) S-SW 196 0 min 0,025 mm 0,0 UV-I 0 W/m 15,6 C 4,8 km/h (1 Bft)
31.08.2016 23:02 17,4 C 17,4 C 89 % 1019,4 hPa 0,0 mm 3,8 km/h (1 Bft) S 170 0 min 0,000 mm 0,0 UV-I 0 W/m 15,6 C 6,4 km/h (2 Bft)
31.08.2016 23:03 17,3 C 17,4 C 89 % 1019,4 hPa 0,0 mm 1,9 km/h (1 Bft) S-SW 192 0 min 0,000 mm 0,0 UV-I 0 W/m 15,5 C 3,2 km/h (1 Bft)
31.08.2016 23:04 17,3 C 17,3 C 89 % 1019,4 hPa 0,0 mm 3,1 km/h (1 Bft) S 182 0 min 0,000 mm 0,0 UV-I 0 W/m 15,5 C 4,8 km/h (1 Bft)
31.08.2016 23:05 17,3 C 17,3 C 89 % 1019,4 hPa 0,0 mm 2,5 km/h (1 Bft) S 182 0 min 0,000 mm 0,0 UV-I 0 W/m 15,5 C 4,8 km/h (1 Bft)
31.08.2016 23:06 17,2 C 17,3 C 89 % 1019,4 hPa 0,0 mm 3,0 km/h (1 Bft) S-SW 200 0 min 0,000 mm 0,0 UV-I 0 W/m 15,4 C 6,4 km/h (2 Bft)
31.08.2016 23:07 17,2 C 17,2 C 89 % 1019,4 hPa 0,0 mm 4,1 km/h (1 Bft) S-SW 194 0 min 0,000 mm 0,0 UV-I 0 W/m 15,4 C 6,4 km/h (2 Bft)
31.08.2016 23:08 17,1 C 17,2 C 89 % 1019,4 hPa 0,0 mm 4,4 km/h (1 Bft) S 178 0 min 0,000 mm 0,0 UV-I 0 W/m 15,3 C 4,8 km/h (1 Bft)
31.08.2016 23:09 17,1 C 17,1 C 89 % 1019,4 hPa 0,0 mm 7,0 km/h (2 Bft) S 169 0 min 0,000 mm 0,0 UV-I 0 W/m 15,3 C 9,7 km/h (2 Bft)
31.08.2016 23:10 17,1 C 17,1 C 89 % 1019,4 hPa 0,0 mm 5,9 km/h (2 Bft) S 171 0 min 0,000 mm 0,0 UV-I 0 W/m 15,3 C 6,4 km/h (2 Bft)
31.08.2016 23:11 17,0 C 17,1 C 89 % 1019,5 hPa 0,0 mm 5,1 km/h (1 Bft) S-SW 196 0 min 0,000 mm 0,0 UV-I 0 W/m 15,2 C 8,0 km/h (2 Bft)
31.08.2016 23:12 17,0 C 17,0 C 90 % 1019,5 hPa 0,0 mm 8,6 km/h (2 Bft) S 182 0 min 0,000 mm 0,0 UV-I 0 W/m 15,3 C 11,3 km/h (2 Bft)
31.08.2016 23:13 17,1 C 17,1 C 90 % 1019,5 hPa 0,0 mm 4,1 km/h (1 Bft) S 182 0 min 0,000 mm 0,0 UV-I 0 W/m 15,4 C 6,4 km/h (2 Bft)
31.08.2016 23:14 17,0 C 17,1 C 90 % 1019,5 hPa 0,0 mm 2,5 km/h (1 Bft) S 182 0 min 0,000 mm 0,0 UV-I 0 W/m 15,3 C 4,8 km/h (1 Bft)
31.08.2016 23:15 17,0 C 17,0 C 90 % 1019,5 hPa 0,0 mm 7,4 km/h (2 Bft) S 189 0 min 0,000 mm 0,0 UV-I 0 W/m 15,3 C 12,9 km/h (3 Bft)
31.08.2016 23:16 17,0 C 17,0 C 90 % 1019,6 hPa 0,0 mm 7,8 km/h (2 Bft) S-SO 161 0 min 0,000 mm 0,0 UV-I 0 W/m 15,3 C 11,3 km/h (2 Bft)
31.08.2016 23:17 17,0 C 17,0 C 90 % 1019,5 hPa 0,0 mm 5,9 km/h (2 Bft) S 172 0 min 0,000 mm 0,0 UV-I 0 W/m 15,3 C 9,7 km/h (2 Bft)
31.08.2016 23:18 17,1 C 17,1 C 90 % 1019,5 hPa 0,0 mm 3,9 km/h (1 Bft) S 169 0 min 0,000 mm 0,0 UV-I 0 W/m 15,4 C 6,4 km/h (2 Bft)
31.08.2016 23:19 17,1 C 17,1 C 90 % 1019,5 hPa 0,0 mm 5,2 km/h (1 Bft) S 173 0 min 0,000 mm 0,0 UV-I 0 W/m 15,4 C 8,0 km/h (2 Bft)
31.08.2016 23:20 17,1 C 17,1 C 90 % 1019,5 hPa 0,0 mm 4,4 km/h (1 Bft) S 186 0 min 0,000 mm 0,0 UV-I 0 W/m 15,4 C 9,7 km/h (2 Bft)
31.08.2016 23:21 17,2 C 17,2 C 89 % 1019,6 hPa 0,0 mm 2,0 km/h (1 Bft) S 186 0 min 0,000 mm 0,0 UV-I 0 W/m 15,4 C 3,2 km/h (1 Bft)
31.08.2016 23:22 17,2 C 17,2 C 89 % 1019,6 hPa 0,0 mm 4,1 km/h (1 Bft) S 174 0 min 0,000 mm 0,0 UV-I 0 W/m 15,4 C 6,4 km/h (2 Bft)
31.08.2016 23:23 17,2 C 17,2 C 89 % 1019,6 hPa 0,0 mm 6,1 km/h (2 Bft) S-SO 167 0 min 0,000 mm 0,0 UV-I 0 W/m 15,4 C 8,0 km/h (2 Bft)
31.08.2016 23:24 17,2 C 17,2 C 89 % 1019,6 hPa 0,0 mm 5,9 km/h (2 Bft) S 182 0 min 0,000 mm 0,0 UV-I 0 W/m 15,4 C 9,7 km/h (2 Bft)
31.08.2016 23:25 17,2 C 17,2 C 89 % 1019,6 hPa 0,0 mm 6,2 km/h (2 Bft) S 171 0 min 0,000 mm 0,0 UV-I 0 W/m 15,4 C 11,3 km/h (2 Bft)
31.08.2016 23:26 17,2 C 17,2 C 89 % 1019,6 hPa 0,0 mm 6,5 km/h (2 Bft) S 169 0 min 0,000 mm 0,0 UV-I 0 W/m 15,4 C 8,0 km/h (2 Bft)
31.08.2016 23:27 17,2 C 17,2 C 89 % 1019,6 hPa 0,0 mm 4,0 km/h (1 Bft) S 169 0 min 0,000 mm 0,0 UV-I 0 W/m 15,4 C 6,4 km/h (2 Bft)
31.08.2016 23:28 17,2 C 17,2 C 89 % 1019,6 hPa 0,0 mm 3,1 km/h (1 Bft) S-SW 199 0 min 0,000 mm 0,0 UV-I 0 W/m 15,4 C 6,4 km/h (2 Bft)
31.08.2016 23:29 17,1 C 17,2 C 89 % 1019,6 hPa 0,0 mm 2,7 km/h (1 Bft) S 182 0 min 0,000 mm 0,0 UV-I 0 W/m 15,3 C 4,8 km/h (1 Bft)
31.08.2016 23:30 17,0 C 17,1 C 89 % 1019,6 hPa 0,0 mm 2,5 km/h (1 Bft) S 182 0 min 0,000 mm 0,0 UV-I 0 W/m 15,2 C 4,8 km/h (1 Bft)
31.08.2016 23:31 16,9 C 17,0 C 90 % 1019,6 hPa 0,0 mm 3,5 km/h (1 Bft) S 182 0 min 0,000 mm 0,0 UV-I 0 W/m 15,2 C 4,8 km/h (1 Bft)
31.08.2016 23:32 16,8 C 16,9 C 90 % 1019,6 hPa 0,0 mm 6,1 km/h (2 Bft) S 184 0 min 0,000 mm 0,0 UV-I 0 W/m 15,1 C 8,0 km/h (2 Bft)
31.08.2016 23:33 16,8 C 16,8 C 90 % 1019,6 hPa 0,0 mm 5,2 km/h (1 Bft) S 169 0 min 0,000 mm 0,0 UV-I 0 W/m 15,1 C 8,0 km/h (2 Bft)
31.08.2016 23:34 16,8 C 16,8 C 90 % 1019,6 hPa 0,0 mm 4,9 km/h (1 Bft) S 169 0 min 0,000 mm 0,0 UV-I 0 W/m 15,1 C 6,4 km/h (2 Bft)
31.08.2016 23:35 16,8 C 16,8 C 90 % 1019,6 hPa 0,0 mm 3,0 km/h (1 Bft) S 169 0 min 0,000 mm 0,0 UV-I 0 W/m 15,1 C 6,4 km/h (2 Bft)
31.08.2016 23:36 16,8 C 16,8 C 90 % 1019,6 hPa 0,0 mm 4,8 km/h (1 Bft) S 188 0 min 0,000 mm 0,0 UV-I 0 W/m 15,1 C 6,4 km/h (2 Bft)
31.08.2016 23:37 16,8 C 16,8 C 91 % 1019,6 hPa 0,0 mm 4,4 km/h (1 Bft) S 191 0 min 0,000 mm 0,0 UV-I 0 W/m 15,3 C 6,4 km/h (2 Bft)
31.08.2016 23:38 16,8 C 16,8 C 91 % 1019,7 hPa 0,0 mm 4,0 km/h (1 Bft) S-SW 192 0 min 0,000 mm 0,0 UV-I 0 W/m 15,3 C 9,7 km/h (2 Bft)
31.08.2016 23:39 16,8 C 16,8 C 91 % 1019,7 hPa 0,0 mm 9,2 km/h (2 Bft) S 182 0 min 0,000 mm 0,0 UV-I 0 W/m 15,3 C 12,9 km/h (3 Bft)
31.08.2016 23:40 16,9 C 16,9 C 90 % 1019,6 hPa 0,0 mm 6,4 km/h (2 Bft) S 171 0 min 0,000 mm 0,0 UV-I 0 W/m 15,2 C 9,7 km/h (2 Bft)
31.08.2016 23:41 16,9 C 16,9 C 90 % 1019,7 hPa 0,0 mm 6,3 km/h (2 Bft) S 169 0 min 0,000 mm 0,0 UV-I 0 W/m 15,2 C 8,0 km/h (2 Bft)
31.08.2016 23:42 16,9 C 16,9 C 90 % 1019,7 hPa 0,0 mm 6,4 km/h (2 Bft) S 172 0 min 0,000 mm 0,0 UV-I 0 W/m 15,2 C 8,0 km/h (2 Bft)
31.08.2016 23:43 17,0 C 17,0 C 90 % 1019,7 hPa 0,0 mm 5,8 km/h (2 Bft) S 172 0 min 0,000 mm 0,0 UV-I 0 W/m 15,3 C 8,0 km/h (2 Bft)
31.08.2016 23:44 17,1 C 17,1 C 90 % 1019,7 hPa 0,0 mm 3,4 km/h (1 Bft) S 172 0 min 0,000 mm 0,0 UV-I 0 W/m 15,4 C 4,8 km/h (1 Bft)
31.08.2016 23:45 17,1 C 17,1 C 90 % 1019,7 hPa 0,0 mm 3,2 km/h (1 Bft) S-SW 200 0 min 0,000 mm 0,0 UV-I 0 W/m 15,4 C 6,4 km/h (2 Bft)
31.08.2016 23:46 17,2 C 17,2 C 90 % 1019,7 hPa 0,0 mm 2,3 km/h (1 Bft) S-SW 194 0 min 0,000 mm 0,0 UV-I 0 W/m 15,5 C 4,8 km/h (1 Bft)
31.08.2016 23:47 17,2 C 17,2 C 89 % 1019,7 hPa 0,0 mm 2,4 km/h (1 Bft) S-SW 194 0 min 0,000 mm 0,0 UV-I 0 W/m 15,4 C 3,2 km/h (1 Bft)
31.08.2016 23:48 17,2 C 17,2 C 89 % 1019,7 hPa 0,0 mm 2,4 km/h (1 Bft) S-SW 193 0 min 0,000 mm 0,0 UV-I 0 W/m 15,4 C 3,2 km/h (1 Bft)
31.08.2016 23:49 17,2 C 17,2 C 90 % 1019,7 hPa 0,0 mm 3,0 km/h (1 Bft) S 185 0 min 0,000 mm 0,0 UV-I 0 W/m 15,5 C 4,8 km/h (1 Bft)
31.08.2016 23:50 17,1 C 17,2 C 90 % 1019,7 hPa 0,0 mm 2,8 km/h (1 Bft) S 184 0 min 0,000 mm 0,0 UV-I 0 W/m 15,4 C 4,8 km/h (1 Bft)
31.08.2016 23:51 17,1 C 17,1 C 90 % 1019,7 hPa 0,0 mm 3,2 km/h (1 Bft) S 184 0 min 0,000 mm 0,0 UV-I 0 W/m 15,4 C 4,8 km/h (1 Bft)
31.08.2016 23:52 17,0 C 17,1 C 90 % 1019,7 hPa 0,0 mm 3,0 km/h (1 Bft) S 186 0 min 0,000 mm 0,0 UV-I 0 W/m 15,3 C 4,8 km/h (1 Bft)
31.08.2016 23:53 17,0 C 17,1 C 90 % 1019,7 hPa 0,0 mm 4,4 km/h (1 Bft) S 184 0 min 0,000 mm 0,0 UV-I 0 W/m 15,3 C 6,4 km/h (2 Bft)
31.08.2016 23:54 17,0 C 17,0 C 90 % 1019,7 hPa 0,0 mm 3,4 km/h (1 Bft) S 182 0 min 0,000 mm 0,0 UV-I 0 W/m 15,3 C 4,8 km/h (1 Bft)
31.08.2016 23:55 17,0 C 17,0 C 90 % 1019,7 hPa 0,0 mm 3,2 km/h (1 Bft) S 182 0 min 0,000 mm 0,0 UV-I 0 W/m 15,3 C 3,2 km/h (1 Bft)
31.08.2016 23:56 17,0 C 17,0 C 90 % 1019,7 hPa 0,0 mm 4,0 km/h (1 Bft) S 175 0 min 0,000 mm 0,0 UV-I 0 W/m 15,3 C 6,4 km/h (2 Bft)
31.08.2016 23:57 17,1 C 17,1 C 90 % 1019,7 hPa 0,0 mm 5,8 km/h (2 Bft) S-SO 166 0 min 0,000 mm 0,0 UV-I 0 W/m 15,4 C 8,0 km/h (2 Bft)
31.08.2016 23:58 17,1 C 17,1 C 90 % 1019,7 hPa 0,0 mm 3,7 km/h (1 Bft) S 173 0 min 0,000 mm 0,0 UV-I 0 W/m 15,4 C 4,8 km/h (1 Bft)
31.08.2016 23:59 17,1 C 17,1 C 90 % 1019,7 hPa 0,0 mm 3,8 km/h (1 Bft) S-SO 165 0 min 0,000 mm 0,0 UV-I 0 W/m 15,4 C 6,4 km/h (2 Bft)
_ Min-Zeit 06:50 07:01 13:59 19:23 - 21:58 - - - - - - 06:50 21:58
Minimum _ 10,6 C 10,7 C 68 % 1018,0 hPa - 0,0 km/h (0 Bft) - - - - - - 10,0 C 0,0 km/h (0 Bft)
_ Max-Zeit 14:01 14:02 10:08 00:07 23:59 15:48 - - 11:44 15:01 13:24 14:41 14:56 15:49
Maximum _ 23,4 C 23,4 C 97 % 1020,4 hPa 0,0 mm 10,6 km/h
O (2 Bft)
- - 2 min 0,457 mm 6,0 UV-I 814 W/m 19,2 C 16,1 km/h
O (3 Bft)
Durchschnitt _ 17,0 C 17,0 C 88 % 1019,1 hPa #0,0 mm 2,1 km/h (1 Bft) O-NO - #6:10 h #2,870 mm 3,3 UV-I 197 W/m 14,9 C 3,5 km/h (1 Bft)